<?xml version="1.0" encoding="UTF-8" standalone="no" ?>
<gpx xmlns="http://www.topografix.com/GPX/1/1" xmlns:xsi="http://www.w3.org/2001/XMLSchema-instance" xsi:schemaLocation="http://www.topografix.com/GPX/1/1 http://www.topografix.com/GPX/1/1/gpx.xsd" version="1.1" creator="VisuGPX - https://www.visugpx.com">
  <metadata>
    <name>DT 06 Pic du Pal</name>
  </metadata>
  <trk>
    <name><![CDATA[Pic du Pal sur TraceDeTrail.fr]]></name>
    <trkseg>
      <trkpt lat="44.30914" lon="3.00349">
        <ele>1</ele>
        <time>2021-05-09T07:42:03.000Z</time>
      </trkpt>
      <trkpt lat="44.30927" lon="3.00357">
        <ele>685</ele>
        <time>2021-05-09T07:42:13.000Z</time>
      </trkpt>
      <trkpt lat="44.30945" lon="3.00367">
        <ele>685</ele>
        <time>2021-05-09T07:42:36.000Z</time>
      </trkpt>
      <trkpt lat="44.30952" lon="3.00376">
        <ele>684</ele>
        <time>2021-05-09T07:42:46.000Z</time>
      </trkpt>
      <trkpt lat="44.3096" lon="3.00385">
        <ele>684</ele>
        <time>2021-05-09T07:42:46.000Z</time>
      </trkpt>
      <trkpt lat="44.30979" lon="3.00403">
        <ele>686</ele>
        <time>2021-05-09T07:42:56.000Z</time>
      </trkpt>
      <trkpt lat="44.30987" lon="3.00412">
        <ele>685</ele>
        <time>2021-05-09T07:43:06.000Z</time>
      </trkpt>
      <trkpt lat="44.30995" lon="3.0042">
        <ele>685</ele>
        <time>2021-05-09T07:43:07.000Z</time>
      </trkpt>
      <trkpt lat="44.31003" lon="3.00428">
        <ele>685</ele>
        <time>2021-05-09T07:43:17.000Z</time>
      </trkpt>
      <trkpt lat="44.31022" lon="3.00442">
        <ele>685</ele>
        <time>2021-05-09T07:43:23.000Z</time>
      </trkpt>
      <trkpt lat="44.31038" lon="3.00457">
        <ele>684</ele>
        <time>2021-05-09T07:43:33.000Z</time>
      </trkpt>
      <trkpt lat="44.3106" lon="3.0047">
        <ele>683</ele>
        <time>2021-05-09T07:43:43.000Z</time>
      </trkpt>
      <trkpt lat="44.31069" lon="3.00471">
        <ele>682</ele>
        <time>2021-05-09T07:43:53.000Z</time>
      </trkpt>
      <trkpt lat="44.31059" lon="3.00469">
        <ele>682</ele>
        <time>2021-05-09T07:44:09.000Z</time>
      </trkpt>
      <trkpt lat="44.31049" lon="3.00463">
        <ele>683</ele>
        <time>2021-05-09T07:44:19.000Z</time>
      </trkpt>
      <trkpt lat="44.3104" lon="3.00462">
        <ele>683</ele>
        <time>2021-05-09T07:44:22.000Z</time>
      </trkpt>
      <trkpt lat="44.31046" lon="3.00474">
        <ele>684</ele>
        <time>2021-05-09T07:44:32.000Z</time>
      </trkpt>
      <trkpt lat="44.31064" lon="3.00481">
        <ele>684</ele>
        <time>2021-05-09T07:44:40.000Z</time>
      </trkpt>
      <trkpt lat="44.31073" lon="3.00482">
        <ele>683</ele>
        <time>2021-05-09T07:44:50.000Z</time>
      </trkpt>
      <trkpt lat="44.31084" lon="3.00483">
        <ele>683</ele>
        <time>2021-05-09T07:44:50.000Z</time>
      </trkpt>
      <trkpt lat="44.31093" lon="3.00484">
        <ele>683</ele>
        <time>2021-05-09T07:45:00.000Z</time>
      </trkpt>
      <trkpt lat="44.31103" lon="3.00486">
        <ele>683</ele>
        <time>2021-05-09T07:45:10.000Z</time>
      </trkpt>
      <trkpt lat="44.31112" lon="3.00491">
        <ele>683</ele>
        <time>2021-05-09T07:45:07.000Z</time>
      </trkpt>
      <trkpt lat="44.31121" lon="3.00497">
        <ele>683</ele>
        <time>2021-05-09T07:45:17.000Z</time>
      </trkpt>
      <trkpt lat="44.31143" lon="3.00509">
        <ele>681</ele>
        <time>2021-05-09T07:45:21.000Z</time>
      </trkpt>
      <trkpt lat="44.3116" lon="3.00523">
        <ele>681</ele>
        <time>2021-05-09T07:45:30.000Z</time>
      </trkpt>
      <trkpt lat="44.31168" lon="3.00529">
        <ele>681</ele>
        <time>2021-05-09T07:45:40.000Z</time>
      </trkpt>
      <trkpt lat="44.31176" lon="3.00533">
        <ele>681</ele>
        <time>2021-05-09T07:45:50.000Z</time>
      </trkpt>
      <trkpt lat="44.31186" lon="3.0053">
        <ele>681</ele>
        <time>2021-05-09T07:45:44.000Z</time>
      </trkpt>
      <trkpt lat="44.31196" lon="3.00534">
        <ele>680</ele>
        <time>2021-05-09T07:45:54.000Z</time>
      </trkpt>
      <trkpt lat="44.31232" lon="3.00555">
        <ele>680</ele>
        <time>2021-05-09T07:46:09.000Z</time>
      </trkpt>
      <trkpt lat="44.31269" lon="3.00568">
        <ele>678</ele>
        <time>2021-05-09T07:46:25.000Z</time>
      </trkpt>
      <trkpt lat="44.31288" lon="3.00571">
        <ele>677</ele>
        <time>2021-05-09T07:46:35.000Z</time>
      </trkpt>
      <trkpt lat="44.31299" lon="3.00572">
        <ele>677</ele>
        <time>2021-05-09T07:46:38.000Z</time>
      </trkpt>
      <trkpt lat="44.31328" lon="3.00569">
        <ele>676</ele>
        <time>2021-05-09T07:46:49.000Z</time>
      </trkpt>
      <trkpt lat="44.31339" lon="3.0057">
        <ele>676</ele>
        <time>2021-05-09T07:46:59.000Z</time>
      </trkpt>
      <trkpt lat="44.31349" lon="3.0057">
        <ele>675</ele>
        <time>2021-05-09T07:47:01.000Z</time>
      </trkpt>
      <trkpt lat="44.31359" lon="3.00568">
        <ele>675</ele>
        <time>2021-05-09T07:47:11.000Z</time>
      </trkpt>
      <trkpt lat="44.31368" lon="3.00564">
        <ele>675</ele>
        <time>2021-05-09T07:47:21.000Z</time>
      </trkpt>
      <trkpt lat="44.31376" lon="3.00559">
        <ele>675</ele>
        <time>2021-05-09T07:47:14.000Z</time>
      </trkpt>
      <trkpt lat="44.31385" lon="3.00558">
        <ele>674</ele>
        <time>2021-05-09T07:47:24.000Z</time>
      </trkpt>
      <trkpt lat="44.31396" lon="3.00562">
        <ele>675</ele>
        <time>2021-05-09T07:47:23.000Z</time>
      </trkpt>
      <trkpt lat="44.31405" lon="3.00564">
        <ele>675</ele>
        <time>2021-05-09T07:47:33.000Z</time>
      </trkpt>
      <trkpt lat="44.31414" lon="3.00563">
        <ele>675</ele>
        <time>2021-05-09T07:47:43.000Z</time>
      </trkpt>
      <trkpt lat="44.31424" lon="3.00564">
        <ele>674</ele>
        <time>2021-05-09T07:47:37.000Z</time>
      </trkpt>
      <trkpt lat="44.31434" lon="3.00564">
        <ele>674</ele>
        <time>2021-05-09T07:47:47.000Z</time>
      </trkpt>
      <trkpt lat="44.31453" lon="3.00565">
        <ele>673</ele>
        <time>2021-05-09T07:47:49.000Z</time>
      </trkpt>
      <trkpt lat="44.31464" lon="3.00564">
        <ele>673</ele>
        <time>2021-05-09T07:47:59.000Z</time>
      </trkpt>
      <trkpt lat="44.31484" lon="3.00567">
        <ele>673</ele>
        <time>2021-05-09T07:48:02.000Z</time>
      </trkpt>
      <trkpt lat="44.31495" lon="3.0057">
        <ele>672</ele>
        <time>2021-05-09T07:48:12.000Z</time>
      </trkpt>
      <trkpt lat="44.31505" lon="3.00572">
        <ele>672</ele>
        <time>2021-05-09T07:48:12.000Z</time>
      </trkpt>
      <trkpt lat="44.31514" lon="3.00574">
        <ele>672</ele>
        <time>2021-05-09T07:48:22.000Z</time>
      </trkpt>
      <trkpt lat="44.31525" lon="3.00576">
        <ele>672</ele>
        <time>2021-05-09T07:48:21.000Z</time>
      </trkpt>
      <trkpt lat="44.31535" lon="3.00579">
        <ele>672</ele>
        <time>2021-05-09T07:48:31.000Z</time>
      </trkpt>
      <trkpt lat="44.31567" lon="3.00585">
        <ele>671</ele>
        <time>2021-05-09T07:48:40.000Z</time>
      </trkpt>
      <trkpt lat="44.31578" lon="3.00588">
        <ele>670</ele>
        <time>2021-05-09T07:48:50.000Z</time>
      </trkpt>
      <trkpt lat="44.31595" lon="3.00594">
        <ele>671</ele>
        <time>2021-05-09T07:48:55.000Z</time>
      </trkpt>
      <trkpt lat="44.31605" lon="3.00595">
        <ele>670</ele>
        <time>2021-05-09T07:49:05.000Z</time>
      </trkpt>
      <trkpt lat="44.31614" lon="3.00598">
        <ele>670</ele>
        <time>2021-05-09T07:49:15.000Z</time>
      </trkpt>
      <trkpt lat="44.31624" lon="3.00599">
        <ele>670</ele>
        <time>2021-05-09T07:49:07.000Z</time>
      </trkpt>
      <trkpt lat="44.31655" lon="3.00597">
        <ele>669</ele>
        <time>2021-05-09T07:49:19.000Z</time>
      </trkpt>
      <trkpt lat="44.31675" lon="3.00595">
        <ele>669</ele>
        <time>2021-05-09T07:49:27.000Z</time>
      </trkpt>
      <trkpt lat="44.31704" lon="3.00593">
        <ele>669</ele>
        <time>2021-05-09T07:49:39.000Z</time>
      </trkpt>
      <trkpt lat="44.31733" lon="3.00588">
        <ele>668</ele>
        <time>2021-05-09T07:49:51.000Z</time>
      </trkpt>
      <trkpt lat="44.31744" lon="3.00585">
        <ele>668</ele>
        <time>2021-05-09T07:50:01.000Z</time>
      </trkpt>
      <trkpt lat="44.31755" lon="3.00584">
        <ele>668</ele>
        <time>2021-05-09T07:50:01.000Z</time>
      </trkpt>
      <trkpt lat="44.31773" lon="3.0058">
        <ele>667</ele>
        <time>2021-05-09T07:50:11.000Z</time>
      </trkpt>
      <trkpt lat="44.31803" lon="3.00576">
        <ele>666</ele>
        <time>2021-05-09T07:50:22.000Z</time>
      </trkpt>
      <trkpt lat="44.31824" lon="3.00572">
        <ele>664</ele>
        <time>2021-05-09T07:50:31.000Z</time>
      </trkpt>
      <trkpt lat="44.31843" lon="3.0057">
        <ele>664</ele>
        <time>2021-05-09T07:50:39.000Z</time>
      </trkpt>
      <trkpt lat="44.31883" lon="3.00567">
        <ele>661</ele>
        <time>2021-05-09T07:50:55.000Z</time>
      </trkpt>
      <trkpt lat="44.31894" lon="3.00566">
        <ele>660</ele>
        <time>2021-05-09T07:51:05.000Z</time>
      </trkpt>
      <trkpt lat="44.31914" lon="3.00564">
        <ele>658</ele>
        <time>2021-05-09T07:51:06.000Z</time>
      </trkpt>
      <trkpt lat="44.31924" lon="3.00565">
        <ele>658</ele>
        <time>2021-05-09T07:51:16.000Z</time>
      </trkpt>
      <trkpt lat="44.31933" lon="3.00567">
        <ele>657</ele>
        <time>2021-05-09T07:51:26.000Z</time>
      </trkpt>
      <trkpt lat="44.3196" lon="3.00583">
        <ele>656</ele>
        <time>2021-05-09T07:51:26.000Z</time>
      </trkpt>
      <trkpt lat="44.31969" lon="3.00582">
        <ele>656</ele>
        <time>2021-05-09T07:51:36.000Z</time>
      </trkpt>
      <trkpt lat="44.31979" lon="3.00582">
        <ele>656</ele>
        <time>2021-05-09T07:51:46.000Z</time>
      </trkpt>
      <trkpt lat="44.31986" lon="3.00592">
        <ele>656</ele>
        <time>2021-05-09T07:51:40.000Z</time>
      </trkpt>
      <trkpt lat="44.31992" lon="3.00602">
        <ele>656</ele>
        <time>2021-05-09T07:51:50.000Z</time>
      </trkpt>
      <trkpt lat="44.32014" lon="3.00633">
        <ele>655</ele>
        <time>2021-05-09T07:51:58.000Z</time>
      </trkpt>
      <trkpt lat="44.32032" lon="3.00646">
        <ele>655</ele>
        <time>2021-05-09T07:52:11.000Z</time>
      </trkpt>
      <trkpt lat="44.3204" lon="3.00651">
        <ele>656</ele>
        <time>2021-05-09T07:52:21.000Z</time>
      </trkpt>
      <trkpt lat="44.32049" lon="3.0066">
        <ele>656</ele>
        <time>2021-05-09T07:52:28.000Z</time>
      </trkpt>
      <trkpt lat="44.32056" lon="3.0067">
        <ele>656</ele>
        <time>2021-05-09T07:52:38.000Z</time>
      </trkpt>
      <trkpt lat="44.32061" lon="3.00685">
        <ele>656</ele>
        <time>2021-05-09T07:52:41.000Z</time>
      </trkpt>
      <trkpt lat="44.32069" lon="3.00711">
        <ele>656</ele>
        <time>2021-05-09T07:52:51.000Z</time>
      </trkpt>
      <trkpt lat="44.32078" lon="3.00737">
        <ele>657</ele>
        <time>2021-05-09T07:53:00.000Z</time>
      </trkpt>
      <trkpt lat="44.32088" lon="3.00776">
        <ele>657</ele>
        <time>2021-05-09T07:53:12.000Z</time>
      </trkpt>
      <trkpt lat="44.32095" lon="3.008">
        <ele>657</ele>
        <time>2021-05-09T07:53:22.000Z</time>
      </trkpt>
      <trkpt lat="44.321" lon="3.00811">
        <ele>657</ele>
        <time>2021-05-09T07:53:27.000Z</time>
      </trkpt>
      <trkpt lat="44.32108" lon="3.00823">
        <ele>658</ele>
        <time>2021-05-09T07:53:37.000Z</time>
      </trkpt>
      <trkpt lat="44.32117" lon="3.00833">
        <ele>658</ele>
        <time>2021-05-09T07:53:42.000Z</time>
      </trkpt>
      <trkpt lat="44.32124" lon="3.00844">
        <ele>659</ele>
        <time>2021-05-09T07:53:52.000Z</time>
      </trkpt>
      <trkpt lat="44.32131" lon="3.00852">
        <ele>661</ele>
        <time>2021-05-09T07:53:55.000Z</time>
      </trkpt>
      <trkpt lat="44.32138" lon="3.00862">
        <ele>662</ele>
        <time>2021-05-09T07:54:05.000Z</time>
      </trkpt>
      <trkpt lat="44.32146" lon="3.00868">
        <ele>662</ele>
        <time>2021-05-09T07:54:15.000Z</time>
      </trkpt>
      <trkpt lat="44.32154" lon="3.00877">
        <ele>664</ele>
        <time>2021-05-09T07:54:15.000Z</time>
      </trkpt>
      <trkpt lat="44.32161" lon="3.00887">
        <ele>665</ele>
        <time>2021-05-09T07:54:25.000Z</time>
      </trkpt>
      <trkpt lat="44.32172" lon="3.00913">
        <ele>669</ele>
        <time>2021-05-09T07:54:38.000Z</time>
      </trkpt>
      <trkpt lat="44.32185" lon="3.00925">
        <ele>672</ele>
        <time>2021-05-09T07:54:48.000Z</time>
      </trkpt>
      <trkpt lat="44.32192" lon="3.00935">
        <ele>674</ele>
        <time>2021-05-09T07:54:54.000Z</time>
      </trkpt>
      <trkpt lat="44.32216" lon="3.0098">
        <ele>683</ele>
        <time>2021-05-09T07:55:26.000Z</time>
      </trkpt>
      <trkpt lat="44.32222" lon="3.0099">
        <ele>681</ele>
        <time>2021-05-09T07:55:36.000Z</time>
      </trkpt>
      <trkpt lat="44.32236" lon="3.01013">
        <ele>688</ele>
        <time>2021-05-09T07:55:50.000Z</time>
      </trkpt>
      <trkpt lat="44.32244" lon="3.01023">
        <ele>689</ele>
        <time>2021-05-09T07:56:00.000Z</time>
      </trkpt>
      <trkpt lat="44.32251" lon="3.01035">
        <ele>692</ele>
        <time>2021-05-09T07:56:08.000Z</time>
      </trkpt>
      <trkpt lat="44.3227" lon="3.01048">
        <ele>698</ele>
        <time>2021-05-09T07:56:33.000Z</time>
      </trkpt>
      <trkpt lat="44.32277" lon="3.01057">
        <ele>699</ele>
        <time>2021-05-09T07:56:43.000Z</time>
      </trkpt>
      <trkpt lat="44.32285" lon="3.01066">
        <ele>702</ele>
        <time>2021-05-09T07:56:52.000Z</time>
      </trkpt>
      <trkpt lat="44.32289" lon="3.01077">
        <ele>704</ele>
        <time>2021-05-09T07:57:02.000Z</time>
      </trkpt>
      <trkpt lat="44.32306" lon="3.01097">
        <ele>708</ele>
        <time>2021-05-09T07:57:19.000Z</time>
      </trkpt>
      <trkpt lat="44.32323" lon="3.01104">
        <ele>711</ele>
        <time>2021-05-09T07:57:29.000Z</time>
      </trkpt>
      <trkpt lat="44.32337" lon="3.01124">
        <ele>715</ele>
        <time>2021-05-09T07:57:53.000Z</time>
      </trkpt>
      <trkpt lat="44.3234" lon="3.01131">
        <ele>715</ele>
        <time>2021-05-09T07:58:03.000Z</time>
      </trkpt>
      <trkpt lat="44.32344" lon="3.01118">
        <ele>716</ele>
        <time>2021-05-09T07:58:13.000Z</time>
      </trkpt>
      <trkpt lat="44.32346" lon="3.01094">
        <ele>719</ele>
        <time>2021-05-09T08:00:42.000Z</time>
      </trkpt>
      <trkpt lat="44.32353" lon="3.0108">
        <ele>722</ele>
        <time>2021-05-09T08:00:52.000Z</time>
      </trkpt>
      <trkpt lat="44.3236" lon="3.01085">
        <ele>724</ele>
        <time>2021-05-09T08:01:02.000Z</time>
      </trkpt>
      <trkpt lat="44.32367" lon="3.01074">
        <ele>727</ele>
        <time>2021-05-09T08:01:09.000Z</time>
      </trkpt>
      <trkpt lat="44.32372" lon="3.0106">
        <ele>728</ele>
        <time>2021-05-09T08:01:19.000Z</time>
      </trkpt>
      <trkpt lat="44.32377" lon="3.0105">
        <ele>730</ele>
        <time>2021-05-09T08:01:25.000Z</time>
      </trkpt>
      <trkpt lat="44.32384" lon="3.01042">
        <ele>732</ele>
        <time>2021-05-09T08:01:35.000Z</time>
      </trkpt>
      <trkpt lat="44.32391" lon="3.01032">
        <ele>734</ele>
        <time>2021-05-09T08:01:45.000Z</time>
      </trkpt>
      <trkpt lat="44.32401" lon="3.01012">
        <ele>739</ele>
        <time>2021-05-09T08:01:56.000Z</time>
      </trkpt>
      <trkpt lat="44.32406" lon="3.01">
        <ele>740</ele>
        <time>2021-05-09T08:02:06.000Z</time>
      </trkpt>
      <trkpt lat="44.32419" lon="3.00979">
        <ele>744</ele>
        <time>2021-05-09T08:02:20.000Z</time>
      </trkpt>
      <trkpt lat="44.32426" lon="3.00971">
        <ele>746</ele>
        <time>2021-05-09T08:02:30.000Z</time>
      </trkpt>
      <trkpt lat="44.32433" lon="3.00959">
        <ele>748</ele>
        <time>2021-05-09T08:02:37.000Z</time>
      </trkpt>
      <trkpt lat="44.3244" lon="3.00946">
        <ele>751</ele>
        <time>2021-05-09T08:02:47.000Z</time>
      </trkpt>
      <trkpt lat="44.32443" lon="3.00933">
        <ele>752</ele>
        <time>2021-05-09T08:02:51.000Z</time>
      </trkpt>
      <trkpt lat="44.32446" lon="3.00917">
        <ele>753</ele>
        <time>2021-05-09T08:03:01.000Z</time>
      </trkpt>
      <trkpt lat="44.32447" lon="3.00875">
        <ele>757</ele>
        <time>2021-05-09T08:03:18.000Z</time>
      </trkpt>
      <trkpt lat="44.3245" lon="3.00845">
        <ele>758</ele>
        <time>2021-05-09T08:03:30.000Z</time>
      </trkpt>
      <trkpt lat="44.32452" lon="3.00829">
        <ele>759</ele>
        <time>2021-05-09T08:03:40.000Z</time>
      </trkpt>
      <trkpt lat="44.32459" lon="3.00805">
        <ele>761</ele>
        <time>2021-05-09T08:03:49.000Z</time>
      </trkpt>
      <trkpt lat="44.3246" lon="3.00837">
        <ele>774</ele>
        <time>2021-05-09T08:03:59.000Z</time>
      </trkpt>
      <trkpt lat="44.3246" lon="3.0087">
        <ele>774.7</ele>
        <time>2021-05-09T08:04:09.000Z</time>
      </trkpt>
      <trkpt lat="44.32466" lon="3.00891">
        <ele>778.3</ele>
        <time>2021-05-09T08:04:19.000Z</time>
      </trkpt>
      <trkpt lat="44.32478" lon="3.00912">
        <ele>782.4</ele>
        <time>2021-05-09T08:04:29.000Z</time>
      </trkpt>
      <trkpt lat="44.32483" lon="3.00897">
        <ele>783.8</ele>
        <time>2021-05-09T08:04:39.000Z</time>
      </trkpt>
      <trkpt lat="44.32489" lon="3.00855">
        <ele>785.7</ele>
        <time>2021-05-09T08:04:49.000Z</time>
      </trkpt>
      <trkpt lat="44.32497" lon="3.00815">
        <ele>787.3</ele>
        <time>2021-05-09T08:04:59.000Z</time>
      </trkpt>
      <trkpt lat="44.3251" lon="3.00758">
        <ele>787.1</ele>
        <time>2021-05-09T08:05:09.000Z</time>
      </trkpt>
      <trkpt lat="44.32521" lon="3.00724">
        <ele>788.4</ele>
        <time>2021-05-09T08:05:19.000Z</time>
      </trkpt>
      <trkpt lat="44.32532" lon="3.00696">
        <ele>790.6</ele>
        <time>2021-05-09T08:05:29.000Z</time>
      </trkpt>
      <trkpt lat="44.32539" lon="3.00662">
        <ele>791.3</ele>
        <time>2021-05-09T08:05:39.000Z</time>
      </trkpt>
      <trkpt lat="44.32541" lon="3.00641">
        <ele>791.3</ele>
        <time>2021-05-09T08:05:49.000Z</time>
      </trkpt>
      <trkpt lat="44.32546" lon="3.00624">
        <ele>792.5</ele>
        <time>2021-05-09T08:05:59.000Z</time>
      </trkpt>
      <trkpt lat="44.32548" lon="3.00602">
        <ele>792.8</ele>
        <time>2021-05-09T08:06:09.000Z</time>
      </trkpt>
      <trkpt lat="44.32556" lon="3.00582">
        <ele>796</ele>
        <time>2021-05-09T08:06:19.000Z</time>
      </trkpt>
      <trkpt lat="44.3256" lon="3.00567">
        <ele>795.8</ele>
        <time>2021-05-09T08:06:29.000Z</time>
      </trkpt>
      <trkpt lat="44.32562" lon="3.00549">
        <ele>795.3</ele>
        <time>2021-05-09T08:06:39.000Z</time>
      </trkpt>
      <trkpt lat="44.32569" lon="3.0052">
        <ele>795.3</ele>
        <time>2021-05-09T08:06:49.000Z</time>
      </trkpt>
      <trkpt lat="44.32572" lon="3.00501">
        <ele>795.6</ele>
        <time>2021-05-09T08:06:59.000Z</time>
      </trkpt>
      <trkpt lat="44.32577" lon="3.00488">
        <ele>796.1</ele>
        <time>2021-05-09T08:07:09.000Z</time>
      </trkpt>
      <trkpt lat="44.32582" lon="3.00474">
        <ele>796.7</ele>
        <time>2021-05-09T08:07:19.000Z</time>
      </trkpt>
      <trkpt lat="44.32592" lon="3.00457">
        <ele>796.9</ele>
        <time>2021-05-09T08:07:29.000Z</time>
      </trkpt>
      <trkpt lat="44.32595" lon="3.00441">
        <ele>796.8</ele>
        <time>2021-05-09T08:07:39.000Z</time>
      </trkpt>
      <trkpt lat="44.326" lon="3.00429">
        <ele>797</ele>
        <time>2021-05-09T08:07:49.000Z</time>
      </trkpt>
      <trkpt lat="44.32602" lon="3.00411">
        <ele>796.9</ele>
        <time>2021-05-09T08:07:59.000Z</time>
      </trkpt>
      <trkpt lat="44.32607" lon="3.00393">
        <ele>797.4</ele>
        <time>2021-05-09T08:08:09.000Z</time>
      </trkpt>
      <trkpt lat="44.32615" lon="3.00376">
        <ele>797.5</ele>
        <time>2021-05-09T08:08:19.000Z</time>
      </trkpt>
      <trkpt lat="44.32615" lon="3.00359">
        <ele>797</ele>
        <time>2021-05-09T08:08:29.000Z</time>
      </trkpt>
      <trkpt lat="44.32618" lon="3.00347">
        <ele>797.1</ele>
        <time>2021-05-09T08:08:39.000Z</time>
      </trkpt>
      <trkpt lat="44.32617" lon="3.00337">
        <ele>797.2</ele>
        <time>2021-05-09T08:08:49.000Z</time>
      </trkpt>
      <trkpt lat="44.3262" lon="3.00327">
        <ele>797.1</ele>
        <time>2021-05-09T08:08:59.000Z</time>
      </trkpt>
      <trkpt lat="44.32621" lon="3.00318">
        <ele>796.8</ele>
        <time>2021-05-09T08:09:09.000Z</time>
      </trkpt>
      <trkpt lat="44.32623" lon="3.00297">
        <ele>791</ele>
        <time>2021-05-09T08:07:48.000Z</time>
      </trkpt>
      <trkpt lat="44.32639" lon="3.00282">
        <ele>791</ele>
        <time>2021-05-09T08:07:57.000Z</time>
      </trkpt>
      <trkpt lat="44.32646" lon="3.00274">
        <ele>791</ele>
        <time>2021-05-09T08:08:07.000Z</time>
      </trkpt>
      <trkpt lat="44.3266" lon="3.00255">
        <ele>791</ele>
        <time>2021-05-09T08:08:09.000Z</time>
      </trkpt>
      <trkpt lat="44.32674" lon="3.00233">
        <ele>790</ele>
        <time>2021-05-09T08:08:17.000Z</time>
      </trkpt>
      <trkpt lat="44.32679" lon="3.00222">
        <ele>789</ele>
        <time>2021-05-09T08:08:27.000Z</time>
      </trkpt>
      <trkpt lat="44.32686" lon="3.00211">
        <ele>788</ele>
        <time>2021-05-09T08:08:25.000Z</time>
      </trkpt>
      <trkpt lat="44.32692" lon="3.00199">
        <ele>788</ele>
        <time>2021-05-09T08:08:35.000Z</time>
      </trkpt>
      <trkpt lat="44.32708" lon="3.00161">
        <ele>785</ele>
        <time>2021-05-09T08:08:41.000Z</time>
      </trkpt>
      <trkpt lat="44.32715" lon="3.00149">
        <ele>785</ele>
        <time>2021-05-09T08:08:51.000Z</time>
      </trkpt>
      <trkpt lat="44.32722" lon="3.00139">
        <ele>784</ele>
        <time>2021-05-09T08:08:49.000Z</time>
      </trkpt>
      <trkpt lat="44.32734" lon="3.00117">
        <ele>784</ele>
        <time>2021-05-09T08:08:58.000Z</time>
      </trkpt>
      <trkpt lat="44.3275" lon="3.00101">
        <ele>785</ele>
        <time>2021-05-09T08:09:08.000Z</time>
      </trkpt>
      <trkpt lat="44.32759" lon="3.00097">
        <ele>785</ele>
        <time>2021-05-09T08:09:11.000Z</time>
      </trkpt>
      <trkpt lat="44.32778" lon="3.00085">
        <ele>784</ele>
        <time>2021-05-09T08:09:22.000Z</time>
      </trkpt>
      <trkpt lat="44.32808" lon="3.00062">
        <ele>785</ele>
        <time>2021-05-09T08:09:37.000Z</time>
      </trkpt>
      <trkpt lat="44.32817" lon="3.00056">
        <ele>784</ele>
        <time>2021-05-09T08:09:47.000Z</time>
      </trkpt>
      <trkpt lat="44.32827" lon="3.0005">
        <ele>784</ele>
        <time>2021-05-09T08:09:45.000Z</time>
      </trkpt>
      <trkpt lat="44.32861" lon="3.00025">
        <ele>784</ele>
        <time>2021-05-09T08:10:01.000Z</time>
      </trkpt>
      <trkpt lat="44.32869" lon="3.00018">
        <ele>784</ele>
        <time>2021-05-09T08:10:11.000Z</time>
      </trkpt>
      <trkpt lat="44.32878" lon="3.00014">
        <ele>783</ele>
        <time>2021-05-09T08:10:21.000Z</time>
      </trkpt>
      <trkpt lat="44.32886" lon="3.00007">
        <ele>782</ele>
        <time>2021-05-09T08:10:13.000Z</time>
      </trkpt>
      <trkpt lat="44.32897" lon="3">
        <ele>782</ele>
        <time>2021-05-09T08:10:23.000Z</time>
      </trkpt>
      <trkpt lat="44.3293" lon="2.99965">
        <ele>781</ele>
        <time>2021-05-09T08:10:32.000Z</time>
      </trkpt>
      <trkpt lat="44.32946" lon="2.99938">
        <ele>779</ele>
        <time>2021-05-09T08:10:42.000Z</time>
      </trkpt>
      <trkpt lat="44.3295" lon="2.99926">
        <ele>779</ele>
        <time>2021-05-09T08:10:52.000Z</time>
      </trkpt>
      <trkpt lat="44.32959" lon="2.99897">
        <ele>778</ele>
        <time>2021-05-09T08:10:54.000Z</time>
      </trkpt>
      <trkpt lat="44.32964" lon="2.99886">
        <ele>777</ele>
        <time>2021-05-09T08:11:04.000Z</time>
      </trkpt>
      <trkpt lat="44.32976" lon="2.99847">
        <ele>777</ele>
        <time>2021-05-09T08:11:11.000Z</time>
      </trkpt>
      <trkpt lat="44.32981" lon="2.99837">
        <ele>778</ele>
        <time>2021-05-09T08:11:21.000Z</time>
      </trkpt>
      <trkpt lat="44.32988" lon="2.9981">
        <ele>777</ele>
        <time>2021-05-09T08:11:23.000Z</time>
      </trkpt>
      <trkpt lat="44.32998" lon="2.99787">
        <ele>776</ele>
        <time>2021-05-09T08:11:33.000Z</time>
      </trkpt>
      <trkpt lat="44.33003" lon="2.99776">
        <ele>777</ele>
        <time>2021-05-09T08:11:35.000Z</time>
      </trkpt>
      <trkpt lat="44.33009" lon="2.99765">
        <ele>777</ele>
        <time>2021-05-09T08:11:45.000Z</time>
      </trkpt>
      <trkpt lat="44.33016" lon="2.99755">
        <ele>777</ele>
        <time>2021-05-09T08:11:43.000Z</time>
      </trkpt>
      <trkpt lat="44.33021" lon="2.99743">
        <ele>778</ele>
        <time>2021-05-09T08:11:53.000Z</time>
      </trkpt>
      <trkpt lat="44.33053" lon="2.99701">
        <ele>776</ele>
        <time>2021-05-09T08:12:07.000Z</time>
      </trkpt>
      <trkpt lat="44.33046" lon="2.99693">
        <ele>776</ele>
        <time>2021-05-09T08:12:17.000Z</time>
      </trkpt>
      <trkpt lat="44.33038" lon="2.99666">
        <ele>775</ele>
        <time>2021-05-09T08:12:46.000Z</time>
      </trkpt>
      <trkpt lat="44.33036" lon="2.99653">
        <ele>775</ele>
        <time>2021-05-09T08:12:56.000Z</time>
      </trkpt>
      <trkpt lat="44.33037" lon="2.9964">
        <ele>774</ele>
        <time>2021-05-09T08:13:06.000Z</time>
      </trkpt>
      <trkpt lat="44.3304" lon="2.99627">
        <ele>774</ele>
        <time>2021-05-09T08:13:00.000Z</time>
      </trkpt>
      <trkpt lat="44.33042" lon="2.99611">
        <ele>776</ele>
        <time>2021-05-09T08:13:10.000Z</time>
      </trkpt>
      <trkpt lat="44.33048" lon="2.99599">
        <ele>777</ele>
        <time>2021-05-09T08:13:14.000Z</time>
      </trkpt>
      <trkpt lat="44.33052" lon="2.99588">
        <ele>777</ele>
        <time>2021-05-09T08:13:24.000Z</time>
      </trkpt>
      <trkpt lat="44.33061" lon="2.99572">
        <ele>778</ele>
        <time>2021-05-09T08:13:26.000Z</time>
      </trkpt>
      <trkpt lat="44.33065" lon="2.9956">
        <ele>779</ele>
        <time>2021-05-09T08:13:36.000Z</time>
      </trkpt>
      <trkpt lat="44.33072" lon="2.99547">
        <ele>779</ele>
        <time>2021-05-09T08:13:36.000Z</time>
      </trkpt>
      <trkpt lat="44.33087" lon="2.99528">
        <ele>780</ele>
        <time>2021-05-09T08:13:44.000Z</time>
      </trkpt>
      <trkpt lat="44.3311" lon="2.99502">
        <ele>781</ele>
        <time>2021-05-09T08:13:57.000Z</time>
      </trkpt>
      <trkpt lat="44.33117" lon="2.99492">
        <ele>782</ele>
        <time>2021-05-09T08:14:07.000Z</time>
      </trkpt>
      <trkpt lat="44.33135" lon="2.99456">
        <ele>783</ele>
        <time>2021-05-09T08:14:15.000Z</time>
      </trkpt>
      <trkpt lat="44.3314" lon="2.99444">
        <ele>783</ele>
        <time>2021-05-09T08:14:25.000Z</time>
      </trkpt>
      <trkpt lat="44.33148" lon="2.99429">
        <ele>783</ele>
        <time>2021-05-09T08:14:26.000Z</time>
      </trkpt>
      <trkpt lat="44.33153" lon="2.99418">
        <ele>783</ele>
        <time>2021-05-09T08:14:36.000Z</time>
      </trkpt>
      <trkpt lat="44.33158" lon="2.99407">
        <ele>783</ele>
        <time>2021-05-09T08:14:34.000Z</time>
      </trkpt>
      <trkpt lat="44.33164" lon="2.99397">
        <ele>783</ele>
        <time>2021-05-09T08:14:44.000Z</time>
      </trkpt>
      <trkpt lat="44.33169" lon="2.99385">
        <ele>784</ele>
        <time>2021-05-09T08:14:54.000Z</time>
      </trkpt>
      <trkpt lat="44.33176" lon="2.99361">
        <ele>784</ele>
        <time>2021-05-09T08:14:50.000Z</time>
      </trkpt>
      <trkpt lat="44.33186" lon="2.99325">
        <ele>784</ele>
        <time>2021-05-09T08:15:02.000Z</time>
      </trkpt>
      <trkpt lat="44.3319" lon="2.99312">
        <ele>785</ele>
        <time>2021-05-09T08:15:12.000Z</time>
      </trkpt>
      <trkpt lat="44.33196" lon="2.99299">
        <ele>785</ele>
        <time>2021-05-09T08:15:11.000Z</time>
      </trkpt>
      <trkpt lat="44.332" lon="2.99287">
        <ele>785</ele>
        <time>2021-05-09T08:15:21.000Z</time>
      </trkpt>
      <trkpt lat="44.33202" lon="2.99274">
        <ele>785</ele>
        <time>2021-05-09T08:15:31.000Z</time>
      </trkpt>
      <trkpt lat="44.3321" lon="2.9925">
        <ele>785</ele>
        <time>2021-05-09T08:15:27.000Z</time>
      </trkpt>
      <trkpt lat="44.33216" lon="2.99222">
        <ele>785</ele>
        <time>2021-05-09T08:15:36.000Z</time>
      </trkpt>
      <trkpt lat="44.33225" lon="2.99194">
        <ele>785</ele>
        <time>2021-05-09T08:15:46.000Z</time>
      </trkpt>
      <trkpt lat="44.33238" lon="2.99172">
        <ele>785</ele>
        <time>2021-05-09T08:15:55.000Z</time>
      </trkpt>
      <trkpt lat="44.33244" lon="2.99157">
        <ele>785</ele>
        <time>2021-05-09T08:16:05.000Z</time>
      </trkpt>
      <trkpt lat="44.33248" lon="2.99145">
        <ele>786</ele>
        <time>2021-05-09T08:16:06.000Z</time>
      </trkpt>
      <trkpt lat="44.33251" lon="2.99131">
        <ele>786</ele>
        <time>2021-05-09T08:16:16.000Z</time>
      </trkpt>
      <trkpt lat="44.33255" lon="2.99116">
        <ele>785</ele>
        <time>2021-05-09T08:16:20.000Z</time>
      </trkpt>
      <trkpt lat="44.33264" lon="2.99097">
        <ele>784</ele>
        <time>2021-05-09T08:16:30.000Z</time>
      </trkpt>
      <trkpt lat="44.33271" lon="2.99085">
        <ele>783</ele>
        <time>2021-05-09T08:16:32.000Z</time>
      </trkpt>
      <trkpt lat="44.33295" lon="2.99055">
        <ele>780</ele>
        <time>2021-05-09T08:16:45.000Z</time>
      </trkpt>
      <trkpt lat="44.33302" lon="2.99044">
        <ele>780</ele>
        <time>2021-05-09T08:16:55.000Z</time>
      </trkpt>
      <trkpt lat="44.33319" lon="2.99012">
        <ele>777</ele>
        <time>2021-05-09T08:17:00.000Z</time>
      </trkpt>
      <trkpt lat="44.33326" lon="2.99001">
        <ele>777</ele>
        <time>2021-05-09T08:17:10.000Z</time>
      </trkpt>
      <trkpt lat="44.33335" lon="2.98988">
        <ele>776</ele>
        <time>2021-05-09T08:17:09.000Z</time>
      </trkpt>
      <trkpt lat="44.33343" lon="2.98971">
        <ele>774</ele>
        <time>2021-05-09T08:17:19.000Z</time>
      </trkpt>
      <trkpt lat="44.33349" lon="2.9896">
        <ele>773</ele>
        <time>2021-05-09T08:17:19.000Z</time>
      </trkpt>
      <trkpt lat="44.33354" lon="2.98945">
        <ele>771</ele>
        <time>2021-05-09T08:17:29.000Z</time>
      </trkpt>
      <trkpt lat="44.33359" lon="2.98931">
        <ele>769</ele>
        <time>2021-05-09T08:17:27.000Z</time>
      </trkpt>
      <trkpt lat="44.33363" lon="2.98919">
        <ele>767</ele>
        <time>2021-05-09T08:17:37.000Z</time>
      </trkpt>
      <trkpt lat="44.33365" lon="2.98905">
        <ele>765</ele>
        <time>2021-05-09T08:17:35.000Z</time>
      </trkpt>
      <trkpt lat="44.33366" lon="2.98891">
        <ele>763</ele>
        <time>2021-05-09T08:17:45.000Z</time>
      </trkpt>
      <trkpt lat="44.33368" lon="2.98877">
        <ele>763</ele>
        <time>2021-05-09T08:17:43.000Z</time>
      </trkpt>
      <trkpt lat="44.33371" lon="2.98865">
        <ele>762</ele>
        <time>2021-05-09T08:17:53.000Z</time>
      </trkpt>
      <trkpt lat="44.33373" lon="2.98852">
        <ele>762</ele>
        <time>2021-05-09T08:18:03.000Z</time>
      </trkpt>
      <trkpt lat="44.33377" lon="2.9884">
        <ele>761</ele>
        <time>2021-05-09T08:17:52.000Z</time>
      </trkpt>
      <trkpt lat="44.3338" lon="2.98824">
        <ele>760</ele>
        <time>2021-05-09T08:18:02.000Z</time>
      </trkpt>
      <trkpt lat="44.33388" lon="2.98796">
        <ele>758</ele>
        <time>2021-05-09T08:18:04.000Z</time>
      </trkpt>
      <trkpt lat="44.33398" lon="2.98774">
        <ele>753</ele>
        <time>2021-05-09T08:18:14.000Z</time>
      </trkpt>
      <trkpt lat="44.33402" lon="2.98759">
        <ele>752</ele>
        <time>2021-05-09T08:18:16.000Z</time>
      </trkpt>
      <trkpt lat="44.33408" lon="2.98745">
        <ele>752</ele>
        <time>2021-05-09T08:18:26.000Z</time>
      </trkpt>
      <trkpt lat="44.33425" lon="2.98709">
        <ele>750</ele>
        <time>2021-05-09T08:18:31.000Z</time>
      </trkpt>
      <trkpt lat="44.33429" lon="2.98698">
        <ele>749</ele>
        <time>2021-05-09T08:18:41.000Z</time>
      </trkpt>
      <trkpt lat="44.33441" lon="2.98675">
        <ele>749</ele>
        <time>2021-05-09T08:18:45.000Z</time>
      </trkpt>
      <trkpt lat="44.33448" lon="2.98661">
        <ele>746</ele>
        <time>2021-05-09T08:18:55.000Z</time>
      </trkpt>
      <trkpt lat="44.33457" lon="2.98655">
        <ele>743</ele>
        <time>2021-05-09T08:19:19.000Z</time>
      </trkpt>
      <trkpt lat="44.33465" lon="2.98647">
        <ele>741</ele>
        <time>2021-05-09T08:19:29.000Z</time>
      </trkpt>
      <trkpt lat="44.33476" lon="2.98617">
        <ele>747.4</ele>
        <time>2021-05-09T08:19:39.000Z</time>
      </trkpt>
      <trkpt lat="44.33487" lon="2.9859">
        <ele>745.4</ele>
        <time>2021-05-09T08:19:49.000Z</time>
      </trkpt>
      <trkpt lat="44.33491" lon="2.98578">
        <ele>744.9</ele>
        <time>2021-05-09T08:19:59.000Z</time>
      </trkpt>
      <trkpt lat="44.33495" lon="2.98571">
        <ele>744.2</ele>
        <time>2021-05-09T08:20:09.000Z</time>
      </trkpt>
      <trkpt lat="44.33497" lon="2.98558">
        <ele>744.6</ele>
        <time>2021-05-09T08:20:19.000Z</time>
      </trkpt>
      <trkpt lat="44.33504" lon="2.98538">
        <ele>742.6</ele>
        <time>2021-05-09T08:20:29.000Z</time>
      </trkpt>
      <trkpt lat="44.33509" lon="2.98529">
        <ele>740.8</ele>
        <time>2021-05-09T08:20:39.000Z</time>
      </trkpt>
      <trkpt lat="44.33514" lon="2.98516">
        <ele>739.6</ele>
        <time>2021-05-09T08:20:49.000Z</time>
      </trkpt>
      <trkpt lat="44.33515" lon="2.98502">
        <ele>740</ele>
        <time>2021-05-09T08:20:59.000Z</time>
      </trkpt>
      <trkpt lat="44.33517" lon="2.98483">
        <ele>731</ele>
        <time>2021-05-09T08:22:37.000Z</time>
      </trkpt>
      <trkpt lat="44.33523" lon="2.98458">
        <ele>730</ele>
        <time>2021-05-09T08:22:47.000Z</time>
      </trkpt>
      <trkpt lat="44.33531" lon="2.98431">
        <ele>726</ele>
        <time>2021-05-09T08:23:05.000Z</time>
      </trkpt>
      <trkpt lat="44.3353" lon="2.98417">
        <ele>725</ele>
        <time>2021-05-09T08:23:15.000Z</time>
      </trkpt>
      <trkpt lat="44.33531" lon="2.984">
        <ele>723</ele>
        <time>2021-05-09T08:23:22.000Z</time>
      </trkpt>
      <trkpt lat="44.33531" lon="2.98387">
        <ele>721</ele>
        <time>2021-05-09T08:23:32.000Z</time>
      </trkpt>
      <trkpt lat="44.33533" lon="2.98375">
        <ele>720</ele>
        <time>2021-05-09T08:23:42.000Z</time>
      </trkpt>
      <trkpt lat="44.33538" lon="2.98363">
        <ele>718</ele>
        <time>2021-05-09T08:23:41.000Z</time>
      </trkpt>
      <trkpt lat="44.33546" lon="2.98334">
        <ele>713</ele>
        <time>2021-05-09T08:23:57.000Z</time>
      </trkpt>
      <trkpt lat="44.33563" lon="2.98307">
        <ele>707</ele>
        <time>2021-05-09T08:24:10.000Z</time>
      </trkpt>
      <trkpt lat="44.33566" lon="2.98283">
        <ele>706</ele>
        <time>2021-05-09T08:24:20.000Z</time>
      </trkpt>
      <trkpt lat="44.33569" lon="2.9827">
        <ele>705</ele>
        <time>2021-05-09T08:24:44.000Z</time>
      </trkpt>
      <trkpt lat="44.3357" lon="2.98256">
        <ele>704</ele>
        <time>2021-05-09T08:24:54.000Z</time>
      </trkpt>
      <trkpt lat="44.33576" lon="2.98235">
        <ele>703</ele>
        <time>2021-05-09T08:24:59.000Z</time>
      </trkpt>
      <trkpt lat="44.33583" lon="2.98219">
        <ele>700</ele>
        <time>2021-05-09T08:25:09.000Z</time>
      </trkpt>
      <trkpt lat="44.33587" lon="2.98207">
        <ele>699</ele>
        <time>2021-05-09T08:25:09.000Z</time>
      </trkpt>
      <trkpt lat="44.3359" lon="2.98192">
        <ele>698</ele>
        <time>2021-05-09T08:25:19.000Z</time>
      </trkpt>
      <trkpt lat="44.33597" lon="2.98181">
        <ele>696</ele>
        <time>2021-05-09T08:25:25.000Z</time>
      </trkpt>
      <trkpt lat="44.336" lon="2.98167">
        <ele>694</ele>
        <time>2021-05-09T08:25:35.000Z</time>
      </trkpt>
      <trkpt lat="44.33603" lon="2.98153">
        <ele>692</ele>
        <time>2021-05-09T08:25:36.000Z</time>
      </trkpt>
      <trkpt lat="44.33615" lon="2.98113">
        <ele>685</ele>
        <time>2021-05-09T08:25:51.000Z</time>
      </trkpt>
      <trkpt lat="44.33617" lon="2.98098">
        <ele>683</ele>
        <time>2021-05-09T08:26:01.000Z</time>
      </trkpt>
      <trkpt lat="44.33621" lon="2.98085">
        <ele>681</ele>
        <time>2021-05-09T08:26:01.000Z</time>
      </trkpt>
      <trkpt lat="44.33623" lon="2.98072">
        <ele>679</ele>
        <time>2021-05-09T08:26:11.000Z</time>
      </trkpt>
      <trkpt lat="44.33626" lon="2.98043">
        <ele>675</ele>
        <time>2021-05-09T08:26:15.000Z</time>
      </trkpt>
      <trkpt lat="44.3363" lon="2.98031">
        <ele>673</ele>
        <time>2021-05-09T08:26:25.000Z</time>
      </trkpt>
      <trkpt lat="44.33633" lon="2.98017">
        <ele>672</ele>
        <time>2021-05-09T08:26:25.000Z</time>
      </trkpt>
      <trkpt lat="44.33634" lon="2.98003">
        <ele>671</ele>
        <time>2021-05-09T08:26:35.000Z</time>
      </trkpt>
      <trkpt lat="44.3363" lon="2.97976">
        <ele>668</ele>
        <time>2021-05-09T08:26:44.000Z</time>
      </trkpt>
      <trkpt lat="44.33627" lon="2.97964">
        <ele>665</ele>
        <time>2021-05-09T08:26:54.000Z</time>
      </trkpt>
      <trkpt lat="44.33622" lon="2.97953">
        <ele>664</ele>
        <time>2021-05-09T08:27:04.000Z</time>
      </trkpt>
      <trkpt lat="44.33612" lon="2.97932">
        <ele>662</ele>
        <time>2021-05-09T08:27:22.000Z</time>
      </trkpt>
      <trkpt lat="44.33595" lon="2.97913">
        <ele>660</ele>
        <time>2021-05-09T08:27:37.000Z</time>
      </trkpt>
      <trkpt lat="44.33597" lon="2.97892">
        <ele>661</ele>
        <time>2021-05-09T08:27:47.000Z</time>
      </trkpt>
      <trkpt lat="44.33595" lon="2.97878">
        <ele>661</ele>
        <time>2021-05-09T08:28:05.000Z</time>
      </trkpt>
      <trkpt lat="44.33583" lon="2.97862">
        <ele>663</ele>
        <time>2021-05-09T08:28:15.000Z</time>
      </trkpt>
      <trkpt lat="44.33577" lon="2.97853">
        <ele>664</ele>
        <time>2021-05-09T08:28:26.000Z</time>
      </trkpt>
      <trkpt lat="44.33571" lon="2.97836">
        <ele>665</ele>
        <time>2021-05-09T08:28:36.000Z</time>
      </trkpt>
      <trkpt lat="44.33563" lon="2.97826">
        <ele>665</ele>
        <time>2021-05-09T08:28:55.000Z</time>
      </trkpt>
      <trkpt lat="44.33558" lon="2.97814">
        <ele>666</ele>
        <time>2021-05-09T08:29:05.000Z</time>
      </trkpt>
      <trkpt lat="44.33551" lon="2.97803">
        <ele>667</ele>
        <time>2021-05-09T08:29:13.000Z</time>
      </trkpt>
      <trkpt lat="44.33544" lon="2.97792">
        <ele>668</ele>
        <time>2021-05-09T08:29:23.000Z</time>
      </trkpt>
      <trkpt lat="44.33538" lon="2.9778">
        <ele>669</ele>
        <time>2021-05-09T08:29:32.000Z</time>
      </trkpt>
      <trkpt lat="44.33542" lon="2.97766">
        <ele>669</ele>
        <time>2021-05-09T08:29:42.000Z</time>
      </trkpt>
      <trkpt lat="44.33548" lon="2.97751">
        <ele>668</ele>
        <time>2021-05-09T08:29:51.000Z</time>
      </trkpt>
      <trkpt lat="44.33551" lon="2.97723">
        <ele>665</ele>
        <time>2021-05-09T08:30:04.000Z</time>
      </trkpt>
      <trkpt lat="44.33558" lon="2.97695">
        <ele>662</ele>
        <time>2021-05-09T08:30:20.000Z</time>
      </trkpt>
      <trkpt lat="44.3357" lon="2.97671">
        <ele>657</ele>
        <time>2021-05-09T08:30:33.000Z</time>
      </trkpt>
      <trkpt lat="44.33578" lon="2.97663">
        <ele>655</ele>
        <time>2021-05-09T08:30:43.000Z</time>
      </trkpt>
      <trkpt lat="44.33597" lon="2.9765">
        <ele>652</ele>
        <time>2021-05-09T08:30:52.000Z</time>
      </trkpt>
      <trkpt lat="44.33606" lon="2.97645">
        <ele>650</ele>
        <time>2021-05-09T08:31:02.000Z</time>
      </trkpt>
      <trkpt lat="44.33635" lon="2.97632">
        <ele>645</ele>
        <time>2021-05-09T08:31:15.000Z</time>
      </trkpt>
      <trkpt lat="44.33646" lon="2.97623">
        <ele>642</ele>
        <time>2021-05-09T08:31:25.000Z</time>
      </trkpt>
      <trkpt lat="44.33653" lon="2.97615">
        <ele>642</ele>
        <time>2021-05-09T08:31:27.000Z</time>
      </trkpt>
      <trkpt lat="44.33661" lon="2.97603">
        <ele>641</ele>
        <time>2021-05-09T08:31:37.000Z</time>
      </trkpt>
      <trkpt lat="44.33666" lon="2.97591">
        <ele>640</ele>
        <time>2021-05-09T08:31:35.000Z</time>
      </trkpt>
      <trkpt lat="44.33671" lon="2.9758">
        <ele>638</ele>
        <time>2021-05-09T08:31:45.000Z</time>
      </trkpt>
      <trkpt lat="44.33679" lon="2.97556">
        <ele>636</ele>
        <time>2021-05-09T08:31:48.000Z</time>
      </trkpt>
      <trkpt lat="44.33684" lon="2.97544">
        <ele>635</ele>
        <time>2021-05-09T08:31:58.000Z</time>
      </trkpt>
      <trkpt lat="44.33696" lon="2.97521">
        <ele>634</ele>
        <time>2021-05-09T08:32:00.000Z</time>
      </trkpt>
      <trkpt lat="44.33703" lon="2.97509">
        <ele>634</ele>
        <time>2021-05-09T08:32:10.000Z</time>
      </trkpt>
      <trkpt lat="44.33712" lon="2.97498">
        <ele>632</ele>
        <time>2021-05-09T08:32:08.000Z</time>
      </trkpt>
      <trkpt lat="44.33723" lon="2.97475">
        <ele>630</ele>
        <time>2021-05-09T08:32:17.000Z</time>
      </trkpt>
      <trkpt lat="44.33731" lon="2.97447">
        <ele>630</ele>
        <time>2021-05-09T08:32:25.000Z</time>
      </trkpt>
      <trkpt lat="44.33735" lon="2.97435">
        <ele>630</ele>
        <time>2021-05-09T08:32:35.000Z</time>
      </trkpt>
      <trkpt lat="44.33741" lon="2.97407">
        <ele>630</ele>
        <time>2021-05-09T08:32:40.000Z</time>
      </trkpt>
      <trkpt lat="44.33748" lon="2.97398">
        <ele>630</ele>
        <time>2021-05-09T08:32:50.000Z</time>
      </trkpt>
      <trkpt lat="44.33756" lon="2.97392">
        <ele>630</ele>
        <time>2021-05-09T08:33:00.000Z</time>
      </trkpt>
      <trkpt lat="44.33765" lon="2.97387">
        <ele>630</ele>
        <time>2021-05-09T08:32:54.000Z</time>
      </trkpt>
      <trkpt lat="44.33774" lon="2.9738">
        <ele>630</ele>
        <time>2021-05-09T08:33:04.000Z</time>
      </trkpt>
      <trkpt lat="44.33798" lon="2.97351">
        <ele>629</ele>
        <time>2021-05-09T08:33:12.000Z</time>
      </trkpt>
      <trkpt lat="44.33811" lon="2.97328">
        <ele>629</ele>
        <time>2021-05-09T08:33:21.000Z</time>
      </trkpt>
      <trkpt lat="44.33816" lon="2.97318">
        <ele>630</ele>
        <time>2021-05-09T08:33:31.000Z</time>
      </trkpt>
      <trkpt lat="44.33822" lon="2.97308">
        <ele>630</ele>
        <time>2021-05-09T08:33:41.000Z</time>
      </trkpt>
      <trkpt lat="44.33823" lon="2.97295">
        <ele>630</ele>
        <time>2021-05-09T08:33:33.000Z</time>
      </trkpt>
      <trkpt lat="44.3382" lon="2.97281">
        <ele>631</ele>
        <time>2021-05-09T08:33:43.000Z</time>
      </trkpt>
      <trkpt lat="44.33813" lon="2.97256">
        <ele>630</ele>
        <time>2021-05-09T08:33:56.000Z</time>
      </trkpt>
      <trkpt lat="44.33792" lon="2.97258">
        <ele>627</ele>
        <time>2021-05-09T08:34:16.000Z</time>
      </trkpt>
      <trkpt lat="44.33782" lon="2.97256">
        <ele>626</ele>
        <time>2021-05-09T08:34:26.000Z</time>
      </trkpt>
      <trkpt lat="44.33772" lon="2.97253">
        <ele>625</ele>
        <time>2021-05-09T08:34:24.000Z</time>
      </trkpt>
      <trkpt lat="44.33757" lon="2.97243">
        <ele>624</ele>
        <time>2021-05-09T08:34:34.000Z</time>
      </trkpt>
      <trkpt lat="44.33749" lon="2.97237">
        <ele>624</ele>
        <time>2021-05-09T08:34:34.000Z</time>
      </trkpt>
      <trkpt lat="44.3374" lon="2.97223">
        <ele>624</ele>
        <time>2021-05-09T08:34:44.000Z</time>
      </trkpt>
      <trkpt lat="44.33732" lon="2.97215">
        <ele>624</ele>
        <time>2021-05-09T08:34:43.000Z</time>
      </trkpt>
      <trkpt lat="44.33725" lon="2.97204">
        <ele>624</ele>
        <time>2021-05-09T08:34:53.000Z</time>
      </trkpt>
      <trkpt lat="44.33715" lon="2.97196">
        <ele>623</ele>
        <time>2021-05-09T08:34:57.000Z</time>
      </trkpt>
      <trkpt lat="44.33713" lon="2.97171">
        <ele>623</ele>
        <time>2021-05-09T08:35:07.000Z</time>
      </trkpt>
      <trkpt lat="44.33704" lon="2.97164">
        <ele>623</ele>
        <time>2021-05-09T08:35:28.000Z</time>
      </trkpt>
      <trkpt lat="44.33692" lon="2.9715">
        <ele>623</ele>
        <time>2021-05-09T08:35:38.000Z</time>
      </trkpt>
      <trkpt lat="44.33687" lon="2.97135">
        <ele>624</ele>
        <time>2021-05-09T08:35:40.000Z</time>
      </trkpt>
      <trkpt lat="44.3368" lon="2.97123">
        <ele>625</ele>
        <time>2021-05-09T08:35:50.000Z</time>
      </trkpt>
      <trkpt lat="44.33672" lon="2.97112">
        <ele>626</ele>
        <time>2021-05-09T08:35:51.000Z</time>
      </trkpt>
      <trkpt lat="44.33663" lon="2.97103">
        <ele>627</ele>
        <time>2021-05-09T08:36:01.000Z</time>
      </trkpt>
      <trkpt lat="44.33654" lon="2.97094">
        <ele>628</ele>
        <time>2021-05-09T08:36:05.000Z</time>
      </trkpt>
      <trkpt lat="44.33645" lon="2.97089">
        <ele>629</ele>
        <time>2021-05-09T08:36:15.000Z</time>
      </trkpt>
      <trkpt lat="44.33635" lon="2.97088">
        <ele>630</ele>
        <time>2021-05-09T08:36:16.000Z</time>
      </trkpt>
      <trkpt lat="44.33625" lon="2.97083">
        <ele>630</ele>
        <time>2021-05-09T08:36:26.000Z</time>
      </trkpt>
      <trkpt lat="44.33615" lon="2.9708">
        <ele>630</ele>
        <time>2021-05-09T08:36:27.000Z</time>
      </trkpt>
      <trkpt lat="44.33605" lon="2.97075">
        <ele>630</ele>
        <time>2021-05-09T08:36:37.000Z</time>
      </trkpt>
      <trkpt lat="44.33596" lon="2.97069">
        <ele>630</ele>
        <time>2021-05-09T08:36:38.000Z</time>
      </trkpt>
      <trkpt lat="44.33592" lon="2.97057">
        <ele>632</ele>
        <time>2021-05-09T08:36:48.000Z</time>
      </trkpt>
      <trkpt lat="44.33593" lon="2.97043">
        <ele>633</ele>
        <time>2021-05-09T08:36:51.000Z</time>
      </trkpt>
      <trkpt lat="44.33597" lon="2.9703">
        <ele>633</ele>
        <time>2021-05-09T08:37:01.000Z</time>
      </trkpt>
      <trkpt lat="44.33597" lon="2.97017">
        <ele>634</ele>
        <time>2021-05-09T08:37:11.000Z</time>
      </trkpt>
      <trkpt lat="44.33587" lon="2.97008">
        <ele>635</ele>
        <time>2021-05-09T08:37:13.000Z</time>
      </trkpt>
      <trkpt lat="44.33578" lon="2.97004">
        <ele>635</ele>
        <time>2021-05-09T08:37:23.000Z</time>
      </trkpt>
      <trkpt lat="44.33566" lon="2.97">
        <ele>635</ele>
        <time>2021-05-09T08:37:27.000Z</time>
      </trkpt>
      <trkpt lat="44.33546" lon="2.96991">
        <ele>636</ele>
        <time>2021-05-09T08:37:41.000Z</time>
      </trkpt>
      <trkpt lat="44.33538" lon="2.96985">
        <ele>636</ele>
        <time>2021-05-09T08:37:51.000Z</time>
      </trkpt>
      <trkpt lat="44.3353" lon="2.96978">
        <ele>636</ele>
        <time>2021-05-09T08:38:01.000Z</time>
      </trkpt>
      <trkpt lat="44.33505" lon="2.96958">
        <ele>638</ele>
        <time>2021-05-09T08:38:03.000Z</time>
      </trkpt>
      <trkpt lat="44.33497" lon="2.96953">
        <ele>638</ele>
        <time>2021-05-09T08:38:13.000Z</time>
      </trkpt>
      <trkpt lat="44.33487" lon="2.96944">
        <ele>638</ele>
        <time>2021-05-09T08:38:12.000Z</time>
      </trkpt>
      <trkpt lat="44.33477" lon="2.9694">
        <ele>639</ele>
        <time>2021-05-09T08:38:22.000Z</time>
      </trkpt>
      <trkpt lat="44.33468" lon="2.96946">
        <ele>639</ele>
        <time>2021-05-09T08:38:22.000Z</time>
      </trkpt>
      <trkpt lat="44.33461" lon="2.96957">
        <ele>637</ele>
        <time>2021-05-09T08:38:32.000Z</time>
      </trkpt>
      <trkpt lat="44.33449" lon="2.96981">
        <ele>636</ele>
        <time>2021-05-09T08:38:35.000Z</time>
      </trkpt>
      <trkpt lat="44.33436" lon="2.97002">
        <ele>637</ele>
        <time>2021-05-09T08:38:42.000Z</time>
      </trkpt>
      <trkpt lat="44.33422" lon="2.97021">
        <ele>636</ele>
        <time>2021-05-09T08:38:50.000Z</time>
      </trkpt>
      <trkpt lat="44.33395" lon="2.97053">
        <ele>635</ele>
        <time>2021-05-09T08:39:04.000Z</time>
      </trkpt>
      <trkpt lat="44.33378" lon="2.97071">
        <ele>634</ele>
        <time>2021-05-09T08:39:23.000Z</time>
      </trkpt>
      <trkpt lat="44.33369" lon="2.97078">
        <ele>634</ele>
        <time>2021-05-09T08:39:33.000Z</time>
      </trkpt>
      <trkpt lat="44.33359" lon="2.97086">
        <ele>634</ele>
        <time>2021-05-09T08:39:38.000Z</time>
      </trkpt>
      <trkpt lat="44.33351" lon="2.97092">
        <ele>633</ele>
        <time>2021-05-09T08:39:48.000Z</time>
      </trkpt>
      <trkpt lat="44.33324" lon="2.97117">
        <ele>633</ele>
        <time>2021-05-09T08:39:54.000Z</time>
      </trkpt>
      <trkpt lat="44.33316" lon="2.97126">
        <ele>634</ele>
        <time>2021-05-09T08:40:04.000Z</time>
      </trkpt>
      <trkpt lat="44.333" lon="2.97143">
        <ele>635</ele>
        <time>2021-05-09T08:40:07.000Z</time>
      </trkpt>
      <trkpt lat="44.33284" lon="2.97162">
        <ele>634</ele>
        <time>2021-05-09T08:40:15.000Z</time>
      </trkpt>
      <trkpt lat="44.3326" lon="2.97187">
        <ele>634</ele>
        <time>2021-05-09T08:40:27.000Z</time>
      </trkpt>
      <trkpt lat="44.33253" lon="2.97197">
        <ele>634</ele>
        <time>2021-05-09T08:40:37.000Z</time>
      </trkpt>
      <trkpt lat="44.33243" lon="2.97207">
        <ele>634</ele>
        <time>2021-05-09T08:40:36.000Z</time>
      </trkpt>
      <trkpt lat="44.33235" lon="2.97216">
        <ele>634</ele>
        <time>2021-05-09T08:40:46.000Z</time>
      </trkpt>
      <trkpt lat="44.33219" lon="2.97235">
        <ele>633</ele>
        <time>2021-05-09T08:40:49.000Z</time>
      </trkpt>
      <trkpt lat="44.33191" lon="2.97277">
        <ele>635</ele>
        <time>2021-05-09T08:41:05.000Z</time>
      </trkpt>
      <trkpt lat="44.33184" lon="2.97285">
        <ele>635</ele>
        <time>2021-05-09T08:41:15.000Z</time>
      </trkpt>
      <trkpt lat="44.33173" lon="2.97302">
        <ele>636</ele>
        <time>2021-05-09T08:41:16.000Z</time>
      </trkpt>
      <trkpt lat="44.33164" lon="2.97314">
        <ele>636</ele>
        <time>2021-05-09T08:41:26.000Z</time>
      </trkpt>
      <trkpt lat="44.33156" lon="2.97322">
        <ele>636</ele>
        <time>2021-05-09T08:41:25.000Z</time>
      </trkpt>
      <trkpt lat="44.33131" lon="2.97362">
        <ele>636</ele>
        <time>2021-05-09T08:41:39.000Z</time>
      </trkpt>
      <trkpt lat="44.33117" lon="2.97381">
        <ele>636</ele>
        <time>2021-05-09T08:41:48.000Z</time>
      </trkpt>
      <trkpt lat="44.33103" lon="2.97404">
        <ele>635</ele>
        <time>2021-05-09T08:41:57.000Z</time>
      </trkpt>
      <trkpt lat="44.33097" lon="2.97414">
        <ele>636</ele>
        <time>2021-05-09T08:42:07.000Z</time>
      </trkpt>
      <trkpt lat="44.33093" lon="2.97427">
        <ele>636</ele>
        <time>2021-05-09T08:42:17.000Z</time>
      </trkpt>
      <trkpt lat="44.33088" lon="2.97438">
        <ele>637</ele>
        <time>2021-05-09T08:42:09.000Z</time>
      </trkpt>
      <trkpt lat="44.3308" lon="2.9745">
        <ele>638</ele>
        <time>2021-05-09T08:42:19.000Z</time>
      </trkpt>
      <trkpt lat="44.33071" lon="2.97462">
        <ele>638</ele>
        <time>2021-05-09T08:42:24.000Z</time>
      </trkpt>
      <trkpt lat="44.33062" lon="2.97467">
        <ele>638</ele>
        <time>2021-05-09T08:42:34.000Z</time>
      </trkpt>
      <trkpt lat="44.33035" lon="2.9747">
        <ele>638</ele>
        <time>2021-05-09T08:43:07.000Z</time>
      </trkpt>
      <trkpt lat="44.33017" lon="2.97475">
        <ele>639</ele>
        <time>2021-05-09T08:43:17.000Z</time>
      </trkpt>
      <trkpt lat="44.33006" lon="2.97481">
        <ele>639</ele>
        <time>2021-05-09T08:43:21.000Z</time>
      </trkpt>
      <trkpt lat="44.32988" lon="2.975">
        <ele>638</ele>
        <time>2021-05-09T08:43:34.000Z</time>
      </trkpt>
      <trkpt lat="44.32979" lon="2.97507">
        <ele>637</ele>
        <time>2021-05-09T08:43:44.000Z</time>
      </trkpt>
      <trkpt lat="44.3297" lon="2.97512">
        <ele>637</ele>
        <time>2021-05-09T08:43:44.000Z</time>
      </trkpt>
      <trkpt lat="44.3296" lon="2.9752">
        <ele>637</ele>
        <time>2021-05-09T08:43:54.000Z</time>
      </trkpt>
      <trkpt lat="44.32953" lon="2.97528">
        <ele>638</ele>
        <time>2021-05-09T08:43:52.000Z</time>
      </trkpt>
      <trkpt lat="44.32935" lon="2.97543">
        <ele>639</ele>
        <time>2021-05-09T08:44:01.000Z</time>
      </trkpt>
      <trkpt lat="44.32926" lon="2.97552">
        <ele>640</ele>
        <time>2021-05-09T08:44:11.000Z</time>
      </trkpt>
      <trkpt lat="44.32918" lon="2.97559">
        <ele>641</ele>
        <time>2021-05-09T08:44:12.000Z</time>
      </trkpt>
      <trkpt lat="44.32906" lon="2.97571">
        <ele>640</ele>
        <time>2021-05-09T08:44:22.000Z</time>
      </trkpt>
      <trkpt lat="44.3288" lon="2.9759">
        <ele>640</ele>
        <time>2021-05-09T08:44:31.000Z</time>
      </trkpt>
      <trkpt lat="44.32871" lon="2.97599">
        <ele>641</ele>
        <time>2021-05-09T08:44:41.000Z</time>
      </trkpt>
      <trkpt lat="44.32862" lon="2.97611">
        <ele>643</ele>
        <time>2021-05-09T08:44:42.000Z</time>
      </trkpt>
      <trkpt lat="44.32832" lon="2.97645">
        <ele>645</ele>
        <time>2021-05-09T08:45:01.000Z</time>
      </trkpt>
      <trkpt lat="44.32824" lon="2.97652">
        <ele>646</ele>
        <time>2021-05-09T08:45:11.000Z</time>
      </trkpt>
      <trkpt lat="44.32815" lon="2.97658">
        <ele>646</ele>
        <time>2021-05-09T08:45:13.000Z</time>
      </trkpt>
      <trkpt lat="44.32806" lon="2.97662">
        <ele>647</ele>
        <time>2021-05-09T08:45:23.000Z</time>
      </trkpt>
      <trkpt lat="44.32796" lon="2.97669">
        <ele>649</ele>
        <time>2021-05-09T08:45:41.000Z</time>
      </trkpt>
      <trkpt lat="44.32774" lon="2.97686">
        <ele>652</ele>
        <time>2021-05-09T08:45:58.000Z</time>
      </trkpt>
      <trkpt lat="44.32765" lon="2.97691">
        <ele>652</ele>
        <time>2021-05-09T08:46:08.000Z</time>
      </trkpt>
      <trkpt lat="44.32754" lon="2.97689">
        <ele>653</ele>
        <time>2021-05-09T08:46:12.000Z</time>
      </trkpt>
      <trkpt lat="44.32734" lon="2.97677">
        <ele>658</ele>
        <time>2021-05-09T08:46:28.000Z</time>
      </trkpt>
      <trkpt lat="44.32725" lon="2.97668">
        <ele>659</ele>
        <time>2021-05-09T08:46:38.000Z</time>
      </trkpt>
      <trkpt lat="44.32722" lon="2.97656">
        <ele>661</ele>
        <time>2021-05-09T08:46:42.000Z</time>
      </trkpt>
      <trkpt lat="44.32725" lon="2.97643">
        <ele>662</ele>
        <time>2021-05-09T08:46:52.000Z</time>
      </trkpt>
      <trkpt lat="44.32725" lon="2.97628">
        <ele>665</ele>
        <time>2021-05-09T08:46:57.000Z</time>
      </trkpt>
      <trkpt lat="44.32727" lon="2.97615">
        <ele>665</ele>
        <time>2021-05-09T08:47:07.000Z</time>
      </trkpt>
      <trkpt lat="44.3273" lon="2.97602">
        <ele>665</ele>
        <time>2021-05-09T08:47:09.000Z</time>
      </trkpt>
      <trkpt lat="44.32735" lon="2.97591">
        <ele>666</ele>
        <time>2021-05-09T08:47:19.000Z</time>
      </trkpt>
      <trkpt lat="44.32742" lon="2.97579">
        <ele>666</ele>
        <time>2021-05-09T08:47:19.000Z</time>
      </trkpt>
      <trkpt lat="44.32748" lon="2.97567">
        <ele>666</ele>
        <time>2021-05-09T08:47:29.000Z</time>
      </trkpt>
      <trkpt lat="44.32756" lon="2.97557">
        <ele>666</ele>
        <time>2021-05-09T08:47:28.000Z</time>
      </trkpt>
      <trkpt lat="44.32768" lon="2.97537">
        <ele>665</ele>
        <time>2021-05-09T08:47:38.000Z</time>
      </trkpt>
      <trkpt lat="44.32774" lon="2.97525">
        <ele>665</ele>
        <time>2021-05-09T08:47:40.000Z</time>
      </trkpt>
      <trkpt lat="44.32781" lon="2.97514">
        <ele>665</ele>
        <time>2021-05-09T08:47:50.000Z</time>
      </trkpt>
      <trkpt lat="44.32802" lon="2.97484">
        <ele>661</ele>
        <time>2021-05-09T08:47:56.000Z</time>
      </trkpt>
      <trkpt lat="44.32816" lon="2.97461">
        <ele>659</ele>
        <time>2021-05-09T08:48:04.000Z</time>
      </trkpt>
      <trkpt lat="44.32822" lon="2.97448">
        <ele>659</ele>
        <time>2021-05-09T08:48:14.000Z</time>
      </trkpt>
      <trkpt lat="44.32828" lon="2.97421">
        <ele>659</ele>
        <time>2021-05-09T08:48:16.000Z</time>
      </trkpt>
      <trkpt lat="44.32838" lon="2.97374">
        <ele>657</ele>
        <time>2021-05-09T08:48:29.000Z</time>
      </trkpt>
      <trkpt lat="44.32838" lon="2.97361">
        <ele>656</ele>
        <time>2021-05-09T08:48:39.000Z</time>
      </trkpt>
      <trkpt lat="44.32842" lon="2.97331">
        <ele>653</ele>
        <time>2021-05-09T08:48:40.000Z</time>
      </trkpt>
      <trkpt lat="44.32839" lon="2.97308">
        <ele>650</ele>
        <time>2021-05-09T08:48:50.000Z</time>
      </trkpt>
      <trkpt lat="44.32834" lon="2.97296">
        <ele>650</ele>
        <time>2021-05-09T08:48:49.000Z</time>
      </trkpt>
      <trkpt lat="44.32831" lon="2.97281">
        <ele>649</ele>
        <time>2021-05-09T08:48:59.000Z</time>
      </trkpt>
      <trkpt lat="44.32828" lon="2.97267">
        <ele>649</ele>
        <time>2021-05-09T08:48:57.000Z</time>
      </trkpt>
      <trkpt lat="44.32827" lon="2.97254">
        <ele>648</ele>
        <time>2021-05-09T08:49:07.000Z</time>
      </trkpt>
      <trkpt lat="44.3282" lon="2.97226">
        <ele>648</ele>
        <time>2021-05-09T08:49:09.000Z</time>
      </trkpt>
      <trkpt lat="44.32814" lon="2.97214">
        <ele>648</ele>
        <time>2021-05-09T08:49:19.000Z</time>
      </trkpt>
      <trkpt lat="44.32807" lon="2.97203">
        <ele>649</ele>
        <time>2021-05-09T08:49:18.000Z</time>
      </trkpt>
      <trkpt lat="44.32801" lon="2.97189">
        <ele>649</ele>
        <time>2021-05-09T08:49:28.000Z</time>
      </trkpt>
      <trkpt lat="44.32799" lon="2.97175">
        <ele>648</ele>
        <time>2021-05-09T08:49:27.000Z</time>
      </trkpt>
      <trkpt lat="44.32799" lon="2.97161">
        <ele>647</ele>
        <time>2021-05-09T08:49:37.000Z</time>
      </trkpt>
      <trkpt lat="44.32797" lon="2.9714">
        <ele>647</ele>
        <time>2021-05-09T08:49:37.000Z</time>
      </trkpt>
      <trkpt lat="44.32795" lon="2.97127">
        <ele>647</ele>
        <time>2021-05-09T08:49:47.000Z</time>
      </trkpt>
      <trkpt lat="44.32792" lon="2.97114">
        <ele>646</ele>
        <time>2021-05-09T08:49:45.000Z</time>
      </trkpt>
      <trkpt lat="44.32782" lon="2.97082">
        <ele>646</ele>
        <time>2021-05-09T08:49:58.000Z</time>
      </trkpt>
      <trkpt lat="44.32779" lon="2.97036">
        <ele>647</ele>
        <time>2021-05-09T08:50:13.000Z</time>
      </trkpt>
      <trkpt lat="44.32773" lon="2.97015">
        <ele>646</ele>
        <time>2021-05-09T08:50:23.000Z</time>
      </trkpt>
      <trkpt lat="44.32771" lon="2.97001">
        <ele>646</ele>
        <time>2021-05-09T08:50:23.000Z</time>
      </trkpt>
      <trkpt lat="44.32773" lon="2.96987">
        <ele>647</ele>
        <time>2021-05-09T08:50:33.000Z</time>
      </trkpt>
      <trkpt lat="44.3278" lon="2.96966">
        <ele>647</ele>
        <time>2021-05-09T08:50:35.000Z</time>
      </trkpt>
      <trkpt lat="44.32781" lon="2.96954">
        <ele>648</ele>
        <time>2021-05-09T08:50:45.000Z</time>
      </trkpt>
      <trkpt lat="44.32782" lon="2.9694">
        <ele>648</ele>
        <time>2021-05-09T08:50:55.000Z</time>
      </trkpt>
      <trkpt lat="44.32786" lon="2.96917">
        <ele>648</ele>
        <time>2021-05-09T08:50:51.000Z</time>
      </trkpt>
      <trkpt lat="44.32788" lon="2.96902">
        <ele>646</ele>
        <time>2021-05-09T08:51:01.000Z</time>
      </trkpt>
      <trkpt lat="44.3279" lon="2.9689">
        <ele>648</ele>
        <time>2021-05-09T08:50:59.000Z</time>
      </trkpt>
      <trkpt lat="44.3279" lon="2.96876">
        <ele>648</ele>
        <time>2021-05-09T08:51:09.000Z</time>
      </trkpt>
      <trkpt lat="44.32792" lon="2.9685">
        <ele>649</ele>
        <time>2021-05-09T08:51:11.000Z</time>
      </trkpt>
      <trkpt lat="44.32788" lon="2.96826">
        <ele>650</ele>
        <time>2021-05-09T08:51:21.000Z</time>
      </trkpt>
      <trkpt lat="44.32791" lon="2.96813">
        <ele>649</ele>
        <time>2021-05-09T08:53:02.000Z</time>
      </trkpt>
      <trkpt lat="44.328" lon="2.96822">
        <ele>650</ele>
        <time>2021-05-09T08:53:12.000Z</time>
      </trkpt>
      <trkpt lat="44.3281" lon="2.96831">
        <ele>650</ele>
        <time>2021-05-09T08:53:12.000Z</time>
      </trkpt>
      <trkpt lat="44.32838" lon="2.96848">
        <ele>649</ele>
        <time>2021-05-09T08:53:24.000Z</time>
      </trkpt>
      <trkpt lat="44.32857" lon="2.96862">
        <ele>648</ele>
        <time>2021-05-09T08:53:32.000Z</time>
      </trkpt>
      <trkpt lat="44.32865" lon="2.96856">
        <ele>648</ele>
        <time>2021-05-09T08:53:42.000Z</time>
      </trkpt>
      <trkpt lat="44.32869" lon="2.96844">
        <ele>650</ele>
        <time>2021-05-09T08:53:52.000Z</time>
      </trkpt>
      <trkpt lat="44.32874" lon="2.96832">
        <ele>650</ele>
        <time>2021-05-09T08:53:59.000Z</time>
      </trkpt>
      <trkpt lat="44.32879" lon="2.96821">
        <ele>649</ele>
        <time>2021-05-09T08:54:09.000Z</time>
      </trkpt>
      <trkpt lat="44.32884" lon="2.96811">
        <ele>649</ele>
        <time>2021-05-09T08:54:19.000Z</time>
      </trkpt>
      <trkpt lat="44.32889" lon="2.96798">
        <ele>651</ele>
        <time>2021-05-09T08:54:20.000Z</time>
      </trkpt>
      <trkpt lat="44.32903" lon="2.96781">
        <ele>653</ele>
        <time>2021-05-09T08:54:30.000Z</time>
      </trkpt>
      <trkpt lat="44.32915" lon="2.96759">
        <ele>656</ele>
        <time>2021-05-09T08:54:41.000Z</time>
      </trkpt>
      <trkpt lat="44.32918" lon="2.96743">
        <ele>656</ele>
        <time>2021-05-09T08:54:51.000Z</time>
      </trkpt>
      <trkpt lat="44.3292" lon="2.96726">
        <ele>655</ele>
        <time>2021-05-09T08:54:56.000Z</time>
      </trkpt>
      <trkpt lat="44.32924" lon="2.96712">
        <ele>657</ele>
        <time>2021-05-09T08:55:06.000Z</time>
      </trkpt>
      <trkpt lat="44.32931" lon="2.967">
        <ele>658</ele>
        <time>2021-05-09T08:55:10.000Z</time>
      </trkpt>
      <trkpt lat="44.32931" lon="2.96687">
        <ele>661</ele>
        <time>2021-05-09T08:55:20.000Z</time>
      </trkpt>
      <trkpt lat="44.32927" lon="2.96675">
        <ele>662</ele>
        <time>2021-05-09T08:55:30.000Z</time>
      </trkpt>
      <trkpt lat="44.3293" lon="2.9666">
        <ele>660</ele>
        <time>2021-05-09T08:55:30.000Z</time>
      </trkpt>
      <trkpt lat="44.32931" lon="2.96647">
        <ele>659</ele>
        <time>2021-05-09T08:55:40.000Z</time>
      </trkpt>
      <trkpt lat="44.32934" lon="2.96635">
        <ele>661</ele>
        <time>2021-05-09T08:55:50.000Z</time>
      </trkpt>
      <trkpt lat="44.3294" lon="2.96605">
        <ele>662</ele>
        <time>2021-05-09T08:55:56.000Z</time>
      </trkpt>
      <trkpt lat="44.32947" lon="2.96578">
        <ele>661</ele>
        <time>2021-05-09T08:56:04.000Z</time>
      </trkpt>
      <trkpt lat="44.32952" lon="2.96565">
        <ele>662</ele>
        <time>2021-05-09T08:56:14.000Z</time>
      </trkpt>
      <trkpt lat="44.32964" lon="2.9654">
        <ele>662</ele>
        <time>2021-05-09T08:56:17.000Z</time>
      </trkpt>
      <trkpt lat="44.32969" lon="2.96528">
        <ele>662</ele>
        <time>2021-05-09T08:56:27.000Z</time>
      </trkpt>
      <trkpt lat="44.32974" lon="2.96513">
        <ele>662</ele>
        <time>2021-05-09T08:56:25.000Z</time>
      </trkpt>
      <trkpt lat="44.32978" lon="2.965">
        <ele>662</ele>
        <time>2021-05-09T08:56:35.000Z</time>
      </trkpt>
      <trkpt lat="44.32985" lon="2.9647">
        <ele>662</ele>
        <time>2021-05-09T08:56:37.000Z</time>
      </trkpt>
      <trkpt lat="44.32993" lon="2.96443">
        <ele>663</ele>
        <time>2021-05-09T08:56:45.000Z</time>
      </trkpt>
      <trkpt lat="44.33003" lon="2.96414">
        <ele>663</ele>
        <time>2021-05-09T08:56:53.000Z</time>
      </trkpt>
      <trkpt lat="44.33006" lon="2.964">
        <ele>663</ele>
        <time>2021-05-09T08:57:03.000Z</time>
      </trkpt>
      <trkpt lat="44.33009" lon="2.96386">
        <ele>663</ele>
        <time>2021-05-09T08:57:01.000Z</time>
      </trkpt>
      <trkpt lat="44.33013" lon="2.96373">
        <ele>663</ele>
        <time>2021-05-09T08:57:11.000Z</time>
      </trkpt>
      <trkpt lat="44.33015" lon="2.96361">
        <ele>663</ele>
        <time>2021-05-09T08:57:21.000Z</time>
      </trkpt>
      <trkpt lat="44.3302" lon="2.96349">
        <ele>663</ele>
        <time>2021-05-09T08:57:13.000Z</time>
      </trkpt>
      <trkpt lat="44.33028" lon="2.9632">
        <ele>663</ele>
        <time>2021-05-09T08:57:21.000Z</time>
      </trkpt>
      <trkpt lat="44.33032" lon="2.96308">
        <ele>663</ele>
        <time>2021-05-09T08:57:31.000Z</time>
      </trkpt>
      <trkpt lat="44.33036" lon="2.9628">
        <ele>664</ele>
        <time>2021-05-09T08:57:34.000Z</time>
      </trkpt>
      <trkpt lat="44.33038" lon="2.96257">
        <ele>664</ele>
        <time>2021-05-09T08:57:44.000Z</time>
      </trkpt>
      <trkpt lat="44.3304" lon="2.96244">
        <ele>664</ele>
        <time>2021-05-09T08:57:45.000Z</time>
      </trkpt>
      <trkpt lat="44.33041" lon="2.96229">
        <ele>664</ele>
        <time>2021-05-09T08:57:55.000Z</time>
      </trkpt>
      <trkpt lat="44.33043" lon="2.96215">
        <ele>665</ele>
        <time>2021-05-09T08:57:54.000Z</time>
      </trkpt>
      <trkpt lat="44.33043" lon="2.96202">
        <ele>666</ele>
        <time>2021-05-09T08:58:04.000Z</time>
      </trkpt>
      <trkpt lat="44.33045" lon="2.96184">
        <ele>667</ele>
        <time>2021-05-09T08:58:03.000Z</time>
      </trkpt>
      <trkpt lat="44.33045" lon="2.96169">
        <ele>668</ele>
        <time>2021-05-09T08:58:13.000Z</time>
      </trkpt>
      <trkpt lat="44.33043" lon="2.96155">
        <ele>670</ele>
        <time>2021-05-09T08:58:13.000Z</time>
      </trkpt>
      <trkpt lat="44.33043" lon="2.96129">
        <ele>669</ele>
        <time>2021-05-09T08:58:23.000Z</time>
      </trkpt>
      <trkpt lat="44.33043" lon="2.96115">
        <ele>669</ele>
        <time>2021-05-09T08:58:25.000Z</time>
      </trkpt>
      <trkpt lat="44.33043" lon="2.96102">
        <ele>669</ele>
        <time>2021-05-09T08:58:35.000Z</time>
      </trkpt>
      <trkpt lat="44.33035" lon="2.96091">
        <ele>670</ele>
        <time>2021-05-09T08:58:35.000Z</time>
      </trkpt>
      <trkpt lat="44.33024" lon="2.96091">
        <ele>671</ele>
        <time>2021-05-09T08:58:45.000Z</time>
      </trkpt>
      <trkpt lat="44.33015" lon="2.96094">
        <ele>672</ele>
        <time>2021-05-09T08:58:46.000Z</time>
      </trkpt>
      <trkpt lat="44.32997" lon="2.96103">
        <ele>675</ele>
        <time>2021-05-09T08:58:56.000Z</time>
      </trkpt>
      <trkpt lat="44.32988" lon="2.96107">
        <ele>675</ele>
        <time>2021-05-09T08:59:00.000Z</time>
      </trkpt>
      <trkpt lat="44.32977" lon="2.96109">
        <ele>676</ele>
        <time>2021-05-09T08:59:10.000Z</time>
      </trkpt>
      <trkpt lat="44.32966" lon="2.96113">
        <ele>675</ele>
        <time>2021-05-09T08:59:15.000Z</time>
      </trkpt>
      <trkpt lat="44.32934" lon="2.96118">
        <ele>678</ele>
        <time>2021-05-09T08:59:38.000Z</time>
      </trkpt>
      <trkpt lat="44.32923" lon="2.96121">
        <ele>680</ele>
        <time>2021-05-09T08:59:48.000Z</time>
      </trkpt>
      <trkpt lat="44.32913" lon="2.96123">
        <ele>680</ele>
        <time>2021-05-09T08:59:52.000Z</time>
      </trkpt>
      <trkpt lat="44.32891" lon="2.9613">
        <ele>681</ele>
        <time>2021-05-09T09:00:04.000Z</time>
      </trkpt>
      <trkpt lat="44.32877" lon="2.96139">
        <ele>684</ele>
        <time>2021-05-09T09:00:14.000Z</time>
      </trkpt>
      <trkpt lat="44.32852" lon="2.96159">
        <ele>685</ele>
        <time>2021-05-09T09:00:29.000Z</time>
      </trkpt>
      <trkpt lat="44.32843" lon="2.96166">
        <ele>687</ele>
        <time>2021-05-09T09:00:39.000Z</time>
      </trkpt>
      <trkpt lat="44.32836" lon="2.96175">
        <ele>688</ele>
        <time>2021-05-09T09:00:39.000Z</time>
      </trkpt>
      <trkpt lat="44.32828" lon="2.96183">
        <ele>688</ele>
        <time>2021-05-09T09:00:49.000Z</time>
      </trkpt>
      <trkpt lat="44.32813" lon="2.96202">
        <ele>688</ele>
        <time>2021-05-09T09:00:53.000Z</time>
      </trkpt>
      <trkpt lat="44.32807" lon="2.96213">
        <ele>690</ele>
        <time>2021-05-09T09:01:03.000Z</time>
      </trkpt>
      <trkpt lat="44.32779" lon="2.96253">
        <ele>692</ele>
        <time>2021-05-09T09:01:14.000Z</time>
      </trkpt>
      <trkpt lat="44.32766" lon="2.96267">
        <ele>692</ele>
        <time>2021-05-09T09:01:24.000Z</time>
      </trkpt>
      <trkpt lat="44.32746" lon="2.96298">
        <ele>695</ele>
        <time>2021-05-09T09:01:34.000Z</time>
      </trkpt>
      <trkpt lat="44.32728" lon="2.96317">
        <ele>698</ele>
        <time>2021-05-09T09:01:47.000Z</time>
      </trkpt>
      <trkpt lat="44.3272" lon="2.96322">
        <ele>699</ele>
        <time>2021-05-09T09:01:57.000Z</time>
      </trkpt>
      <trkpt lat="44.32706" lon="2.96342">
        <ele>701</ele>
        <time>2021-05-09T09:02:03.000Z</time>
      </trkpt>
      <trkpt lat="44.32691" lon="2.96361">
        <ele>702</ele>
        <time>2021-05-09T09:02:13.000Z</time>
      </trkpt>
      <trkpt lat="44.32682" lon="2.96368">
        <ele>703</ele>
        <time>2021-05-09T09:02:23.000Z</time>
      </trkpt>
      <trkpt lat="44.32672" lon="2.96378">
        <ele>705</ele>
        <time>2021-05-09T09:02:26.000Z</time>
      </trkpt>
      <trkpt lat="44.32664" lon="2.96382">
        <ele>706</ele>
        <time>2021-05-09T09:02:36.000Z</time>
      </trkpt>
      <trkpt lat="44.32654" lon="2.96385">
        <ele>706</ele>
        <time>2021-05-09T09:02:46.000Z</time>
      </trkpt>
      <trkpt lat="44.32634" lon="2.96395">
        <ele>709</ele>
        <time>2021-05-09T09:02:50.000Z</time>
      </trkpt>
      <trkpt lat="44.32615" lon="2.96396">
        <ele>710</ele>
        <time>2021-05-09T09:03:00.000Z</time>
      </trkpt>
      <trkpt lat="44.32606" lon="2.96391">
        <ele>709</ele>
        <time>2021-05-09T09:03:09.000Z</time>
      </trkpt>
      <trkpt lat="44.32587" lon="2.96387">
        <ele>710</ele>
        <time>2021-05-09T09:03:19.000Z</time>
      </trkpt>
      <trkpt lat="44.32578" lon="2.96383">
        <ele>711</ele>
        <time>2021-05-09T09:03:26.000Z</time>
      </trkpt>
      <trkpt lat="44.3256" lon="2.96365">
        <ele>710</ele>
        <time>2021-05-09T09:03:39.000Z</time>
      </trkpt>
      <trkpt lat="44.32555" lon="2.96351">
        <ele>713</ele>
        <time>2021-05-09T09:03:49.000Z</time>
      </trkpt>
      <trkpt lat="44.32552" lon="2.96339">
        <ele>713</ele>
        <time>2021-05-09T09:03:52.000Z</time>
      </trkpt>
      <trkpt lat="44.3255" lon="2.96326">
        <ele>712</ele>
        <time>2021-05-09T09:04:02.000Z</time>
      </trkpt>
      <trkpt lat="44.32545" lon="2.96284">
        <ele>715</ele>
        <time>2021-05-09T09:04:19.000Z</time>
      </trkpt>
      <trkpt lat="44.32543" lon="2.96271">
        <ele>717</ele>
        <time>2021-05-09T09:04:29.000Z</time>
      </trkpt>
      <trkpt lat="44.32541" lon="2.96258">
        <ele>718</ele>
        <time>2021-05-09T09:04:31.000Z</time>
      </trkpt>
      <trkpt lat="44.32536" lon="2.96245">
        <ele>720</ele>
        <time>2021-05-09T09:04:41.000Z</time>
      </trkpt>
      <trkpt lat="44.32533" lon="2.96233">
        <ele>722</ele>
        <time>2021-05-09T09:04:51.000Z</time>
      </trkpt>
      <trkpt lat="44.3253" lon="2.96218">
        <ele>723</ele>
        <time>2021-05-09T09:04:51.000Z</time>
      </trkpt>
      <trkpt lat="44.32531" lon="2.96206">
        <ele>726</ele>
        <time>2021-05-09T09:05:01.000Z</time>
      </trkpt>
      <trkpt lat="44.32534" lon="2.96193">
        <ele>725</ele>
        <time>2021-05-09T09:05:11.000Z</time>
      </trkpt>
      <trkpt lat="44.32537" lon="2.96181">
        <ele>724</ele>
        <time>2021-05-09T09:05:09.000Z</time>
      </trkpt>
      <trkpt lat="44.3254" lon="2.96165">
        <ele>725</ele>
        <time>2021-05-09T09:05:19.000Z</time>
      </trkpt>
      <trkpt lat="44.32543" lon="2.96151">
        <ele>727</ele>
        <time>2021-05-09T09:05:23.000Z</time>
      </trkpt>
      <trkpt lat="44.32545" lon="2.96138">
        <ele>728</ele>
        <time>2021-05-09T09:05:33.000Z</time>
      </trkpt>
      <trkpt lat="44.32546" lon="2.96122">
        <ele>728</ele>
        <time>2021-05-09T09:05:36.000Z</time>
      </trkpt>
      <trkpt lat="44.32545" lon="2.96077">
        <ele>732</ele>
        <time>2021-05-09T09:05:58.000Z</time>
      </trkpt>
      <trkpt lat="44.32546" lon="2.96045">
        <ele>736</ele>
        <time>2021-05-09T09:06:14.000Z</time>
      </trkpt>
      <trkpt lat="44.32548" lon="2.96031">
        <ele>738</ele>
        <time>2021-05-09T09:06:24.000Z</time>
      </trkpt>
      <trkpt lat="44.3255" lon="2.96018">
        <ele>740</ele>
        <time>2021-05-09T09:06:26.000Z</time>
      </trkpt>
      <trkpt lat="44.32549" lon="2.96003">
        <ele>739</ele>
        <time>2021-05-09T09:06:36.000Z</time>
      </trkpt>
      <trkpt lat="44.32546" lon="2.9599">
        <ele>738</ele>
        <time>2021-05-09T09:06:40.000Z</time>
      </trkpt>
      <trkpt lat="44.32533" lon="2.95965">
        <ele>741</ele>
        <time>2021-05-09T09:06:55.000Z</time>
      </trkpt>
      <trkpt lat="44.32517" lon="2.95943">
        <ele>744</ele>
        <time>2021-05-09T09:07:10.000Z</time>
      </trkpt>
      <trkpt lat="44.32508" lon="2.95934">
        <ele>745</ele>
        <time>2021-05-09T09:07:20.000Z</time>
      </trkpt>
      <trkpt lat="44.32476" lon="2.95921">
        <ele>749</ele>
        <time>2021-05-09T09:07:40.000Z</time>
      </trkpt>
      <trkpt lat="44.32457" lon="2.9591">
        <ele>751</ele>
        <time>2021-05-09T09:07:54.000Z</time>
      </trkpt>
      <trkpt lat="44.32446" lon="2.95905">
        <ele>753</ele>
        <time>2021-05-09T09:08:04.000Z</time>
      </trkpt>
      <trkpt lat="44.32437" lon="2.95911">
        <ele>755</ele>
        <time>2021-05-09T09:08:18.000Z</time>
      </trkpt>
      <trkpt lat="44.32421" lon="2.95919">
        <ele>756</ele>
        <time>2021-05-09T09:08:28.000Z</time>
      </trkpt>
      <trkpt lat="44.32412" lon="2.95926">
        <ele>757</ele>
        <time>2021-05-09T09:08:43.000Z</time>
      </trkpt>
      <trkpt lat="44.32386" lon="2.9594">
        <ele>759</ele>
        <time>2021-05-09T09:09:03.000Z</time>
      </trkpt>
      <trkpt lat="44.32376" lon="2.95944">
        <ele>760</ele>
        <time>2021-05-09T09:09:13.000Z</time>
      </trkpt>
      <trkpt lat="44.32368" lon="2.95949">
        <ele>761</ele>
        <time>2021-05-09T09:09:13.000Z</time>
      </trkpt>
      <trkpt lat="44.32348" lon="2.95955">
        <ele>763</ele>
        <time>2021-05-09T09:09:25.000Z</time>
      </trkpt>
      <trkpt lat="44.32338" lon="2.95953">
        <ele>764</ele>
        <time>2021-05-09T09:09:35.000Z</time>
      </trkpt>
      <trkpt lat="44.32329" lon="2.95955">
        <ele>766</ele>
        <time>2021-05-09T09:09:41.000Z</time>
      </trkpt>
      <trkpt lat="44.32313" lon="2.95955">
        <ele>767</ele>
        <time>2021-05-09T09:09:51.000Z</time>
      </trkpt>
      <trkpt lat="44.32304" lon="2.95962">
        <ele>767</ele>
        <time>2021-05-09T09:09:59.000Z</time>
      </trkpt>
      <trkpt lat="44.32294" lon="2.95965">
        <ele>768</ele>
        <time>2021-05-09T09:10:09.000Z</time>
      </trkpt>
      <trkpt lat="44.32285" lon="2.95967">
        <ele>768</ele>
        <time>2021-05-09T09:10:09.000Z</time>
      </trkpt>
      <trkpt lat="44.32275" lon="2.95972">
        <ele>769</ele>
        <time>2021-05-09T09:10:19.000Z</time>
      </trkpt>
      <trkpt lat="44.32265" lon="2.95974">
        <ele>771</ele>
        <time>2021-05-09T09:10:26.000Z</time>
      </trkpt>
      <trkpt lat="44.32255" lon="2.95979">
        <ele>771</ele>
        <time>2021-05-09T09:10:36.000Z</time>
      </trkpt>
      <trkpt lat="44.32237" lon="2.95986">
        <ele>774</ele>
        <time>2021-05-09T09:10:45.000Z</time>
      </trkpt>
      <trkpt lat="44.32227" lon="2.95991">
        <ele>774</ele>
        <time>2021-05-09T09:10:55.000Z</time>
      </trkpt>
      <trkpt lat="44.32189" lon="2.96006">
        <ele>780</ele>
        <time>2021-05-09T09:11:18.000Z</time>
      </trkpt>
      <trkpt lat="44.3218" lon="2.96011">
        <ele>781</ele>
        <time>2021-05-09T09:11:28.000Z</time>
      </trkpt>
      <trkpt lat="44.32172" lon="2.96019">
        <ele>781</ele>
        <time>2021-05-09T09:11:28.000Z</time>
      </trkpt>
      <trkpt lat="44.3216" lon="2.9604">
        <ele>784</ele>
        <time>2021-05-09T09:11:38.000Z</time>
      </trkpt>
      <trkpt lat="44.32152" lon="2.96047">
        <ele>785</ele>
        <time>2021-05-09T09:11:47.000Z</time>
      </trkpt>
      <trkpt lat="44.32142" lon="2.96046">
        <ele>786</ele>
        <time>2021-05-09T09:11:57.000Z</time>
      </trkpt>
      <trkpt lat="44.32132" lon="2.96046">
        <ele>788</ele>
        <time>2021-05-09T09:12:02.000Z</time>
      </trkpt>
      <trkpt lat="44.32125" lon="2.96055">
        <ele>790</ele>
        <time>2021-05-09T09:12:12.000Z</time>
      </trkpt>
      <trkpt lat="44.32123" lon="2.96069">
        <ele>791</ele>
        <time>2021-05-09T09:12:16.000Z</time>
      </trkpt>
      <trkpt lat="44.32118" lon="2.96094">
        <ele>794</ele>
        <time>2021-05-09T09:12:26.000Z</time>
      </trkpt>
      <trkpt lat="44.32114" lon="2.96108">
        <ele>794</ele>
        <time>2021-05-09T09:12:39.000Z</time>
      </trkpt>
      <trkpt lat="44.32104" lon="2.96122">
        <ele>793</ele>
        <time>2021-05-09T09:12:49.000Z</time>
      </trkpt>
      <trkpt lat="44.32077" lon="2.96159">
        <ele>797</ele>
        <time>2021-05-09T09:13:06.000Z</time>
      </trkpt>
      <trkpt lat="44.32068" lon="2.96163">
        <ele>798</ele>
        <time>2021-05-09T09:13:16.000Z</time>
      </trkpt>
      <trkpt lat="44.32058" lon="2.96164">
        <ele>798</ele>
        <time>2021-05-09T09:13:19.000Z</time>
      </trkpt>
      <trkpt lat="44.32048" lon="2.96155">
        <ele>800</ele>
        <time>2021-05-09T09:13:29.000Z</time>
      </trkpt>
      <trkpt lat="44.32042" lon="2.96141">
        <ele>801</ele>
        <time>2021-05-09T09:13:33.000Z</time>
      </trkpt>
      <trkpt lat="44.32035" lon="2.96127">
        <ele>802</ele>
        <time>2021-05-09T09:13:43.000Z</time>
      </trkpt>
      <trkpt lat="44.32032" lon="2.96111">
        <ele>803</ele>
        <time>2021-05-09T09:13:49.000Z</time>
      </trkpt>
      <trkpt lat="44.32026" lon="2.96096">
        <ele>805</ele>
        <time>2021-05-09T09:13:59.000Z</time>
      </trkpt>
      <trkpt lat="44.32005" lon="2.96066">
        <ele>809</ele>
        <time>2021-05-09T09:14:19.000Z</time>
      </trkpt>
      <trkpt lat="44.31997" lon="2.96058">
        <ele>810</ele>
        <time>2021-05-09T09:14:29.000Z</time>
      </trkpt>
      <trkpt lat="44.31986" lon="2.96049">
        <ele>812</ele>
        <time>2021-05-09T09:14:36.000Z</time>
      </trkpt>
      <trkpt lat="44.3197" lon="2.96031">
        <ele>813</ele>
        <time>2021-05-09T09:14:49.000Z</time>
      </trkpt>
      <trkpt lat="44.31958" lon="2.96012">
        <ele>814</ele>
        <time>2021-05-09T09:14:59.000Z</time>
      </trkpt>
      <trkpt lat="44.31939" lon="2.95978">
        <ele>817</ele>
        <time>2021-05-09T09:15:24.000Z</time>
      </trkpt>
      <trkpt lat="44.31932" lon="2.9597">
        <ele>820</ele>
        <time>2021-05-09T09:15:34.000Z</time>
      </trkpt>
      <trkpt lat="44.31925" lon="2.95961">
        <ele>821</ele>
        <time>2021-05-09T09:15:44.000Z</time>
      </trkpt>
      <trkpt lat="44.31917" lon="2.95953">
        <ele>821</ele>
        <time>2021-05-09T09:15:43.000Z</time>
      </trkpt>
      <trkpt lat="44.31888" lon="2.95945">
        <ele>825</ele>
        <time>2021-05-09T09:16:05.000Z</time>
      </trkpt>
      <trkpt lat="44.31877" lon="2.95942">
        <ele>826</ele>
        <time>2021-05-09T09:16:15.000Z</time>
      </trkpt>
      <trkpt lat="44.31867" lon="2.95935">
        <ele>828</ele>
        <time>2021-05-09T09:16:23.000Z</time>
      </trkpt>
      <trkpt lat="44.31852" lon="2.95915">
        <ele>829</ele>
        <time>2021-05-09T09:16:37.000Z</time>
      </trkpt>
      <trkpt lat="44.31845" lon="2.95906">
        <ele>830</ele>
        <time>2021-05-09T09:16:47.000Z</time>
      </trkpt>
      <trkpt lat="44.31819" lon="2.95885">
        <ele>833</ele>
        <time>2021-05-09T09:17:04.000Z</time>
      </trkpt>
      <trkpt lat="44.31808" lon="2.95886">
        <ele>833</ele>
        <time>2021-05-09T09:17:14.000Z</time>
      </trkpt>
      <trkpt lat="44.31782" lon="2.95901">
        <ele>837</ele>
        <time>2021-05-09T09:17:47.000Z</time>
      </trkpt>
      <trkpt lat="44.31772" lon="2.95901">
        <ele>837</ele>
        <time>2021-05-09T09:17:57.000Z</time>
      </trkpt>
      <trkpt lat="44.3175" lon="2.95892">
        <ele>837</ele>
        <time>2021-05-09T09:18:09.000Z</time>
      </trkpt>
      <trkpt lat="44.31741" lon="2.95885">
        <ele>837</ele>
        <time>2021-05-09T09:18:19.000Z</time>
      </trkpt>
      <trkpt lat="44.31731" lon="2.95881">
        <ele>838</ele>
        <time>2021-05-09T09:18:21.000Z</time>
      </trkpt>
      <trkpt lat="44.31723" lon="2.95874">
        <ele>839</ele>
        <time>2021-05-09T09:18:31.000Z</time>
      </trkpt>
      <trkpt lat="44.31715" lon="2.95862">
        <ele>840</ele>
        <time>2021-05-09T09:18:34.000Z</time>
      </trkpt>
      <trkpt lat="44.31694" lon="2.95835">
        <ele>842</ele>
        <time>2021-05-09T09:18:53.000Z</time>
      </trkpt>
      <trkpt lat="44.31685" lon="2.95829">
        <ele>844</ele>
        <time>2021-05-09T09:19:03.000Z</time>
      </trkpt>
      <trkpt lat="44.31676" lon="2.95821">
        <ele>843</ele>
        <time>2021-05-09T09:19:08.000Z</time>
      </trkpt>
      <trkpt lat="44.31664" lon="2.95799">
        <ele>845</ele>
        <time>2021-05-09T09:19:19.000Z</time>
      </trkpt>
      <trkpt lat="44.31657" lon="2.95776">
        <ele>847</ele>
        <time>2021-05-09T09:19:29.000Z</time>
      </trkpt>
      <trkpt lat="44.31654" lon="2.95763">
        <ele>849</ele>
        <time>2021-05-09T09:19:38.000Z</time>
      </trkpt>
      <trkpt lat="44.31653" lon="2.9575">
        <ele>850</ele>
        <time>2021-05-09T09:19:48.000Z</time>
      </trkpt>
      <trkpt lat="44.3165" lon="2.95736">
        <ele>851</ele>
        <time>2021-05-09T09:19:52.000Z</time>
      </trkpt>
      <trkpt lat="44.31642" lon="2.95714">
        <ele>852</ele>
        <time>2021-05-09T09:20:02.000Z</time>
      </trkpt>
      <trkpt lat="44.31636" lon="2.95689">
        <ele>857</ele>
        <time>2021-05-09T09:20:18.000Z</time>
      </trkpt>
      <trkpt lat="44.31631" lon="2.95676">
        <ele>856</ele>
        <time>2021-05-09T09:20:28.000Z</time>
      </trkpt>
      <trkpt lat="44.31613" lon="2.95656">
        <ele>856</ele>
        <time>2021-05-09T09:20:46.000Z</time>
      </trkpt>
      <trkpt lat="44.31605" lon="2.95651">
        <ele>858</ele>
        <time>2021-05-09T09:20:56.000Z</time>
      </trkpt>
      <trkpt lat="44.31596" lon="2.95642">
        <ele>859</ele>
        <time>2021-05-09T09:21:00.000Z</time>
      </trkpt>
      <trkpt lat="44.3159" lon="2.9563">
        <ele>860</ele>
        <time>2021-05-09T09:21:10.000Z</time>
      </trkpt>
      <trkpt lat="44.31578" lon="2.95614">
        <ele>862</ele>
        <time>2021-05-09T09:21:18.000Z</time>
      </trkpt>
      <trkpt lat="44.3157" lon="2.95608">
        <ele>864</ele>
        <time>2021-05-09T09:21:28.000Z</time>
      </trkpt>
      <trkpt lat="44.31559" lon="2.95602">
        <ele>864</ele>
        <time>2021-05-09T09:21:31.000Z</time>
      </trkpt>
      <trkpt lat="44.31549" lon="2.95602">
        <ele>866</ele>
        <time>2021-05-09T09:21:41.000Z</time>
      </trkpt>
      <trkpt lat="44.3154" lon="2.95597">
        <ele>867</ele>
        <time>2021-05-09T09:21:45.000Z</time>
      </trkpt>
      <trkpt lat="44.31516" lon="2.95603">
        <ele>871</ele>
        <time>2021-05-09T09:22:02.000Z</time>
      </trkpt>
      <trkpt lat="44.3149" lon="2.95613">
        <ele>872</ele>
        <time>2021-05-09T09:22:17.000Z</time>
      </trkpt>
      <trkpt lat="44.31476" lon="2.9562">
        <ele>873</ele>
        <time>2021-05-09T09:22:27.000Z</time>
      </trkpt>
      <trkpt lat="44.31457" lon="2.95627">
        <ele>876</ele>
        <time>2021-05-09T09:22:38.000Z</time>
      </trkpt>
      <trkpt lat="44.31446" lon="2.95632">
        <ele>875</ele>
        <time>2021-05-09T09:22:48.000Z</time>
      </trkpt>
      <trkpt lat="44.31398" lon="2.95647">
        <ele>882</ele>
        <time>2021-05-09T09:23:19.000Z</time>
      </trkpt>
      <trkpt lat="44.31378" lon="2.9565">
        <ele>883</ele>
        <time>2021-05-09T09:23:32.000Z</time>
      </trkpt>
      <trkpt lat="44.31369" lon="2.95655">
        <ele>885</ele>
        <time>2021-05-09T09:23:42.000Z</time>
      </trkpt>
      <trkpt lat="44.31359" lon="2.95658">
        <ele>886</ele>
        <time>2021-05-09T09:23:46.000Z</time>
      </trkpt>
      <trkpt lat="44.3134" lon="2.95667">
        <ele>888</ele>
        <time>2021-05-09T09:24:00.000Z</time>
      </trkpt>
      <trkpt lat="44.3133" lon="2.95673">
        <ele>890</ele>
        <time>2021-05-09T09:24:10.000Z</time>
      </trkpt>
      <trkpt lat="44.31312" lon="2.9569">
        <ele>891</ele>
        <time>2021-05-09T09:24:21.000Z</time>
      </trkpt>
      <trkpt lat="44.31304" lon="2.95699">
        <ele>892</ele>
        <time>2021-05-09T09:24:31.000Z</time>
      </trkpt>
      <trkpt lat="44.31295" lon="2.95704">
        <ele>893</ele>
        <time>2021-05-09T09:24:33.000Z</time>
      </trkpt>
      <trkpt lat="44.31284" lon="2.95713">
        <ele>895</ele>
        <time>2021-05-09T09:24:43.000Z</time>
      </trkpt>
      <trkpt lat="44.31274" lon="2.95718">
        <ele>896</ele>
        <time>2021-05-09T09:24:50.000Z</time>
      </trkpt>
      <trkpt lat="44.31265" lon="2.95719">
        <ele>897</ele>
        <time>2021-05-09T09:25:00.000Z</time>
      </trkpt>
      <trkpt lat="44.31256" lon="2.95715">
        <ele>897</ele>
        <time>2021-05-09T09:25:10.000Z</time>
      </trkpt>
      <trkpt lat="44.31239" lon="2.95703">
        <ele>897</ele>
        <time>2021-05-09T09:25:13.000Z</time>
      </trkpt>
      <trkpt lat="44.3123" lon="2.95697">
        <ele>897</ele>
        <time>2021-05-09T09:25:23.000Z</time>
      </trkpt>
      <trkpt lat="44.31207" lon="2.95687">
        <ele>897</ele>
        <time>2021-05-09T09:25:35.000Z</time>
      </trkpt>
      <trkpt lat="44.31189" lon="2.95674">
        <ele>896</ele>
        <time>2021-05-09T09:25:48.000Z</time>
      </trkpt>
      <trkpt lat="44.3118" lon="2.95669">
        <ele>898</ele>
        <time>2021-05-09T09:25:58.000Z</time>
      </trkpt>
      <trkpt lat="44.3117" lon="2.95662">
        <ele>899</ele>
        <time>2021-05-09T09:26:00.000Z</time>
      </trkpt>
      <trkpt lat="44.31164" lon="2.95652">
        <ele>896</ele>
        <time>2021-05-09T09:26:10.000Z</time>
      </trkpt>
      <trkpt lat="44.31157" lon="2.95644">
        <ele>895</ele>
        <time>2021-05-09T09:26:20.000Z</time>
      </trkpt>
      <trkpt lat="44.31151" lon="2.95632">
        <ele>897</ele>
        <time>2021-05-09T09:26:19.000Z</time>
      </trkpt>
      <trkpt lat="44.31145" lon="2.95622">
        <ele>897</ele>
        <time>2021-05-09T09:26:29.000Z</time>
      </trkpt>
      <trkpt lat="44.31141" lon="2.95612">
        <ele>897</ele>
        <time>2021-05-09T09:26:39.000Z</time>
      </trkpt>
      <trkpt lat="44.31136" lon="2.95585">
        <ele>898</ele>
        <time>2021-05-09T09:26:43.000Z</time>
      </trkpt>
      <trkpt lat="44.3113" lon="2.95558">
        <ele>900</ele>
        <time>2021-05-09T09:26:56.000Z</time>
      </trkpt>
      <trkpt lat="44.3112" lon="2.95536">
        <ele>902</ele>
        <time>2021-05-09T09:27:06.000Z</time>
      </trkpt>
      <trkpt lat="44.31122" lon="2.95522">
        <ele>902</ele>
        <time>2021-05-09T09:27:12.000Z</time>
      </trkpt>
      <trkpt lat="44.3112" lon="2.95508">
        <ele>904</ele>
        <time>2021-05-09T09:27:22.000Z</time>
      </trkpt>
      <trkpt lat="44.31116" lon="2.95495">
        <ele>905</ele>
        <time>2021-05-09T09:27:25.000Z</time>
      </trkpt>
      <trkpt lat="44.31114" lon="2.95482">
        <ele>905</ele>
        <time>2021-05-09T09:27:35.000Z</time>
      </trkpt>
      <trkpt lat="44.31105" lon="2.95458">
        <ele>905</ele>
        <time>2021-05-09T09:27:42.000Z</time>
      </trkpt>
      <trkpt lat="44.31107" lon="2.9543">
        <ele>908</ele>
        <time>2021-05-09T09:27:54.000Z</time>
      </trkpt>
      <trkpt lat="44.31101" lon="2.95401">
        <ele>910</ele>
        <time>2021-05-09T09:28:02.000Z</time>
      </trkpt>
      <trkpt lat="44.31094" lon="2.95391">
        <ele>909</ele>
        <time>2021-05-09T09:28:12.000Z</time>
      </trkpt>
      <trkpt lat="44.31085" lon="2.95383">
        <ele>909</ele>
        <time>2021-05-09T09:28:14.000Z</time>
      </trkpt>
      <trkpt lat="44.31068" lon="2.95371">
        <ele>914</ele>
        <time>2021-05-09T09:28:27.000Z</time>
      </trkpt>
      <trkpt lat="44.31062" lon="2.95361">
        <ele>912</ele>
        <time>2021-05-09T09:28:37.000Z</time>
      </trkpt>
      <trkpt lat="44.31055" lon="2.95349">
        <ele>912</ele>
        <time>2021-05-09T09:28:36.000Z</time>
      </trkpt>
      <trkpt lat="44.31051" lon="2.95338">
        <ele>913</ele>
        <time>2021-05-09T09:28:46.000Z</time>
      </trkpt>
      <trkpt lat="44.31046" lon="2.95327">
        <ele>914</ele>
        <time>2021-05-09T09:28:56.000Z</time>
      </trkpt>
      <trkpt lat="44.31043" lon="2.95313">
        <ele>916</ele>
        <time>2021-05-09T09:28:52.000Z</time>
      </trkpt>
      <trkpt lat="44.31038" lon="2.95302">
        <ele>917</ele>
        <time>2021-05-09T09:29:02.000Z</time>
      </trkpt>
      <trkpt lat="44.31033" lon="2.95289">
        <ele>918</ele>
        <time>2021-05-09T09:29:02.000Z</time>
      </trkpt>
      <trkpt lat="44.3103" lon="2.95276">
        <ele>920</ele>
        <time>2021-05-09T09:29:12.000Z</time>
      </trkpt>
      <trkpt lat="44.31028" lon="2.95262">
        <ele>921</ele>
        <time>2021-05-09T09:29:13.000Z</time>
      </trkpt>
      <trkpt lat="44.31026" lon="2.95248">
        <ele>921</ele>
        <time>2021-05-09T09:29:23.000Z</time>
      </trkpt>
      <trkpt lat="44.31022" lon="2.95235">
        <ele>921</ele>
        <time>2021-05-09T09:29:26.000Z</time>
      </trkpt>
      <trkpt lat="44.31009" lon="2.95211">
        <ele>925</ele>
        <time>2021-05-09T09:29:35.000Z</time>
      </trkpt>
      <trkpt lat="44.31001" lon="2.95202">
        <ele>926</ele>
        <time>2021-05-09T09:29:45.000Z</time>
      </trkpt>
      <trkpt lat="44.30983" lon="2.95201">
        <ele>927</ele>
        <time>2021-05-09T09:29:57.000Z</time>
      </trkpt>
      <trkpt lat="44.30977" lon="2.95211">
        <ele>927</ele>
        <time>2021-05-09T09:30:07.000Z</time>
      </trkpt>
      <trkpt lat="44.30962" lon="2.95226">
        <ele>930</ele>
        <time>2021-05-09T09:30:20.000Z</time>
      </trkpt>
      <trkpt lat="44.30953" lon="2.95229">
        <ele>931</ele>
        <time>2021-05-09T09:30:30.000Z</time>
      </trkpt>
      <trkpt lat="44.30936" lon="2.95241">
        <ele>931</ele>
        <time>2021-05-09T09:30:35.000Z</time>
      </trkpt>
      <trkpt lat="44.30928" lon="2.9525">
        <ele>932</ele>
        <time>2021-05-09T09:30:45.000Z</time>
      </trkpt>
      <trkpt lat="44.3091" lon="2.95255">
        <ele>932</ele>
        <time>2021-05-09T09:30:55.000Z</time>
      </trkpt>
      <trkpt lat="44.30901" lon="2.9526">
        <ele>933</ele>
        <time>2021-05-09T09:31:05.000Z</time>
      </trkpt>
      <trkpt lat="44.30893" lon="2.95267">
        <ele>933</ele>
        <time>2021-05-09T09:31:15.000Z</time>
      </trkpt>
      <trkpt lat="44.30886" lon="2.95277">
        <ele>933</ele>
        <time>2021-05-09T09:31:15.000Z</time>
      </trkpt>
      <trkpt lat="44.30877" lon="2.9528">
        <ele>934</ele>
        <time>2021-05-09T09:31:25.000Z</time>
      </trkpt>
      <trkpt lat="44.30867" lon="2.95282">
        <ele>934</ele>
        <time>2021-05-09T09:31:27.000Z</time>
      </trkpt>
      <trkpt lat="44.30848" lon="2.9528">
        <ele>937</ele>
        <time>2021-05-09T09:31:37.000Z</time>
      </trkpt>
      <trkpt lat="44.30838" lon="2.95281">
        <ele>938</ele>
        <time>2021-05-09T09:31:52.000Z</time>
      </trkpt>
      <trkpt lat="44.30829" lon="2.95276">
        <ele>937</ele>
        <time>2021-05-09T09:32:02.000Z</time>
      </trkpt>
      <trkpt lat="44.30819" lon="2.95272">
        <ele>938</ele>
        <time>2021-05-09T09:32:08.000Z</time>
      </trkpt>
      <trkpt lat="44.308" lon="2.95271">
        <ele>940</ele>
        <time>2021-05-09T09:32:18.000Z</time>
      </trkpt>
      <trkpt lat="44.30789" lon="2.95271">
        <ele>939</ele>
        <time>2021-05-09T09:32:27.000Z</time>
      </trkpt>
      <trkpt lat="44.30778" lon="2.95273">
        <ele>940</ele>
        <time>2021-05-09T09:32:37.000Z</time>
      </trkpt>
      <trkpt lat="44.30769" lon="2.9527">
        <ele>941</ele>
        <time>2021-05-09T09:32:40.000Z</time>
      </trkpt>
      <trkpt lat="44.30758" lon="2.95271">
        <ele>941</ele>
        <time>2021-05-09T09:32:50.000Z</time>
      </trkpt>
      <trkpt lat="44.30749" lon="2.95274">
        <ele>942</ele>
        <time>2021-05-09T09:32:53.000Z</time>
      </trkpt>
      <trkpt lat="44.3074" lon="2.95275">
        <ele>942</ele>
        <time>2021-05-09T09:33:03.000Z</time>
      </trkpt>
      <trkpt lat="44.3072" lon="2.95272">
        <ele>943</ele>
        <time>2021-05-09T09:33:15.000Z</time>
      </trkpt>
      <trkpt lat="44.307" lon="2.95271">
        <ele>945</ele>
        <time>2021-05-09T09:33:27.000Z</time>
      </trkpt>
      <trkpt lat="44.30692" lon="2.95266">
        <ele>945</ele>
        <time>2021-05-09T09:33:37.000Z</time>
      </trkpt>
      <trkpt lat="44.30682" lon="2.95266">
        <ele>945</ele>
        <time>2021-05-09T09:33:47.000Z</time>
      </trkpt>
      <trkpt lat="44.30672" lon="2.95263">
        <ele>947</ele>
        <time>2021-05-09T09:33:45.000Z</time>
      </trkpt>
      <trkpt lat="44.30654" lon="2.95253">
        <ele>949</ele>
        <time>2021-05-09T09:33:55.000Z</time>
      </trkpt>
      <trkpt lat="44.30646" lon="2.95248">
        <ele>950</ele>
        <time>2021-05-09T09:34:06.000Z</time>
      </trkpt>
      <trkpt lat="44.30637" lon="2.95245">
        <ele>951</ele>
        <time>2021-05-09T09:34:16.000Z</time>
      </trkpt>
      <trkpt lat="44.3062" lon="2.9523">
        <ele>953</ele>
        <time>2021-05-09T09:34:29.000Z</time>
      </trkpt>
      <trkpt lat="44.30611" lon="2.95229">
        <ele>954</ele>
        <time>2021-05-09T09:34:39.000Z</time>
      </trkpt>
      <trkpt lat="44.30584" lon="2.95244">
        <ele>957</ele>
        <time>2021-05-09T09:34:58.000Z</time>
      </trkpt>
      <trkpt lat="44.30574" lon="2.95251">
        <ele>958</ele>
        <time>2021-05-09T09:35:08.000Z</time>
      </trkpt>
      <trkpt lat="44.30556" lon="2.95264">
        <ele>958</ele>
        <time>2021-05-09T09:35:11.000Z</time>
      </trkpt>
      <trkpt lat="44.30548" lon="2.95271">
        <ele>960</ele>
        <time>2021-05-09T09:35:21.000Z</time>
      </trkpt>
      <trkpt lat="44.30539" lon="2.95279">
        <ele>962</ele>
        <time>2021-05-09T09:35:24.000Z</time>
      </trkpt>
      <trkpt lat="44.30536" lon="2.95291">
        <ele>961</ele>
        <time>2021-05-09T09:35:34.000Z</time>
      </trkpt>
      <trkpt lat="44.30528" lon="2.95302">
        <ele>962</ele>
        <time>2021-05-09T09:35:34.000Z</time>
      </trkpt>
      <trkpt lat="44.30513" lon="2.95322">
        <ele>962</ele>
        <time>2021-05-09T09:35:47.000Z</time>
      </trkpt>
      <trkpt lat="44.30504" lon="2.95329">
        <ele>963</ele>
        <time>2021-05-09T09:35:57.000Z</time>
      </trkpt>
      <trkpt lat="44.30496" lon="2.95341">
        <ele>964</ele>
        <time>2021-05-09T09:35:59.000Z</time>
      </trkpt>
      <trkpt lat="44.30488" lon="2.95353">
        <ele>963</ele>
        <time>2021-05-09T09:36:09.000Z</time>
      </trkpt>
      <trkpt lat="44.30475" lon="2.95375">
        <ele>964</ele>
        <time>2021-05-09T09:36:13.000Z</time>
      </trkpt>
      <trkpt lat="44.30461" lon="2.95395">
        <ele>963</ele>
        <time>2021-05-09T09:36:21.000Z</time>
      </trkpt>
      <trkpt lat="44.30445" lon="2.95415">
        <ele>963</ele>
        <time>2021-05-09T09:36:30.000Z</time>
      </trkpt>
      <trkpt lat="44.3044" lon="2.95426">
        <ele>963</ele>
        <time>2021-05-09T09:36:40.000Z</time>
      </trkpt>
      <trkpt lat="44.30433" lon="2.95437">
        <ele>963</ele>
        <time>2021-05-09T09:36:38.000Z</time>
      </trkpt>
      <trkpt lat="44.30417" lon="2.95462">
        <ele>962</ele>
        <time>2021-05-09T09:36:48.000Z</time>
      </trkpt>
      <trkpt lat="44.3041" lon="2.95471">
        <ele>961</ele>
        <time>2021-05-09T09:36:58.000Z</time>
      </trkpt>
      <trkpt lat="44.30386" lon="2.95498">
        <ele>961</ele>
        <time>2021-05-09T09:37:05.000Z</time>
      </trkpt>
      <trkpt lat="44.30379" lon="2.95509">
        <ele>960</ele>
        <time>2021-05-09T09:37:15.000Z</time>
      </trkpt>
      <trkpt lat="44.30349" lon="2.95545">
        <ele>958</ele>
        <time>2021-05-09T09:37:23.000Z</time>
      </trkpt>
      <trkpt lat="44.30334" lon="2.95559">
        <ele>957</ele>
        <time>2021-05-09T09:37:33.000Z</time>
      </trkpt>
      <trkpt lat="44.30324" lon="2.95565">
        <ele>957</ele>
        <time>2021-05-09T09:37:36.000Z</time>
      </trkpt>
      <trkpt lat="44.30307" lon="2.95577">
        <ele>957</ele>
        <time>2021-05-09T09:37:46.000Z</time>
      </trkpt>
      <trkpt lat="44.30299" lon="2.95582">
        <ele>957</ele>
        <time>2021-05-09T09:37:48.000Z</time>
      </trkpt>
      <trkpt lat="44.30272" lon="2.95604">
        <ele>957</ele>
        <time>2021-05-09T09:38:00.000Z</time>
      </trkpt>
      <trkpt lat="44.30264" lon="2.9561">
        <ele>957</ele>
        <time>2021-05-09T09:38:10.000Z</time>
      </trkpt>
      <trkpt lat="44.30255" lon="2.95615">
        <ele>957</ele>
        <time>2021-05-09T09:38:08.000Z</time>
      </trkpt>
      <trkpt lat="44.30246" lon="2.95618">
        <ele>957</ele>
        <time>2021-05-09T09:38:18.000Z</time>
      </trkpt>
      <trkpt lat="44.30236" lon="2.95619">
        <ele>957</ele>
        <time>2021-05-09T09:38:28.000Z</time>
      </trkpt>
      <trkpt lat="44.30226" lon="2.95625">
        <ele>958</ele>
        <time>2021-05-09T09:38:21.000Z</time>
      </trkpt>
      <trkpt lat="44.30206" lon="2.95633">
        <ele>957</ele>
        <time>2021-05-09T09:38:30.000Z</time>
      </trkpt>
      <trkpt lat="44.30174" lon="2.95638">
        <ele>960</ele>
        <time>2021-05-09T09:38:44.000Z</time>
      </trkpt>
      <trkpt lat="44.30165" lon="2.95637">
        <ele>961</ele>
        <time>2021-05-09T09:38:54.000Z</time>
      </trkpt>
      <trkpt lat="44.30155" lon="2.95635">
        <ele>960</ele>
        <time>2021-05-09T09:39:04.000Z</time>
      </trkpt>
      <trkpt lat="44.30127" lon="2.95621">
        <ele>961</ele>
        <time>2021-05-09T09:39:06.000Z</time>
      </trkpt>
      <trkpt lat="44.30116" lon="2.95617">
        <ele>962</ele>
        <time>2021-05-09T09:39:16.000Z</time>
      </trkpt>
      <trkpt lat="44.30089" lon="2.95598">
        <ele>965</ele>
        <time>2021-05-09T09:39:28.000Z</time>
      </trkpt>
      <trkpt lat="44.30069" lon="2.95588">
        <ele>966</ele>
        <time>2021-05-09T09:39:38.000Z</time>
      </trkpt>
      <trkpt lat="44.30059" lon="2.95584">
        <ele>966</ele>
        <time>2021-05-09T09:39:48.000Z</time>
      </trkpt>
      <trkpt lat="44.30051" lon="2.95578">
        <ele>967</ele>
        <time>2021-05-09T09:39:47.000Z</time>
      </trkpt>
      <trkpt lat="44.30041" lon="2.95574">
        <ele>967</ele>
        <time>2021-05-09T09:39:57.000Z</time>
      </trkpt>
      <trkpt lat="44.30022" lon="2.95576">
        <ele>969</ele>
        <time>2021-05-09T09:40:05.000Z</time>
      </trkpt>
      <trkpt lat="44.30011" lon="2.95579">
        <ele>971</ele>
        <time>2021-05-09T09:40:15.000Z</time>
      </trkpt>
      <trkpt lat="44.2999" lon="2.95579">
        <ele>971</ele>
        <time>2021-05-09T09:40:23.000Z</time>
      </trkpt>
      <trkpt lat="44.2998" lon="2.95581">
        <ele>972</ele>
        <time>2021-05-09T09:40:33.000Z</time>
      </trkpt>
      <trkpt lat="44.29959" lon="2.95579">
        <ele>975</ele>
        <time>2021-05-09T09:40:43.000Z</time>
      </trkpt>
      <trkpt lat="44.2994" lon="2.95586">
        <ele>978</ele>
        <time>2021-05-09T09:40:57.000Z</time>
      </trkpt>
      <trkpt lat="44.29928" lon="2.95589">
        <ele>979</ele>
        <time>2021-05-09T09:41:07.000Z</time>
      </trkpt>
      <trkpt lat="44.29918" lon="2.95593">
        <ele>980</ele>
        <time>2021-05-09T09:41:13.000Z</time>
      </trkpt>
      <trkpt lat="44.29899" lon="2.95604">
        <ele>982</ele>
        <time>2021-05-09T09:41:26.000Z</time>
      </trkpt>
      <trkpt lat="44.29879" lon="2.95618">
        <ele>986</ele>
        <time>2021-05-09T09:41:42.000Z</time>
      </trkpt>
      <trkpt lat="44.29869" lon="2.95628">
        <ele>987</ele>
        <time>2021-05-09T09:41:52.000Z</time>
      </trkpt>
      <trkpt lat="44.29841" lon="2.95652">
        <ele>992</ele>
        <time>2021-05-09T09:42:13.000Z</time>
      </trkpt>
      <trkpt lat="44.29831" lon="2.95658">
        <ele>992</ele>
        <time>2021-05-09T09:42:23.000Z</time>
      </trkpt>
      <trkpt lat="44.29811" lon="2.95674">
        <ele>994</ele>
        <time>2021-05-09T09:42:35.000Z</time>
      </trkpt>
      <trkpt lat="44.29802" lon="2.95683">
        <ele>994</ele>
        <time>2021-05-09T09:42:45.000Z</time>
      </trkpt>
      <trkpt lat="44.29773" lon="2.95705">
        <ele>999</ele>
        <time>2021-05-09T09:43:04.000Z</time>
      </trkpt>
      <trkpt lat="44.29762" lon="2.95712">
        <ele>997</ele>
        <time>2021-05-09T09:43:14.000Z</time>
      </trkpt>
      <trkpt lat="44.29746" lon="2.95724">
        <ele>1000</ele>
        <time>2021-05-09T09:43:24.000Z</time>
      </trkpt>
      <trkpt lat="44.29724" lon="2.95732">
        <ele>998</ele>
        <time>2021-05-09T09:43:40.000Z</time>
      </trkpt>
      <trkpt lat="44.29705" lon="2.95743">
        <ele>1001</ele>
        <time>2021-05-09T09:43:55.000Z</time>
      </trkpt>
      <trkpt lat="44.29694" lon="2.95746">
        <ele>1002</ele>
        <time>2021-05-09T09:44:05.000Z</time>
      </trkpt>
      <trkpt lat="44.29674" lon="2.95749">
        <ele>1004</ele>
        <time>2021-05-09T09:44:15.000Z</time>
      </trkpt>
      <trkpt lat="44.29662" lon="2.95752">
        <ele>1005</ele>
        <time>2021-05-09T09:44:25.000Z</time>
      </trkpt>
      <trkpt lat="44.29653" lon="2.95756">
        <ele>1006</ele>
        <time>2021-05-09T09:44:28.000Z</time>
      </trkpt>
      <trkpt lat="44.29644" lon="2.95761">
        <ele>1006</ele>
        <time>2021-05-09T09:44:38.000Z</time>
      </trkpt>
      <trkpt lat="44.29628" lon="2.95774">
        <ele>1010</ele>
        <time>2021-05-09T09:44:45.000Z</time>
      </trkpt>
      <trkpt lat="44.2962" lon="2.95783">
        <ele>1010</ele>
        <time>2021-05-09T09:44:55.000Z</time>
      </trkpt>
      <trkpt lat="44.29603" lon="2.95803">
        <ele>1011</ele>
        <time>2021-05-09T09:45:05.000Z</time>
      </trkpt>
      <trkpt lat="44.29588" lon="2.95827">
        <ele>1014</ele>
        <time>2021-05-09T09:45:19.000Z</time>
      </trkpt>
      <trkpt lat="44.29569" lon="2.95858">
        <ele>1017</ele>
        <time>2021-05-09T09:45:38.000Z</time>
      </trkpt>
      <trkpt lat="44.29562" lon="2.95868">
        <ele>1017</ele>
        <time>2021-05-09T09:45:48.000Z</time>
      </trkpt>
      <trkpt lat="44.29554" lon="2.95877">
        <ele>1017</ele>
        <time>2021-05-09T09:45:50.000Z</time>
      </trkpt>
      <trkpt lat="44.29526" lon="2.95916">
        <ele>1020</ele>
        <time>2021-05-09T09:46:14.000Z</time>
      </trkpt>
      <trkpt lat="44.29518" lon="2.95924">
        <ele>1021</ele>
        <time>2021-05-09T09:46:24.000Z</time>
      </trkpt>
      <trkpt lat="44.29508" lon="2.95946">
        <ele>1023</ele>
        <time>2021-05-09T09:46:29.000Z</time>
      </trkpt>
      <trkpt lat="44.295" lon="2.95975">
        <ele>1025</ele>
        <time>2021-05-09T09:46:39.000Z</time>
      </trkpt>
      <trkpt lat="44.29492" lon="2.96016">
        <ele>1025</ele>
        <time>2021-05-09T09:46:53.000Z</time>
      </trkpt>
      <trkpt lat="44.29482" lon="2.96057">
        <ele>1026</ele>
        <time>2021-05-09T09:47:07.000Z</time>
      </trkpt>
      <trkpt lat="44.29469" lon="2.96112">
        <ele>1030</ele>
        <time>2021-05-09T09:47:26.000Z</time>
      </trkpt>
      <trkpt lat="44.29465" lon="2.96125">
        <ele>1029</ele>
        <time>2021-05-09T09:47:36.000Z</time>
      </trkpt>
      <trkpt lat="44.29462" lon="2.96138">
        <ele>1028</ele>
        <time>2021-05-09T09:47:35.000Z</time>
      </trkpt>
      <trkpt lat="44.29451" lon="2.96176">
        <ele>1029</ele>
        <time>2021-05-09T09:47:48.000Z</time>
      </trkpt>
      <trkpt lat="44.29447" lon="2.9619">
        <ele>1032</ele>
        <time>2021-05-09T09:47:58.000Z</time>
      </trkpt>
      <trkpt lat="44.29438" lon="2.96219">
        <ele>1032</ele>
        <time>2021-05-09T09:48:07.000Z</time>
      </trkpt>
      <trkpt lat="44.29434" lon="2.96232">
        <ele>1031</ele>
        <time>2021-05-09T09:48:17.000Z</time>
      </trkpt>
      <trkpt lat="44.2943" lon="2.96244">
        <ele>1030</ele>
        <time>2021-05-09T09:48:19.000Z</time>
      </trkpt>
      <trkpt lat="44.29423" lon="2.96269">
        <ele>1031</ele>
        <time>2021-05-09T09:48:31.000Z</time>
      </trkpt>
      <trkpt lat="44.29406" lon="2.96323">
        <ele>1031</ele>
        <time>2021-05-09T09:48:56.000Z</time>
      </trkpt>
      <trkpt lat="44.29399" lon="2.96348">
        <ele>1032</ele>
        <time>2021-05-09T09:49:08.000Z</time>
      </trkpt>
      <trkpt lat="44.29395" lon="2.9636">
        <ele>1035</ele>
        <time>2021-05-09T09:49:18.000Z</time>
      </trkpt>
      <trkpt lat="44.29385" lon="2.96384">
        <ele>1034</ele>
        <time>2021-05-09T09:49:26.000Z</time>
      </trkpt>
      <trkpt lat="44.29376" lon="2.9641">
        <ele>1032</ele>
        <time>2021-05-09T09:49:38.000Z</time>
      </trkpt>
      <trkpt lat="44.29353" lon="2.9646">
        <ele>1032</ele>
        <time>2021-05-09T09:50:00.000Z</time>
      </trkpt>
      <trkpt lat="44.29348" lon="2.96474">
        <ele>1033</ele>
        <time>2021-05-09T09:50:10.000Z</time>
      </trkpt>
      <trkpt lat="44.29332" lon="2.9651">
        <ele>1032</ele>
        <time>2021-05-09T09:50:19.000Z</time>
      </trkpt>
      <trkpt lat="44.29328" lon="2.96522">
        <ele>1033</ele>
        <time>2021-05-09T09:50:29.000Z</time>
      </trkpt>
      <trkpt lat="44.29317" lon="2.96543">
        <ele>1032</ele>
        <time>2021-05-09T09:50:31.000Z</time>
      </trkpt>
      <trkpt lat="44.29309" lon="2.96566">
        <ele>1034</ele>
        <time>2021-05-09T09:50:41.000Z</time>
      </trkpt>
      <trkpt lat="44.29285" lon="2.96614">
        <ele>1034</ele>
        <time>2021-05-09T09:50:58.000Z</time>
      </trkpt>
      <trkpt lat="44.29278" lon="2.96626">
        <ele>1032</ele>
        <time>2021-05-09T09:51:08.000Z</time>
      </trkpt>
      <trkpt lat="44.29251" lon="2.96654">
        <ele>1033</ele>
        <time>2021-05-09T09:51:21.000Z</time>
      </trkpt>
      <trkpt lat="44.29235" lon="2.96673">
        <ele>1035</ele>
        <time>2021-05-09T09:51:35.000Z</time>
      </trkpt>
      <trkpt lat="44.29222" lon="2.9669">
        <ele>1038</ele>
        <time>2021-05-09T09:51:45.000Z</time>
      </trkpt>
      <trkpt lat="44.29193" lon="2.96731">
        <ele>1043</ele>
        <time>2021-05-09T09:52:15.000Z</time>
      </trkpt>
      <trkpt lat="44.29178" lon="2.96753">
        <ele>1044</ele>
        <time>2021-05-09T09:52:31.000Z</time>
      </trkpt>
      <trkpt lat="44.29172" lon="2.96764">
        <ele>1046</ele>
        <time>2021-05-09T09:52:41.000Z</time>
      </trkpt>
      <trkpt lat="44.29166" lon="2.96774">
        <ele>1047</ele>
        <time>2021-05-09T09:52:43.000Z</time>
      </trkpt>
      <trkpt lat="44.29162" lon="2.96786">
        <ele>1048</ele>
        <time>2021-05-09T09:52:53.000Z</time>
      </trkpt>
      <trkpt lat="44.29157" lon="2.96798">
        <ele>1050</ele>
        <time>2021-05-09T09:52:58.000Z</time>
      </trkpt>
      <trkpt lat="44.29151" lon="2.96811">
        <ele>1050</ele>
        <time>2021-05-09T09:53:08.000Z</time>
      </trkpt>
      <trkpt lat="44.29133" lon="2.96869">
        <ele>1056</ele>
        <time>2021-05-09T09:53:34.000Z</time>
      </trkpt>
      <trkpt lat="44.2912" lon="2.96905">
        <ele>1054</ele>
        <time>2021-05-09T09:53:51.000Z</time>
      </trkpt>
      <trkpt lat="44.29118" lon="2.96917">
        <ele>1055</ele>
        <time>2021-05-09T09:54:01.000Z</time>
      </trkpt>
      <trkpt lat="44.29119" lon="2.96932">
        <ele>1053</ele>
        <time>2021-05-09T09:54:01.000Z</time>
      </trkpt>
      <trkpt lat="44.29123" lon="2.96957">
        <ele>1051</ele>
        <time>2021-05-09T09:54:11.000Z</time>
      </trkpt>
      <trkpt lat="44.29129" lon="2.96985">
        <ele>1050</ele>
        <time>2021-05-09T09:54:16.000Z</time>
      </trkpt>
      <trkpt lat="44.29132" lon="2.96999">
        <ele>1051</ele>
        <time>2021-05-09T09:54:26.000Z</time>
      </trkpt>
      <trkpt lat="44.29133" lon="2.97014">
        <ele>1052</ele>
        <time>2021-05-09T09:54:24.000Z</time>
      </trkpt>
      <trkpt lat="44.29132" lon="2.97027">
        <ele>1052</ele>
        <time>2021-05-09T09:54:34.000Z</time>
      </trkpt>
      <trkpt lat="44.29128" lon="2.9704">
        <ele>1050</ele>
        <time>2021-05-09T09:54:44.000Z</time>
      </trkpt>
      <trkpt lat="44.29123" lon="2.97053">
        <ele>1050</ele>
        <time>2021-05-09T09:54:37.000Z</time>
      </trkpt>
      <trkpt lat="44.29118" lon="2.97064">
        <ele>1050</ele>
        <time>2021-05-09T09:54:47.000Z</time>
      </trkpt>
      <trkpt lat="44.291" lon="2.97096">
        <ele>1052</ele>
        <time>2021-05-09T09:54:54.000Z</time>
      </trkpt>
      <trkpt lat="44.29089" lon="2.97117">
        <ele>1051</ele>
        <time>2021-05-09T09:55:04.000Z</time>
      </trkpt>
      <trkpt lat="44.29083" lon="2.97129">
        <ele>1050</ele>
        <time>2021-05-09T09:55:06.000Z</time>
      </trkpt>
      <trkpt lat="44.2907" lon="2.97167">
        <ele>1048</ele>
        <time>2021-05-09T09:55:18.000Z</time>
      </trkpt>
      <trkpt lat="44.29062" lon="2.97193">
        <ele>1048</ele>
        <time>2021-05-09T09:55:26.000Z</time>
      </trkpt>
      <trkpt lat="44.29056" lon="2.97221">
        <ele>1047</ele>
        <time>2021-05-09T09:55:34.000Z</time>
      </trkpt>
      <trkpt lat="44.29053" lon="2.97248">
        <ele>1045</ele>
        <time>2021-05-09T09:55:42.000Z</time>
      </trkpt>
      <trkpt lat="44.29051" lon="2.97271">
        <ele>1043</ele>
        <time>2021-05-09T09:55:52.000Z</time>
      </trkpt>
      <trkpt lat="44.29052" lon="2.97288">
        <ele>1043</ele>
        <time>2021-05-09T09:55:52.000Z</time>
      </trkpt>
      <trkpt lat="44.29056" lon="2.97315">
        <ele>1042</ele>
        <time>2021-05-09T09:55:59.000Z</time>
      </trkpt>
      <trkpt lat="44.29056" lon="2.97329">
        <ele>1041</ele>
        <time>2021-05-09T09:56:09.000Z</time>
      </trkpt>
      <trkpt lat="44.2906" lon="2.97343">
        <ele>1041</ele>
        <time>2021-05-09T09:56:07.000Z</time>
      </trkpt>
      <trkpt lat="44.29071" lon="2.97368">
        <ele>1040</ele>
        <time>2021-05-09T09:56:14.000Z</time>
      </trkpt>
      <trkpt lat="44.29077" lon="2.97378">
        <ele>1040</ele>
        <time>2021-05-09T09:56:24.000Z</time>
      </trkpt>
      <trkpt lat="44.29082" lon="2.97394">
        <ele>1039</ele>
        <time>2021-05-09T09:56:21.000Z</time>
      </trkpt>
      <trkpt lat="44.29085" lon="2.97406">
        <ele>1040</ele>
        <time>2021-05-09T09:56:31.000Z</time>
      </trkpt>
      <trkpt lat="44.29086" lon="2.97419">
        <ele>1039</ele>
        <time>2021-05-09T09:56:41.000Z</time>
      </trkpt>
      <trkpt lat="44.29086" lon="2.97432">
        <ele>1038</ele>
        <time>2021-05-09T09:56:30.000Z</time>
      </trkpt>
      <trkpt lat="44.29085" lon="2.97462">
        <ele>1038</ele>
        <time>2021-05-09T09:56:37.000Z</time>
      </trkpt>
      <trkpt lat="44.29079" lon="2.97492">
        <ele>1037</ele>
        <time>2021-05-09T09:56:45.000Z</time>
      </trkpt>
      <trkpt lat="44.29072" lon="2.97519">
        <ele>1036</ele>
        <time>2021-05-09T09:56:53.000Z</time>
      </trkpt>
      <trkpt lat="44.29064" lon="2.97545">
        <ele>1034</ele>
        <time>2021-05-09T09:57:01.000Z</time>
      </trkpt>
      <trkpt lat="44.2906" lon="2.97558">
        <ele>1032</ele>
        <time>2021-05-09T09:57:11.000Z</time>
      </trkpt>
      <trkpt lat="44.29057" lon="2.97573">
        <ele>1030</ele>
        <time>2021-05-09T09:57:10.000Z</time>
      </trkpt>
      <trkpt lat="44.29051" lon="2.97616">
        <ele>1033</ele>
        <time>2021-05-09T09:57:23.000Z</time>
      </trkpt>
      <trkpt lat="44.2905" lon="2.97629">
        <ele>1033</ele>
        <time>2021-05-09T09:57:33.000Z</time>
      </trkpt>
      <trkpt lat="44.2905" lon="2.97644">
        <ele>1033</ele>
        <time>2021-05-09T09:57:32.000Z</time>
      </trkpt>
      <trkpt lat="44.29048" lon="2.97659">
        <ele>1034</ele>
        <time>2021-05-09T09:57:42.000Z</time>
      </trkpt>
      <trkpt lat="44.29045" lon="2.97673">
        <ele>1034</ele>
        <time>2021-05-09T09:57:41.000Z</time>
      </trkpt>
      <trkpt lat="44.29047" lon="2.97716">
        <ele>1036</ele>
        <time>2021-05-09T09:57:55.000Z</time>
      </trkpt>
      <trkpt lat="44.2905" lon="2.97729">
        <ele>1035</ele>
        <time>2021-05-09T09:58:05.000Z</time>
      </trkpt>
      <trkpt lat="44.2906" lon="2.97753">
        <ele>1035</ele>
        <time>2021-05-09T09:58:07.000Z</time>
      </trkpt>
      <trkpt lat="44.29065" lon="2.97766">
        <ele>1035</ele>
        <time>2021-05-09T09:58:17.000Z</time>
      </trkpt>
      <trkpt lat="44.29071" lon="2.97776">
        <ele>1034</ele>
        <time>2021-05-09T09:58:15.000Z</time>
      </trkpt>
      <trkpt lat="44.29076" lon="2.97789">
        <ele>1035</ele>
        <time>2021-05-09T09:58:25.000Z</time>
      </trkpt>
      <trkpt lat="44.2908" lon="2.97803">
        <ele>1036</ele>
        <time>2021-05-09T09:58:23.000Z</time>
      </trkpt>
      <trkpt lat="44.29079" lon="2.97817">
        <ele>1034</ele>
        <time>2021-05-09T09:58:33.000Z</time>
      </trkpt>
      <trkpt lat="44.29075" lon="2.9783">
        <ele>1034</ele>
        <time>2021-05-09T09:58:31.000Z</time>
      </trkpt>
      <trkpt lat="44.29067" lon="2.97838">
        <ele>1034</ele>
        <time>2021-05-09T09:58:41.000Z</time>
      </trkpt>
      <trkpt lat="44.29019" lon="2.97867">
        <ele>1034</ele>
        <time>2021-05-09T09:58:55.000Z</time>
      </trkpt>
      <trkpt lat="44.28989" lon="2.97889">
        <ele>1032</ele>
        <time>2021-05-09T09:59:09.000Z</time>
      </trkpt>
      <trkpt lat="44.28964" lon="2.9791">
        <ele>1031</ele>
        <time>2021-05-09T09:59:22.000Z</time>
      </trkpt>
      <trkpt lat="44.28956" lon="2.97916">
        <ele>1030</ele>
        <time>2021-05-09T09:59:32.000Z</time>
      </trkpt>
      <trkpt lat="44.28938" lon="2.97927">
        <ele>1030</ele>
        <time>2021-05-09T09:59:34.000Z</time>
      </trkpt>
      <trkpt lat="44.2892" lon="2.97942">
        <ele>1029</ele>
        <time>2021-05-09T09:59:42.000Z</time>
      </trkpt>
      <trkpt lat="44.28895" lon="2.97966">
        <ele>1023</ele>
        <time>2021-05-09T09:59:53.000Z</time>
      </trkpt>
      <trkpt lat="44.28879" lon="2.97983">
        <ele>1020</ele>
        <time>2021-05-09T10:00:00.000Z</time>
      </trkpt>
      <trkpt lat="44.28831" lon="2.98012">
        <ele>1016</ele>
        <time>2021-05-09T10:00:17.000Z</time>
      </trkpt>
      <trkpt lat="44.28822" lon="2.98018">
        <ele>1016</ele>
        <time>2021-05-09T10:00:27.000Z</time>
      </trkpt>
      <trkpt lat="44.28797" lon="2.98044">
        <ele>1015</ele>
        <time>2021-05-09T10:00:35.000Z</time>
      </trkpt>
      <trkpt lat="44.2878" lon="2.98059">
        <ele>1015</ele>
        <time>2021-05-09T10:00:45.000Z</time>
      </trkpt>
      <trkpt lat="44.28769" lon="2.98071">
        <ele>1016</ele>
        <time>2021-05-09T10:00:55.000Z</time>
      </trkpt>
      <trkpt lat="44.28759" lon="2.98079">
        <ele>1017</ele>
        <time>2021-05-09T10:00:58.000Z</time>
      </trkpt>
      <trkpt lat="44.28726" lon="2.98113">
        <ele>1018</ele>
        <time>2021-05-09T10:01:16.000Z</time>
      </trkpt>
      <trkpt lat="44.28718" lon="2.98123">
        <ele>1019</ele>
        <time>2021-05-09T10:01:26.000Z</time>
      </trkpt>
      <trkpt lat="44.2871" lon="2.98132">
        <ele>1020</ele>
        <time>2021-05-09T10:01:25.000Z</time>
      </trkpt>
      <trkpt lat="44.28693" lon="2.98149">
        <ele>1018</ele>
        <time>2021-05-09T10:01:34.000Z</time>
      </trkpt>
      <trkpt lat="44.28675" lon="2.98167">
        <ele>1020</ele>
        <time>2021-05-09T10:01:42.000Z</time>
      </trkpt>
      <trkpt lat="44.2865" lon="2.98192">
        <ele>1024</ele>
        <time>2021-05-09T10:01:57.000Z</time>
      </trkpt>
      <trkpt lat="44.28638" lon="2.98207">
        <ele>1022</ele>
        <time>2021-05-09T10:02:07.000Z</time>
      </trkpt>
      <trkpt lat="44.2863" lon="2.98214">
        <ele>1022</ele>
        <time>2021-05-09T10:02:08.000Z</time>
      </trkpt>
      <trkpt lat="44.28588" lon="2.98256">
        <ele>1022</ele>
        <time>2021-05-09T10:02:28.000Z</time>
      </trkpt>
      <trkpt lat="44.28574" lon="2.98274">
        <ele>1023</ele>
        <time>2021-05-09T10:02:38.000Z</time>
      </trkpt>
      <trkpt lat="44.28566" lon="2.98283">
        <ele>1022</ele>
        <time>2021-05-09T10:02:40.000Z</time>
      </trkpt>
      <trkpt lat="44.28552" lon="2.98304">
        <ele>1024</ele>
        <time>2021-05-09T10:02:49.000Z</time>
      </trkpt>
      <trkpt lat="44.28546" lon="2.98317">
        <ele>1024</ele>
        <time>2021-05-09T10:02:59.000Z</time>
      </trkpt>
      <trkpt lat="44.2854" lon="2.98327">
        <ele>1023</ele>
        <time>2021-05-09T10:02:58.000Z</time>
      </trkpt>
      <trkpt lat="44.28532" lon="2.98337">
        <ele>1023</ele>
        <time>2021-05-09T10:03:08.000Z</time>
      </trkpt>
      <trkpt lat="44.28525" lon="2.98349">
        <ele>1023</ele>
        <time>2021-05-09T10:03:06.000Z</time>
      </trkpt>
      <trkpt lat="44.28517" lon="2.98357">
        <ele>1023</ele>
        <time>2021-05-09T10:03:16.000Z</time>
      </trkpt>
      <trkpt lat="44.28497" lon="2.98386">
        <ele>1021</ele>
        <time>2021-05-09T10:03:25.000Z</time>
      </trkpt>
      <trkpt lat="44.28489" lon="2.98395">
        <ele>1022</ele>
        <time>2021-05-09T10:03:35.000Z</time>
      </trkpt>
      <trkpt lat="44.2848" lon="2.98403">
        <ele>1020</ele>
        <time>2021-05-09T10:03:37.000Z</time>
      </trkpt>
      <trkpt lat="44.28463" lon="2.98407">
        <ele>1020</ele>
        <time>2021-05-09T10:03:47.000Z</time>
      </trkpt>
      <trkpt lat="44.28452" lon="2.98408">
        <ele>1019</ele>
        <time>2021-05-09T10:03:49.000Z</time>
      </trkpt>
      <trkpt lat="44.28432" lon="2.98404">
        <ele>1016</ele>
        <time>2021-05-09T10:03:58.000Z</time>
      </trkpt>
      <trkpt lat="44.28421" lon="2.98404">
        <ele>1014</ele>
        <time>2021-05-09T10:04:08.000Z</time>
      </trkpt>
      <trkpt lat="44.28412" lon="2.98397">
        <ele>1013</ele>
        <time>2021-05-09T10:04:10.000Z</time>
      </trkpt>
      <trkpt lat="44.28401" lon="2.98395">
        <ele>1012</ele>
        <time>2021-05-09T10:04:20.000Z</time>
      </trkpt>
      <trkpt lat="44.28392" lon="2.984">
        <ele>1012</ele>
        <time>2021-05-09T10:04:22.000Z</time>
      </trkpt>
      <trkpt lat="44.28382" lon="2.98403">
        <ele>1011</ele>
        <time>2021-05-09T10:04:32.000Z</time>
      </trkpt>
      <trkpt lat="44.28373" lon="2.9841">
        <ele>1010</ele>
        <time>2021-05-09T10:04:31.000Z</time>
      </trkpt>
      <trkpt lat="44.28352" lon="2.98422">
        <ele>1010</ele>
        <time>2021-05-09T10:04:37.000Z</time>
      </trkpt>
      <trkpt lat="44.28341" lon="2.98431">
        <ele>1009</ele>
        <time>2021-05-09T10:04:47.000Z</time>
      </trkpt>
      <trkpt lat="44.28332" lon="2.98435">
        <ele>1010</ele>
        <time>2021-05-09T10:04:42.000Z</time>
      </trkpt>
      <trkpt lat="44.28321" lon="2.98441">
        <ele>1009</ele>
        <time>2021-05-09T10:04:52.000Z</time>
      </trkpt>
      <trkpt lat="44.28312" lon="2.98449">
        <ele>1007</ele>
        <time>2021-05-09T10:04:48.000Z</time>
      </trkpt>
      <trkpt lat="44.28301" lon="2.98455">
        <ele>1007</ele>
        <time>2021-05-09T10:04:58.000Z</time>
      </trkpt>
      <trkpt lat="44.2829" lon="2.98459">
        <ele>1006</ele>
        <time>2021-05-09T10:04:55.000Z</time>
      </trkpt>
      <trkpt lat="44.28281" lon="2.98461">
        <ele>1006</ele>
        <time>2021-05-09T10:05:05.000Z</time>
      </trkpt>
      <trkpt lat="44.28253" lon="2.98478">
        <ele>1003</ele>
        <time>2021-05-09T10:05:09.000Z</time>
      </trkpt>
      <trkpt lat="44.28244" lon="2.98487">
        <ele>1003</ele>
        <time>2021-05-09T10:05:19.000Z</time>
      </trkpt>
      <trkpt lat="44.28235" lon="2.98496">
        <ele>1003</ele>
        <time>2021-05-09T10:05:17.000Z</time>
      </trkpt>
      <trkpt lat="44.28227" lon="2.98507">
        <ele>1002</ele>
        <time>2021-05-09T10:05:27.000Z</time>
      </trkpt>
      <trkpt lat="44.28221" lon="2.98518">
        <ele>1003</ele>
        <time>2021-05-09T10:05:26.000Z</time>
      </trkpt>
      <trkpt lat="44.28216" lon="2.98529">
        <ele>1000</ele>
        <time>2021-05-09T10:05:36.000Z</time>
      </trkpt>
      <trkpt lat="44.2821" lon="2.98542">
        <ele>999</ele>
        <time>2021-05-09T10:05:35.000Z</time>
      </trkpt>
      <trkpt lat="44.28194" lon="2.98563">
        <ele>1000</ele>
        <time>2021-05-09T10:05:41.000Z</time>
      </trkpt>
      <trkpt lat="44.28185" lon="2.98567">
        <ele>1000</ele>
        <time>2021-05-09T10:05:51.000Z</time>
      </trkpt>
      <trkpt lat="44.28177" lon="2.98575">
        <ele>1000</ele>
        <time>2021-05-09T10:05:47.000Z</time>
      </trkpt>
      <trkpt lat="44.28166" lon="2.98579">
        <ele>1001</ele>
        <time>2021-05-09T10:05:57.000Z</time>
      </trkpt>
      <trkpt lat="44.28157" lon="2.98578">
        <ele>1002</ele>
        <time>2021-05-09T10:05:55.000Z</time>
      </trkpt>
      <trkpt lat="44.28126" lon="2.98573">
        <ele>1005</ele>
        <time>2021-05-09T10:06:08.000Z</time>
      </trkpt>
      <trkpt lat="44.28116" lon="2.98566">
        <ele>1005</ele>
        <time>2021-05-09T10:06:18.000Z</time>
      </trkpt>
      <trkpt lat="44.28106" lon="2.98563">
        <ele>1005</ele>
        <time>2021-05-09T10:06:17.000Z</time>
      </trkpt>
      <trkpt lat="44.28082" lon="2.98561">
        <ele>1007</ele>
        <time>2021-05-09T10:06:24.000Z</time>
      </trkpt>
      <trkpt lat="44.28071" lon="2.98559">
        <ele>1007</ele>
        <time>2021-05-09T10:06:34.000Z</time>
      </trkpt>
      <trkpt lat="44.28061" lon="2.98562">
        <ele>1007</ele>
        <time>2021-05-09T10:06:30.000Z</time>
      </trkpt>
      <trkpt lat="44.28051" lon="2.98563">
        <ele>1006</ele>
        <time>2021-05-09T10:06:40.000Z</time>
      </trkpt>
      <trkpt lat="44.2804" lon="2.98565">
        <ele>1008</ele>
        <time>2021-05-09T10:06:37.000Z</time>
      </trkpt>
      <trkpt lat="44.28024" lon="2.98571">
        <ele>1008</ele>
        <time>2021-05-09T10:06:47.000Z</time>
      </trkpt>
      <trkpt lat="44.28014" lon="2.98576">
        <ele>1008</ele>
        <time>2021-05-09T10:06:46.000Z</time>
      </trkpt>
      <trkpt lat="44.27998" lon="2.98589">
        <ele>1009</ele>
        <time>2021-05-09T10:06:56.000Z</time>
      </trkpt>
      <trkpt lat="44.2799" lon="2.98598">
        <ele>1010</ele>
        <time>2021-05-09T10:06:56.000Z</time>
      </trkpt>
      <trkpt lat="44.27977" lon="2.98621">
        <ele>1010</ele>
        <time>2021-05-09T10:07:02.000Z</time>
      </trkpt>
      <trkpt lat="44.27958" lon="2.98651">
        <ele>1011</ele>
        <time>2021-05-09T10:07:11.000Z</time>
      </trkpt>
      <trkpt lat="44.27948" lon="2.98657">
        <ele>1010</ele>
        <time>2021-05-09T10:07:21.000Z</time>
      </trkpt>
      <trkpt lat="44.27937" lon="2.98656">
        <ele>1010</ele>
        <time>2021-05-09T10:07:19.000Z</time>
      </trkpt>
      <trkpt lat="44.27918" lon="2.98647">
        <ele>1012</ele>
        <time>2021-05-09T10:07:27.000Z</time>
      </trkpt>
      <trkpt lat="44.27898" lon="2.98636">
        <ele>1014</ele>
        <time>2021-05-09T10:07:36.000Z</time>
      </trkpt>
      <trkpt lat="44.27888" lon="2.98634">
        <ele>1014</ele>
        <time>2021-05-09T10:07:46.000Z</time>
      </trkpt>
      <trkpt lat="44.27886" lon="2.98647">
        <ele>1015</ele>
        <time>2021-05-09T10:07:50.000Z</time>
      </trkpt>
      <trkpt lat="44.27892" lon="2.98655">
        <ele>1017</ele>
        <time>2021-05-09T10:08:00.000Z</time>
      </trkpt>
      <trkpt lat="44.27899" lon="2.98665">
        <ele>1018</ele>
        <time>2021-05-09T10:08:10.000Z</time>
      </trkpt>
      <trkpt lat="44.27906" lon="2.98673">
        <ele>1019</ele>
        <time>2021-05-09T10:08:10.000Z</time>
      </trkpt>
      <trkpt lat="44.27914" lon="2.98685">
        <ele>1021</ele>
        <time>2021-05-09T10:08:20.000Z</time>
      </trkpt>
      <trkpt lat="44.27922" lon="2.98696">
        <ele>1022</ele>
        <time>2021-05-09T10:08:26.000Z</time>
      </trkpt>
      <trkpt lat="44.27935" lon="2.98716">
        <ele>1024</ele>
        <time>2021-05-09T10:08:36.000Z</time>
      </trkpt>
      <trkpt lat="44.27942" lon="2.98726">
        <ele>1025</ele>
        <time>2021-05-09T10:08:46.000Z</time>
      </trkpt>
      <trkpt lat="44.27954" lon="2.98756">
        <ele>1028</ele>
        <time>2021-05-09T10:09:03.000Z</time>
      </trkpt>
      <trkpt lat="44.27961" lon="2.98778">
        <ele>1030</ele>
        <time>2021-05-09T10:09:13.000Z</time>
      </trkpt>
      <trkpt lat="44.27963" lon="2.98791">
        <ele>1030</ele>
        <time>2021-05-09T10:09:20.000Z</time>
      </trkpt>
      <trkpt lat="44.27968" lon="2.98803">
        <ele>1032</ele>
        <time>2021-05-09T10:09:30.000Z</time>
      </trkpt>
      <trkpt lat="44.27976" lon="2.98829">
        <ele>1033</ele>
        <time>2021-05-09T10:09:41.000Z</time>
      </trkpt>
      <trkpt lat="44.27985" lon="2.98831">
        <ele>1033</ele>
        <time>2021-05-09T10:09:51.000Z</time>
      </trkpt>
      <trkpt lat="44.27994" lon="2.98831">
        <ele>1034</ele>
        <time>2021-05-09T10:10:01.000Z</time>
      </trkpt>
      <trkpt lat="44.28004" lon="2.98829">
        <ele>1035</ele>
        <time>2021-05-09T10:09:59.000Z</time>
      </trkpt>
      <trkpt lat="44.28014" lon="2.98823">
        <ele>1036</ele>
        <time>2021-05-09T10:10:09.000Z</time>
      </trkpt>
      <trkpt lat="44.28025" lon="2.98823">
        <ele>1037</ele>
        <time>2021-05-09T10:10:13.000Z</time>
      </trkpt>
      <trkpt lat="44.28047" lon="2.98822">
        <ele>1040</ele>
        <time>2021-05-09T10:10:28.000Z</time>
      </trkpt>
      <trkpt lat="44.28057" lon="2.98823">
        <ele>1042</ele>
        <time>2021-05-09T10:10:38.000Z</time>
      </trkpt>
      <trkpt lat="44.28068" lon="2.98826">
        <ele>1043</ele>
        <time>2021-05-09T10:10:42.000Z</time>
      </trkpt>
      <trkpt lat="44.28078" lon="2.9883">
        <ele>1044</ele>
        <time>2021-05-09T10:10:52.000Z</time>
      </trkpt>
      <trkpt lat="44.28088" lon="2.98839">
        <ele>1044</ele>
        <time>2021-05-09T10:10:58.000Z</time>
      </trkpt>
      <trkpt lat="44.28097" lon="2.98844">
        <ele>1046</ele>
        <time>2021-05-09T10:11:08.000Z</time>
      </trkpt>
      <trkpt lat="44.28117" lon="2.98859">
        <ele>1048</ele>
        <time>2021-05-09T10:11:19.000Z</time>
      </trkpt>
      <trkpt lat="44.28126" lon="2.98867">
        <ele>1050</ele>
        <time>2021-05-09T10:11:29.000Z</time>
      </trkpt>
      <trkpt lat="44.28135" lon="2.98873">
        <ele>1052</ele>
        <time>2021-05-09T10:11:34.000Z</time>
      </trkpt>
      <trkpt lat="44.28154" lon="2.98882">
        <ele>1052</ele>
        <time>2021-05-09T10:11:46.000Z</time>
      </trkpt>
      <trkpt lat="44.28166" lon="2.98886">
        <ele>1053</ele>
        <time>2021-05-09T10:11:56.000Z</time>
      </trkpt>
      <trkpt lat="44.28187" lon="2.9889">
        <ele>1055</ele>
        <time>2021-05-09T10:12:07.000Z</time>
      </trkpt>
      <trkpt lat="44.28218" lon="2.98888">
        <ele>1059</ele>
        <time>2021-05-09T10:12:27.000Z</time>
      </trkpt>
      <trkpt lat="44.2823" lon="2.98887">
        <ele>1061</ele>
        <time>2021-05-09T10:12:37.000Z</time>
      </trkpt>
      <trkpt lat="44.28241" lon="2.98886">
        <ele>1062</ele>
        <time>2021-05-09T10:12:41.000Z</time>
      </trkpt>
      <trkpt lat="44.28252" lon="2.98888">
        <ele>1063</ele>
        <time>2021-05-09T10:12:51.000Z</time>
      </trkpt>
      <trkpt lat="44.28262" lon="2.98892">
        <ele>1063</ele>
        <time>2021-05-09T10:12:56.000Z</time>
      </trkpt>
      <trkpt lat="44.28287" lon="2.98897">
        <ele>1068</ele>
        <time>2021-05-09T10:13:13.000Z</time>
      </trkpt>
      <trkpt lat="44.28297" lon="2.98902">
        <ele>1069</ele>
        <time>2021-05-09T10:13:23.000Z</time>
      </trkpt>
      <trkpt lat="44.28306" lon="2.98903">
        <ele>1070</ele>
        <time>2021-05-09T10:13:33.000Z</time>
      </trkpt>
      <trkpt lat="44.28316" lon="2.98911">
        <ele>1073</ele>
        <time>2021-05-09T10:13:33.000Z</time>
      </trkpt>
      <trkpt lat="44.28319" lon="2.98924">
        <ele>1074</ele>
        <time>2021-05-09T10:13:43.000Z</time>
      </trkpt>
      <trkpt lat="44.28311" lon="2.98937">
        <ele>1074</ele>
        <time>2021-05-09T10:13:47.000Z</time>
      </trkpt>
      <trkpt lat="44.28303" lon="2.98949">
        <ele>1075</ele>
        <time>2021-05-09T10:13:57.000Z</time>
      </trkpt>
      <trkpt lat="44.28296" lon="2.98957">
        <ele>1076</ele>
        <time>2021-05-09T10:14:00.000Z</time>
      </trkpt>
      <trkpt lat="44.28275" lon="2.98985">
        <ele>1075</ele>
        <time>2021-05-09T10:14:18.000Z</time>
      </trkpt>
      <trkpt lat="44.28245" lon="2.99031">
        <ele>1078</ele>
        <time>2021-05-09T10:14:45.000Z</time>
      </trkpt>
      <trkpt lat="44.28225" lon="2.99065">
        <ele>1083</ele>
        <time>2021-05-09T10:15:07.000Z</time>
      </trkpt>
      <trkpt lat="44.28217" lon="2.99077">
        <ele>1084</ele>
        <time>2021-05-09T10:15:17.000Z</time>
      </trkpt>
      <trkpt lat="44.28211" lon="2.99089">
        <ele>1085</ele>
        <time>2021-05-09T10:15:23.000Z</time>
      </trkpt>
      <trkpt lat="44.28204" lon="2.99102">
        <ele>1086</ele>
        <time>2021-05-09T10:15:33.000Z</time>
      </trkpt>
      <trkpt lat="44.2819" lon="2.99124">
        <ele>1087</ele>
        <time>2021-05-09T10:15:45.000Z</time>
      </trkpt>
      <trkpt lat="44.28181" lon="2.99133">
        <ele>1091</ele>
        <time>2021-05-09T10:15:55.000Z</time>
      </trkpt>
      <trkpt lat="44.2817" lon="2.99139">
        <ele>1090</ele>
        <time>2021-05-09T10:16:01.000Z</time>
      </trkpt>
      <trkpt lat="44.2816" lon="2.99148">
        <ele>1091</ele>
        <time>2021-05-09T10:16:11.000Z</time>
      </trkpt>
      <trkpt lat="44.28152" lon="2.99158">
        <ele>1092</ele>
        <time>2021-05-09T10:16:16.000Z</time>
      </trkpt>
      <trkpt lat="44.28142" lon="2.99168">
        <ele>1095</ele>
        <time>2021-05-09T10:16:26.000Z</time>
      </trkpt>
      <trkpt lat="44.28132" lon="2.99177">
        <ele>1096</ele>
        <time>2021-05-09T10:16:31.000Z</time>
      </trkpt>
      <trkpt lat="44.28123" lon="2.99188">
        <ele>1097</ele>
        <time>2021-05-09T10:16:41.000Z</time>
      </trkpt>
      <trkpt lat="44.28111" lon="2.99208">
        <ele>1098</ele>
        <time>2021-05-09T10:16:51.000Z</time>
      </trkpt>
      <trkpt lat="44.28102" lon="2.99219">
        <ele>1100</ele>
        <time>2021-05-09T10:17:01.000Z</time>
      </trkpt>
      <trkpt lat="44.28086" lon="2.99253">
        <ele>1102</ele>
        <time>2021-05-09T10:17:17.000Z</time>
      </trkpt>
      <trkpt lat="44.28074" lon="2.99274">
        <ele>1104</ele>
        <time>2021-05-09T10:17:27.000Z</time>
      </trkpt>
      <trkpt lat="44.28066" lon="2.99298">
        <ele>1106</ele>
        <time>2021-05-09T10:17:43.000Z</time>
      </trkpt>
      <trkpt lat="44.28061" lon="2.9931">
        <ele>1108</ele>
        <time>2021-05-09T10:17:53.000Z</time>
      </trkpt>
      <trkpt lat="44.28056" lon="2.99328">
        <ele>1110</ele>
        <time>2021-05-09T10:18:04.000Z</time>
      </trkpt>
      <trkpt lat="44.28053" lon="2.99346">
        <ele>1113</ele>
        <time>2021-05-09T10:18:14.000Z</time>
      </trkpt>
      <trkpt lat="44.28052" lon="2.99359">
        <ele>1114</ele>
        <time>2021-05-09T10:18:25.000Z</time>
      </trkpt>
      <trkpt lat="44.2805" lon="2.99371">
        <ele>1114</ele>
        <time>2021-05-09T10:18:35.000Z</time>
      </trkpt>
      <trkpt lat="44.28045" lon="2.99383">
        <ele>1116</ele>
        <time>2021-05-09T10:18:45.000Z</time>
      </trkpt>
      <trkpt lat="44.28041" lon="2.99394">
        <ele>1116</ele>
        <time>2021-05-09T10:18:45.000Z</time>
      </trkpt>
      <trkpt lat="44.28038" lon="2.99406">
        <ele>1118</ele>
        <time>2021-05-09T10:18:55.000Z</time>
      </trkpt>
      <trkpt lat="44.28032" lon="2.99416">
        <ele>1120</ele>
        <time>2021-05-09T10:19:05.000Z</time>
      </trkpt>
      <trkpt lat="44.28025" lon="2.99427">
        <ele>1119</ele>
        <time>2021-05-09T10:19:08.000Z</time>
      </trkpt>
      <trkpt lat="44.28014" lon="2.99449">
        <ele>1121</ele>
        <time>2021-05-09T10:19:18.000Z</time>
      </trkpt>
      <trkpt lat="44.28011" lon="2.99461">
        <ele>1121</ele>
        <time>2021-05-09T10:19:28.000Z</time>
      </trkpt>
      <trkpt lat="44.2801" lon="2.99475">
        <ele>1124</ele>
        <time>2021-05-09T10:19:38.000Z</time>
      </trkpt>
      <trkpt lat="44.28012" lon="2.99488">
        <ele>1125</ele>
        <time>2021-05-09T10:19:35.000Z</time>
      </trkpt>
      <trkpt lat="44.28007" lon="2.99513">
        <ele>1126</ele>
        <time>2021-05-09T10:19:45.000Z</time>
      </trkpt>
      <trkpt lat="44.28003" lon="2.99527">
        <ele>1127</ele>
        <time>2021-05-09T10:19:54.000Z</time>
      </trkpt>
      <trkpt lat="44.28002" lon="2.99544">
        <ele>1128</ele>
        <time>2021-05-09T10:20:04.000Z</time>
      </trkpt>
      <trkpt lat="44.28019" lon="2.99581">
        <ele>1126</ele>
        <time>2021-05-09T10:20:11.000Z</time>
      </trkpt>
      <trkpt lat="44.28021" lon="2.99594">
        <ele>1126</ele>
        <time>2021-05-09T10:20:21.000Z</time>
      </trkpt>
      <trkpt lat="44.28022" lon="2.99608">
        <ele>1126</ele>
        <time>2021-05-09T10:20:19.000Z</time>
      </trkpt>
      <trkpt lat="44.28021" lon="2.99636">
        <ele>1125</ele>
        <time>2021-05-09T10:20:27.000Z</time>
      </trkpt>
      <trkpt lat="44.28022" lon="2.99649">
        <ele>1127</ele>
        <time>2021-05-09T10:20:37.000Z</time>
      </trkpt>
      <trkpt lat="44.28022" lon="2.99675">
        <ele>1127</ele>
        <time>2021-05-09T10:20:39.000Z</time>
      </trkpt>
      <trkpt lat="44.28021" lon="2.9969">
        <ele>1129</ele>
        <time>2021-05-09T10:20:49.000Z</time>
      </trkpt>
      <trkpt lat="44.28021" lon="2.99705">
        <ele>1128</ele>
        <time>2021-05-09T10:20:49.000Z</time>
      </trkpt>
      <trkpt lat="44.28023" lon="2.99717">
        <ele>1130</ele>
        <time>2021-05-09T10:20:59.000Z</time>
      </trkpt>
      <trkpt lat="44.28024" lon="2.99747">
        <ele>1133</ele>
        <time>2021-05-09T10:21:03.000Z</time>
      </trkpt>
      <trkpt lat="44.28026" lon="2.99775">
        <ele>1134</ele>
        <time>2021-05-09T10:21:14.000Z</time>
      </trkpt>
      <trkpt lat="44.28033" lon="2.99817">
        <ele>1139</ele>
        <time>2021-05-09T10:21:28.000Z</time>
      </trkpt>
      <trkpt lat="44.28035" lon="2.99839">
        <ele>1137</ele>
        <time>2021-05-09T10:21:38.000Z</time>
      </trkpt>
      <trkpt lat="44.28044" lon="2.99883">
        <ele>1140</ele>
        <time>2021-05-09T10:21:51.000Z</time>
      </trkpt>
      <trkpt lat="44.28047" lon="2.9991">
        <ele>1140</ele>
        <time>2021-05-09T10:22:06.000Z</time>
      </trkpt>
      <trkpt lat="44.28054" lon="2.99916">
        <ele>1139</ele>
        <time>2021-05-09T10:22:16.000Z</time>
      </trkpt>
      <trkpt lat="44.2806" lon="2.99943">
        <ele>1140</ele>
        <time>2021-05-09T10:23:21.000Z</time>
      </trkpt>
      <trkpt lat="44.28062" lon="2.99958">
        <ele>1139</ele>
        <time>2021-05-09T10:23:31.000Z</time>
      </trkpt>
      <trkpt lat="44.28064" lon="3.00001">
        <ele>1140</ele>
        <time>2021-05-09T10:23:54.000Z</time>
      </trkpt>
      <trkpt lat="44.28062" lon="3.00027">
        <ele>1141</ele>
        <time>2021-05-09T10:24:04.000Z</time>
      </trkpt>
      <trkpt lat="44.28059" lon="3.00044">
        <ele>1140</ele>
        <time>2021-05-09T10:24:17.000Z</time>
      </trkpt>
      <trkpt lat="44.2806" lon="3.00062">
        <ele>1140</ele>
        <time>2021-05-09T10:24:27.000Z</time>
      </trkpt>
      <trkpt lat="44.28057" lon="3.00106">
        <ele>1138</ele>
        <time>2021-05-09T10:24:46.000Z</time>
      </trkpt>
      <trkpt lat="44.28058" lon="3.0012">
        <ele>1137</ele>
        <time>2021-05-09T10:24:56.000Z</time>
      </trkpt>
      <trkpt lat="44.28052" lon="3.00155">
        <ele>1137</ele>
        <time>2021-05-09T10:25:08.000Z</time>
      </trkpt>
      <trkpt lat="44.28048" lon="3.00167">
        <ele>1136</ele>
        <time>2021-05-09T10:25:18.000Z</time>
      </trkpt>
      <trkpt lat="44.28044" lon="3.00179">
        <ele>1137</ele>
        <time>2021-05-09T10:25:28.000Z</time>
      </trkpt>
      <trkpt lat="44.28042" lon="3.00192">
        <ele>1134</ele>
        <time>2021-05-09T10:25:26.000Z</time>
      </trkpt>
      <trkpt lat="44.2804" lon="3.00206">
        <ele>1133</ele>
        <time>2021-05-09T10:25:36.000Z</time>
      </trkpt>
      <trkpt lat="44.28036" lon="3.0023">
        <ele>1130</ele>
        <time>2021-05-09T10:25:45.000Z</time>
      </trkpt>
      <trkpt lat="44.28037" lon="3.00243">
        <ele>1129</ele>
        <time>2021-05-09T10:25:55.000Z</time>
      </trkpt>
      <trkpt lat="44.28036" lon="3.00257">
        <ele>1127</ele>
        <time>2021-05-09T10:25:58.000Z</time>
      </trkpt>
      <trkpt lat="44.28036" lon="3.00292">
        <ele>1122</ele>
        <time>2021-05-09T10:26:13.000Z</time>
      </trkpt>
      <trkpt lat="44.28034" lon="3.00306">
        <ele>1120</ele>
        <time>2021-05-09T10:26:23.000Z</time>
      </trkpt>
      <trkpt lat="44.2803" lon="3.0032">
        <ele>1119</ele>
        <time>2021-05-09T10:26:24.000Z</time>
      </trkpt>
      <trkpt lat="44.28027" lon="3.00334">
        <ele>1117</ele>
        <time>2021-05-09T10:26:34.000Z</time>
      </trkpt>
      <trkpt lat="44.28022" lon="3.00348">
        <ele>1114</ele>
        <time>2021-05-09T10:26:34.000Z</time>
      </trkpt>
      <trkpt lat="44.28016" lon="3.00359">
        <ele>1112</ele>
        <time>2021-05-09T10:26:44.000Z</time>
      </trkpt>
      <trkpt lat="44.28014" lon="3.00375">
        <ele>1109</ele>
        <time>2021-05-09T10:27:05.000Z</time>
      </trkpt>
      <trkpt lat="44.28" lon="3.00414">
        <ele>1102</ele>
        <time>2021-05-09T10:27:23.000Z</time>
      </trkpt>
      <trkpt lat="44.27995" lon="3.00438">
        <ele>1099</ele>
        <time>2021-05-09T10:27:33.000Z</time>
      </trkpt>
      <trkpt lat="44.27994" lon="3.00452">
        <ele>1098</ele>
        <time>2021-05-09T10:27:32.000Z</time>
      </trkpt>
      <trkpt lat="44.27991" lon="3.00466">
        <ele>1097</ele>
        <time>2021-05-09T10:27:42.000Z</time>
      </trkpt>
      <trkpt lat="44.27985" lon="3.0048">
        <ele>1094</ele>
        <time>2021-05-09T10:27:39.000Z</time>
      </trkpt>
      <trkpt lat="44.27973" lon="3.00485">
        <ele>1093</ele>
        <time>2021-05-09T10:27:49.000Z</time>
      </trkpt>
      <trkpt lat="44.27954" lon="3.00491">
        <ele>1087</ele>
        <time>2021-05-09T10:27:48.000Z</time>
      </trkpt>
      <trkpt lat="44.27943" lon="3.00496">
        <ele>1085</ele>
        <time>2021-05-09T10:27:58.000Z</time>
      </trkpt>
      <trkpt lat="44.27922" lon="3.005">
        <ele>1081</ele>
        <time>2021-05-09T10:27:58.000Z</time>
      </trkpt>
      <trkpt lat="44.27912" lon="3.00505">
        <ele>1078</ele>
        <time>2021-05-09T10:28:08.000Z</time>
      </trkpt>
      <trkpt lat="44.27904" lon="3.00514">
        <ele>1076</ele>
        <time>2021-05-09T10:28:08.000Z</time>
      </trkpt>
      <trkpt lat="44.27898" lon="3.00538">
        <ele>1071</ele>
        <time>2021-05-09T10:28:18.000Z</time>
      </trkpt>
      <trkpt lat="44.279" lon="3.00552">
        <ele>1070</ele>
        <time>2021-05-09T10:28:20.000Z</time>
      </trkpt>
      <trkpt lat="44.27901" lon="3.00565">
        <ele>1069</ele>
        <time>2021-05-09T10:28:30.000Z</time>
      </trkpt>
      <trkpt lat="44.27898" lon="3.00577">
        <ele>1067</ele>
        <time>2021-05-09T10:28:40.000Z</time>
      </trkpt>
      <trkpt lat="44.27892" lon="3.0059">
        <ele>1067</ele>
        <time>2021-05-09T10:28:30.000Z</time>
      </trkpt>
      <trkpt lat="44.27884" lon="3.006">
        <ele>1066</ele>
        <time>2021-05-09T10:28:40.000Z</time>
      </trkpt>
      <trkpt lat="44.27869" lon="3.00622">
        <ele>1064</ele>
        <time>2021-05-09T10:28:42.000Z</time>
      </trkpt>
      <trkpt lat="44.27861" lon="3.00631">
        <ele>1063</ele>
        <time>2021-05-09T10:28:52.000Z</time>
      </trkpt>
      <trkpt lat="44.27851" lon="3.00637">
        <ele>1059</ele>
        <time>2021-05-09T10:28:50.000Z</time>
      </trkpt>
      <trkpt lat="44.2784" lon="3.00643">
        <ele>1058</ele>
        <time>2021-05-09T10:29:00.000Z</time>
      </trkpt>
      <trkpt lat="44.27832" lon="3.00652">
        <ele>1056</ele>
        <time>2021-05-09T10:28:58.000Z</time>
      </trkpt>
      <trkpt lat="44.27826" lon="3.00663">
        <ele>1056</ele>
        <time>2021-05-09T10:29:08.000Z</time>
      </trkpt>
      <trkpt lat="44.27823" lon="3.00677">
        <ele>1054</ele>
        <time>2021-05-09T10:29:06.000Z</time>
      </trkpt>
      <trkpt lat="44.27818" lon="3.00689">
        <ele>1052</ele>
        <time>2021-05-09T10:29:16.000Z</time>
      </trkpt>
      <trkpt lat="44.2781" lon="3.00701">
        <ele>1050</ele>
        <time>2021-05-09T10:29:14.000Z</time>
      </trkpt>
      <trkpt lat="44.27803" lon="3.0071">
        <ele>1048</ele>
        <time>2021-05-09T10:29:24.000Z</time>
      </trkpt>
      <trkpt lat="44.27784" lon="3.00722">
        <ele>1044</ele>
        <time>2021-05-09T10:29:24.000Z</time>
      </trkpt>
      <trkpt lat="44.27772" lon="3.00727">
        <ele>1043</ele>
        <time>2021-05-09T10:29:34.000Z</time>
      </trkpt>
      <trkpt lat="44.27761" lon="3.00733">
        <ele>1043</ele>
        <time>2021-05-09T10:29:32.000Z</time>
      </trkpt>
      <trkpt lat="44.27739" lon="3.00743">
        <ele>1040</ele>
        <time>2021-05-09T10:29:41.000Z</time>
      </trkpt>
      <trkpt lat="44.2773" lon="3.00749">
        <ele>1041</ele>
        <time>2021-05-09T10:29:51.000Z</time>
      </trkpt>
      <trkpt lat="44.27713" lon="3.00759">
        <ele>1039</ele>
        <time>2021-05-09T10:29:52.000Z</time>
      </trkpt>
      <trkpt lat="44.277" lon="3.0077">
        <ele>1036</ele>
        <time>2021-05-09T10:30:02.000Z</time>
      </trkpt>
      <trkpt lat="44.27708" lon="3.00775">
        <ele>1036</ele>
        <time>2021-05-09T10:30:06.000Z</time>
      </trkpt>
      <trkpt lat="44.27717" lon="3.00776">
        <ele>1037</ele>
        <time>2021-05-09T10:30:16.000Z</time>
      </trkpt>
      <trkpt lat="44.27729" lon="3.00779">
        <ele>1037</ele>
        <time>2021-05-09T10:30:16.000Z</time>
      </trkpt>
      <trkpt lat="44.27748" lon="3.00785">
        <ele>1037</ele>
        <time>2021-05-09T10:30:25.000Z</time>
      </trkpt>
      <trkpt lat="44.27757" lon="3.00789">
        <ele>1037</ele>
        <time>2021-05-09T10:30:35.000Z</time>
      </trkpt>
      <trkpt lat="44.27774" lon="3.00804">
        <ele>1037</ele>
        <time>2021-05-09T10:30:38.000Z</time>
      </trkpt>
      <trkpt lat="44.27794" lon="3.00818">
        <ele>1037</ele>
        <time>2021-05-09T10:30:45.000Z</time>
      </trkpt>
      <trkpt lat="44.27822" lon="3.00842">
        <ele>1039</ele>
        <time>2021-05-09T10:30:57.000Z</time>
      </trkpt>
      <trkpt lat="44.2783" lon="3.00852">
        <ele>1039</ele>
        <time>2021-05-09T10:31:07.000Z</time>
      </trkpt>
      <trkpt lat="44.27834" lon="3.00864">
        <ele>1040</ele>
        <time>2021-05-09T10:31:07.000Z</time>
      </trkpt>
      <trkpt lat="44.27842" lon="3.00875">
        <ele>1041</ele>
        <time>2021-05-09T10:31:17.000Z</time>
      </trkpt>
      <trkpt lat="44.27849" lon="3.00884">
        <ele>1042</ele>
        <time>2021-05-09T10:31:17.000Z</time>
      </trkpt>
      <trkpt lat="44.27859" lon="3.00892">
        <ele>1042</ele>
        <time>2021-05-09T10:31:27.000Z</time>
      </trkpt>
      <trkpt lat="44.27878" lon="3.00906">
        <ele>1043</ele>
        <time>2021-05-09T10:31:30.000Z</time>
      </trkpt>
      <trkpt lat="44.27889" lon="3.0091">
        <ele>1042</ele>
        <time>2021-05-09T10:31:40.000Z</time>
      </trkpt>
      <trkpt lat="44.2791" lon="3.00905">
        <ele>1040</ele>
        <time>2021-05-09T10:31:40.000Z</time>
      </trkpt>
      <trkpt lat="44.27923" lon="3.009">
        <ele>1039</ele>
        <time>2021-05-09T10:31:50.000Z</time>
      </trkpt>
      <trkpt lat="44.27938" lon="3.00891">
        <ele>1037</ele>
        <time>2021-05-09T10:31:50.000Z</time>
      </trkpt>
      <trkpt lat="44.27947" lon="3.00885">
        <ele>1037</ele>
        <time>2021-05-09T10:32:00.000Z</time>
      </trkpt>
      <trkpt lat="44.27958" lon="3.00878">
        <ele>1037</ele>
        <time>2021-05-09T10:31:58.000Z</time>
      </trkpt>
      <trkpt lat="44.27967" lon="3.00869">
        <ele>1037</ele>
        <time>2021-05-09T10:32:08.000Z</time>
      </trkpt>
      <trkpt lat="44.27986" lon="3.00853">
        <ele>1035</ele>
        <time>2021-05-09T10:32:10.000Z</time>
      </trkpt>
      <trkpt lat="44.27995" lon="3.00846">
        <ele>1035</ele>
        <time>2021-05-09T10:32:20.000Z</time>
      </trkpt>
      <trkpt lat="44.28006" lon="3.0084">
        <ele>1035</ele>
        <time>2021-05-09T10:32:18.000Z</time>
      </trkpt>
      <trkpt lat="44.28024" lon="3.00833">
        <ele>1036</ele>
        <time>2021-05-09T10:32:28.000Z</time>
      </trkpt>
      <trkpt lat="44.28033" lon="3.00834">
        <ele>1036</ele>
        <time>2021-05-09T10:32:30.000Z</time>
      </trkpt>
      <trkpt lat="44.28046" lon="3.00837">
        <ele>1035</ele>
        <time>2021-05-09T10:32:40.000Z</time>
      </trkpt>
      <trkpt lat="44.28056" lon="3.00841">
        <ele>1034</ele>
        <time>2021-05-09T10:32:39.000Z</time>
      </trkpt>
      <trkpt lat="44.28076" lon="3.00846">
        <ele>1034</ele>
        <time>2021-05-09T10:32:47.000Z</time>
      </trkpt>
      <trkpt lat="44.28085" lon="3.00851">
        <ele>1033</ele>
        <time>2021-05-09T10:32:57.000Z</time>
      </trkpt>
      <trkpt lat="44.28094" lon="3.00858">
        <ele>1033</ele>
        <time>2021-05-09T10:32:55.000Z</time>
      </trkpt>
      <trkpt lat="44.28102" lon="3.00867">
        <ele>1033</ele>
        <time>2021-05-09T10:33:05.000Z</time>
      </trkpt>
      <trkpt lat="44.2811" lon="3.00877">
        <ele>1033</ele>
        <time>2021-05-09T10:33:03.000Z</time>
      </trkpt>
      <trkpt lat="44.28119" lon="3.00883">
        <ele>1032</ele>
        <time>2021-05-09T10:33:13.000Z</time>
      </trkpt>
      <trkpt lat="44.28133" lon="3.00903">
        <ele>1030</ele>
        <time>2021-05-09T10:33:13.000Z</time>
      </trkpt>
      <trkpt lat="44.28142" lon="3.00911">
        <ele>1028</ele>
        <time>2021-05-09T10:33:23.000Z</time>
      </trkpt>
      <trkpt lat="44.28148" lon="3.00923">
        <ele>1027</ele>
        <time>2021-05-09T10:33:20.000Z</time>
      </trkpt>
      <trkpt lat="44.28163" lon="3.00939">
        <ele>1027</ele>
        <time>2021-05-09T10:33:30.000Z</time>
      </trkpt>
      <trkpt lat="44.2817" lon="3.00947">
        <ele>1026</ele>
        <time>2021-05-09T10:33:30.000Z</time>
      </trkpt>
      <trkpt lat="44.28178" lon="3.00955">
        <ele>1026</ele>
        <time>2021-05-09T10:33:40.000Z</time>
      </trkpt>
      <trkpt lat="44.28188" lon="3.00962">
        <ele>1027</ele>
        <time>2021-05-09T10:33:36.000Z</time>
      </trkpt>
      <trkpt lat="44.28196" lon="3.00969">
        <ele>1026</ele>
        <time>2021-05-09T10:33:46.000Z</time>
      </trkpt>
      <trkpt lat="44.28206" lon="3.00972">
        <ele>1025</ele>
        <time>2021-05-09T10:33:45.000Z</time>
      </trkpt>
      <trkpt lat="44.28216" lon="3.00976">
        <ele>1023</ele>
        <time>2021-05-09T10:33:55.000Z</time>
      </trkpt>
      <trkpt lat="44.28225" lon="3.00978">
        <ele>1021</ele>
        <time>2021-05-09T10:33:55.000Z</time>
      </trkpt>
      <trkpt lat="44.28238" lon="3.00982">
        <ele>1019</ele>
        <time>2021-05-09T10:34:05.000Z</time>
      </trkpt>
      <trkpt lat="44.28248" lon="3.00988">
        <ele>1018</ele>
        <time>2021-05-09T10:34:01.000Z</time>
      </trkpt>
      <trkpt lat="44.2826" lon="3.00993">
        <ele>1017</ele>
        <time>2021-05-09T10:34:11.000Z</time>
      </trkpt>
      <trkpt lat="44.28268" lon="3.00998">
        <ele>1017</ele>
        <time>2021-05-09T10:34:07.000Z</time>
      </trkpt>
      <trkpt lat="44.2831" lon="3.01017">
        <ele>1013</ele>
        <time>2021-05-09T10:34:20.000Z</time>
      </trkpt>
      <trkpt lat="44.28319" lon="3.01019">
        <ele>1013</ele>
        <time>2021-05-09T10:34:30.000Z</time>
      </trkpt>
      <trkpt lat="44.28328" lon="3.01021">
        <ele>1012</ele>
        <time>2021-05-09T10:34:40.000Z</time>
      </trkpt>
      <trkpt lat="44.28337" lon="3.01027">
        <ele>1012</ele>
        <time>2021-05-09T10:34:31.000Z</time>
      </trkpt>
      <trkpt lat="44.2835" lon="3.01029">
        <ele>1012</ele>
        <time>2021-05-09T10:34:41.000Z</time>
      </trkpt>
      <trkpt lat="44.2836" lon="3.01031">
        <ele>1012</ele>
        <time>2021-05-09T10:34:37.000Z</time>
      </trkpt>
      <trkpt lat="44.2837" lon="3.01033">
        <ele>1012</ele>
        <time>2021-05-09T10:34:47.000Z</time>
      </trkpt>
      <trkpt lat="44.2838" lon="3.01032">
        <ele>1010</ele>
        <time>2021-05-09T10:34:44.000Z</time>
      </trkpt>
      <trkpt lat="44.28399" lon="3.01022">
        <ele>1008</ele>
        <time>2021-05-09T10:34:54.000Z</time>
      </trkpt>
      <trkpt lat="44.28428" lon="3.01018">
        <ele>1005</ele>
        <time>2021-05-09T10:35:08.000Z</time>
      </trkpt>
      <trkpt lat="44.28438" lon="3.01015">
        <ele>1004</ele>
        <time>2021-05-09T10:35:18.000Z</time>
      </trkpt>
      <trkpt lat="44.28448" lon="3.0101">
        <ele>1003</ele>
        <time>2021-05-09T10:35:15.000Z</time>
      </trkpt>
      <trkpt lat="44.28457" lon="3.01002">
        <ele>1002</ele>
        <time>2021-05-09T10:35:25.000Z</time>
      </trkpt>
      <trkpt lat="44.28468" lon="3.00996">
        <ele>1001</ele>
        <time>2021-05-09T10:35:22.000Z</time>
      </trkpt>
      <trkpt lat="44.28477" lon="3.00997">
        <ele>1000</ele>
        <time>2021-05-09T10:35:32.000Z</time>
      </trkpt>
      <trkpt lat="44.28489" lon="3.00998">
        <ele>1000</ele>
        <time>2021-05-09T10:35:28.000Z</time>
      </trkpt>
      <trkpt lat="44.285" lon="3.00997">
        <ele>999</ele>
        <time>2021-05-09T10:35:38.000Z</time>
      </trkpt>
      <trkpt lat="44.2851" lon="3.00998">
        <ele>997</ele>
        <time>2021-05-09T10:35:35.000Z</time>
      </trkpt>
      <trkpt lat="44.2852" lon="3.00996">
        <ele>995</ele>
        <time>2021-05-09T10:35:45.000Z</time>
      </trkpt>
      <trkpt lat="44.28541" lon="3.00999">
        <ele>993</ele>
        <time>2021-05-09T10:35:43.000Z</time>
      </trkpt>
      <trkpt lat="44.28551" lon="3.00998">
        <ele>991</ele>
        <time>2021-05-09T10:35:53.000Z</time>
      </trkpt>
      <trkpt lat="44.28563" lon="3.01">
        <ele>990</ele>
        <time>2021-05-09T10:35:49.000Z</time>
      </trkpt>
      <trkpt lat="44.28574" lon="3.01">
        <ele>989</ele>
        <time>2021-05-09T10:35:59.000Z</time>
      </trkpt>
      <trkpt lat="44.28584" lon="3.01002">
        <ele>988</ele>
        <time>2021-05-09T10:35:55.000Z</time>
      </trkpt>
      <trkpt lat="44.28595" lon="3.01001">
        <ele>987</ele>
        <time>2021-05-09T10:36:05.000Z</time>
      </trkpt>
      <trkpt lat="44.28605" lon="3.01004">
        <ele>985</ele>
        <time>2021-05-09T10:36:03.000Z</time>
      </trkpt>
      <trkpt lat="44.28614" lon="3.01008">
        <ele>984</ele>
        <time>2021-05-09T10:36:13.000Z</time>
      </trkpt>
      <trkpt lat="44.28634" lon="3.01013">
        <ele>984</ele>
        <time>2021-05-09T10:36:13.000Z</time>
      </trkpt>
      <trkpt lat="44.28653" lon="3.01023">
        <ele>981</ele>
        <time>2021-05-09T10:36:20.000Z</time>
      </trkpt>
      <trkpt lat="44.28663" lon="3.01027">
        <ele>980</ele>
        <time>2021-05-09T10:36:30.000Z</time>
      </trkpt>
      <trkpt lat="44.28675" lon="3.01035">
        <ele>979</ele>
        <time>2021-05-09T10:36:25.000Z</time>
      </trkpt>
      <trkpt lat="44.28695" lon="3.0105">
        <ele>978</ele>
        <time>2021-05-09T10:36:32.000Z</time>
      </trkpt>
      <trkpt lat="44.28715" lon="3.01064">
        <ele>976</ele>
        <time>2021-05-09T10:36:40.000Z</time>
      </trkpt>
      <trkpt lat="44.28753" lon="3.01085">
        <ele>972</ele>
        <time>2021-05-09T10:36:55.000Z</time>
      </trkpt>
      <trkpt lat="44.28763" lon="3.01087">
        <ele>971</ele>
        <time>2021-05-09T10:37:05.000Z</time>
      </trkpt>
      <trkpt lat="44.28773" lon="3.01085">
        <ele>969</ele>
        <time>2021-05-09T10:37:03.000Z</time>
      </trkpt>
      <trkpt lat="44.28782" lon="3.01088">
        <ele>968</ele>
        <time>2021-05-09T10:37:13.000Z</time>
      </trkpt>
      <trkpt lat="44.2879" lon="3.01094">
        <ele>966</ele>
        <time>2021-05-09T10:37:23.000Z</time>
      </trkpt>
      <trkpt lat="44.288" lon="3.01098">
        <ele>964</ele>
        <time>2021-05-09T10:37:13.000Z</time>
      </trkpt>
      <trkpt lat="44.2882" lon="3.01106">
        <ele>962</ele>
        <time>2021-05-09T10:37:19.000Z</time>
      </trkpt>
      <trkpt lat="44.2883" lon="3.0111">
        <ele>961</ele>
        <time>2021-05-09T10:37:29.000Z</time>
      </trkpt>
      <trkpt lat="44.28839" lon="3.01111">
        <ele>960</ele>
        <time>2021-05-09T10:37:25.000Z</time>
      </trkpt>
      <trkpt lat="44.28851" lon="3.01111">
        <ele>959</ele>
        <time>2021-05-09T10:37:35.000Z</time>
      </trkpt>
      <trkpt lat="44.2886" lon="3.01117">
        <ele>958</ele>
        <time>2021-05-09T10:37:33.000Z</time>
      </trkpt>
      <trkpt lat="44.2887" lon="3.01121">
        <ele>957</ele>
        <time>2021-05-09T10:37:43.000Z</time>
      </trkpt>
      <trkpt lat="44.28881" lon="3.01127">
        <ele>957</ele>
        <time>2021-05-09T10:37:40.000Z</time>
      </trkpt>
      <trkpt lat="44.28891" lon="3.01129">
        <ele>956</ele>
        <time>2021-05-09T10:37:50.000Z</time>
      </trkpt>
      <trkpt lat="44.28902" lon="3.01129">
        <ele>955</ele>
        <time>2021-05-09T10:37:48.000Z</time>
      </trkpt>
      <trkpt lat="44.2892" lon="3.01114">
        <ele>952</ele>
        <time>2021-05-09T10:37:57.000Z</time>
      </trkpt>
      <trkpt lat="44.28927" lon="3.01105">
        <ele>951</ele>
        <time>2021-05-09T10:38:07.000Z</time>
      </trkpt>
      <trkpt lat="44.28936" lon="3.01097">
        <ele>951</ele>
        <time>2021-05-09T10:38:04.000Z</time>
      </trkpt>
      <trkpt lat="44.28945" lon="3.01089">
        <ele>949</ele>
        <time>2021-05-09T10:38:14.000Z</time>
      </trkpt>
      <trkpt lat="44.28953" lon="3.01079">
        <ele>947</ele>
        <time>2021-05-09T10:38:11.000Z</time>
      </trkpt>
      <trkpt lat="44.28957" lon="3.01067">
        <ele>946</ele>
        <time>2021-05-09T10:38:21.000Z</time>
      </trkpt>
      <trkpt lat="44.28958" lon="3.01053">
        <ele>945</ele>
        <time>2021-05-09T10:38:19.000Z</time>
      </trkpt>
      <trkpt lat="44.28969" lon="3.0103">
        <ele>944</ele>
        <time>2021-05-09T10:38:25.000Z</time>
      </trkpt>
      <trkpt lat="44.28978" lon="3.01019">
        <ele>944</ele>
        <time>2021-05-09T10:38:35.000Z</time>
      </trkpt>
      <trkpt lat="44.28987" lon="3.01011">
        <ele>943</ele>
        <time>2021-05-09T10:38:30.000Z</time>
      </trkpt>
      <trkpt lat="44.28995" lon="3.01003">
        <ele>943</ele>
        <time>2021-05-09T10:38:40.000Z</time>
      </trkpt>
      <trkpt lat="44.29008" lon="3.0098">
        <ele>939</ele>
        <time>2021-05-09T10:38:39.000Z</time>
      </trkpt>
      <trkpt lat="44.29029" lon="3.00948">
        <ele>936</ele>
        <time>2021-05-09T10:38:48.000Z</time>
      </trkpt>
      <trkpt lat="44.29035" lon="3.00935">
        <ele>935</ele>
        <time>2021-05-09T10:38:58.000Z</time>
      </trkpt>
      <trkpt lat="44.29041" lon="3.00925">
        <ele>934</ele>
        <time>2021-05-09T10:38:54.000Z</time>
      </trkpt>
      <trkpt lat="44.29047" lon="3.00914">
        <ele>933</ele>
        <time>2021-05-09T10:39:04.000Z</time>
      </trkpt>
      <trkpt lat="44.29055" lon="3.00902">
        <ele>932</ele>
        <time>2021-05-09T10:39:01.000Z</time>
      </trkpt>
      <trkpt lat="44.2906" lon="3.00889">
        <ele>931</ele>
        <time>2021-05-09T10:39:11.000Z</time>
      </trkpt>
      <trkpt lat="44.29064" lon="3.00876">
        <ele>930</ele>
        <time>2021-05-09T10:39:09.000Z</time>
      </trkpt>
      <trkpt lat="44.29072" lon="3.00863">
        <ele>928</ele>
        <time>2021-05-09T10:39:19.000Z</time>
      </trkpt>
      <trkpt lat="44.29081" lon="3.00853">
        <ele>927</ele>
        <time>2021-05-09T10:39:16.000Z</time>
      </trkpt>
      <trkpt lat="44.29102" lon="3.00823">
        <ele>925</ele>
        <time>2021-05-09T10:39:29.000Z</time>
      </trkpt>
      <trkpt lat="44.29111" lon="3.0082">
        <ele>923</ele>
        <time>2021-05-09T10:39:39.000Z</time>
      </trkpt>
      <trkpt lat="44.2912" lon="3.00823">
        <ele>922</ele>
        <time>2021-05-09T10:39:37.000Z</time>
      </trkpt>
      <trkpt lat="44.29131" lon="3.00829">
        <ele>921</ele>
        <time>2021-05-09T10:39:47.000Z</time>
      </trkpt>
      <trkpt lat="44.29143" lon="3.00834">
        <ele>921</ele>
        <time>2021-05-09T10:39:44.000Z</time>
      </trkpt>
      <trkpt lat="44.29163" lon="3.00846">
        <ele>920</ele>
        <time>2021-05-09T10:39:50.000Z</time>
      </trkpt>
      <trkpt lat="44.29171" lon="3.00854">
        <ele>920</ele>
        <time>2021-05-09T10:40:00.000Z</time>
      </trkpt>
      <trkpt lat="44.2918" lon="3.0086">
        <ele>919</ele>
        <time>2021-05-09T10:39:56.000Z</time>
      </trkpt>
      <trkpt lat="44.2919" lon="3.00863">
        <ele>918</ele>
        <time>2021-05-09T10:40:06.000Z</time>
      </trkpt>
      <trkpt lat="44.292" lon="3.00864">
        <ele>918</ele>
        <time>2021-05-09T10:40:04.000Z</time>
      </trkpt>
      <trkpt lat="44.2921" lon="3.00858">
        <ele>916</ele>
        <time>2021-05-09T10:40:14.000Z</time>
      </trkpt>
      <trkpt lat="44.29221" lon="3.00839">
        <ele>914</ele>
        <time>2021-05-09T10:40:18.000Z</time>
      </trkpt>
      <trkpt lat="44.29225" lon="3.00827">
        <ele>912</ele>
        <time>2021-05-09T10:40:28.000Z</time>
      </trkpt>
      <trkpt lat="44.29232" lon="3.00803">
        <ele>911</ele>
        <time>2021-05-09T10:40:26.000Z</time>
      </trkpt>
      <trkpt lat="44.29235" lon="3.00791">
        <ele>910</ele>
        <time>2021-05-09T10:40:36.000Z</time>
      </trkpt>
      <trkpt lat="44.29238" lon="3.00775">
        <ele>909</ele>
        <time>2021-05-09T10:40:32.000Z</time>
      </trkpt>
      <trkpt lat="44.29237" lon="3.00745">
        <ele>907</ele>
        <time>2021-05-09T10:40:38.000Z</time>
      </trkpt>
      <trkpt lat="44.29236" lon="3.0073">
        <ele>906</ele>
        <time>2021-05-09T10:40:48.000Z</time>
      </trkpt>
      <trkpt lat="44.29238" lon="3.00717">
        <ele>904</ele>
        <time>2021-05-09T10:40:46.000Z</time>
      </trkpt>
      <trkpt lat="44.29241" lon="3.00703">
        <ele>903</ele>
        <time>2021-05-09T10:40:56.000Z</time>
      </trkpt>
      <trkpt lat="44.29244" lon="3.00689">
        <ele>902</ele>
        <time>2021-05-09T10:40:54.000Z</time>
      </trkpt>
      <trkpt lat="44.29246" lon="3.00676">
        <ele>901</ele>
        <time>2021-05-09T10:41:04.000Z</time>
      </trkpt>
      <trkpt lat="44.29243" lon="3.00664">
        <ele>899</ele>
        <time>2021-05-09T10:41:14.000Z</time>
      </trkpt>
      <trkpt lat="44.29236" lon="3.00654">
        <ele>897</ele>
        <time>2021-05-09T10:41:06.000Z</time>
      </trkpt>
      <trkpt lat="44.29232" lon="3.00642">
        <ele>896</ele>
        <time>2021-05-09T10:41:16.000Z</time>
      </trkpt>
      <trkpt lat="44.29235" lon="3.00616">
        <ele>895</ele>
        <time>2021-05-09T10:41:58.000Z</time>
      </trkpt>
      <trkpt lat="44.29252" lon="3.00602">
        <ele>889</ele>
        <time>2021-05-09T10:42:12.000Z</time>
      </trkpt>
      <trkpt lat="44.29266" lon="3.00584">
        <ele>884</ele>
        <time>2021-05-09T10:42:22.000Z</time>
      </trkpt>
      <trkpt lat="44.29277" lon="3.00577">
        <ele>883</ele>
        <time>2021-05-09T10:42:32.000Z</time>
      </trkpt>
      <trkpt lat="44.29285" lon="3.0057">
        <ele>882</ele>
        <time>2021-05-09T10:42:31.000Z</time>
      </trkpt>
      <trkpt lat="44.29304" lon="3.00555">
        <ele>879</ele>
        <time>2021-05-09T10:42:38.000Z</time>
      </trkpt>
      <trkpt lat="44.29312" lon="3.00546">
        <ele>878</ele>
        <time>2021-05-09T10:42:48.000Z</time>
      </trkpt>
      <trkpt lat="44.29318" lon="3.00537">
        <ele>877</ele>
        <time>2021-05-09T10:42:58.000Z</time>
      </trkpt>
      <trkpt lat="44.29329" lon="3.00532">
        <ele>876</ele>
        <time>2021-05-09T10:42:46.000Z</time>
      </trkpt>
      <trkpt lat="44.29341" lon="3.00534">
        <ele>875</ele>
        <time>2021-05-09T10:42:56.000Z</time>
      </trkpt>
      <trkpt lat="44.29365" lon="3.00539">
        <ele>874</ele>
        <time>2021-05-09T10:42:52.000Z</time>
      </trkpt>
      <trkpt lat="44.29408" lon="3.00548">
        <ele>871</ele>
        <time>2021-05-09T10:43:03.000Z</time>
      </trkpt>
      <trkpt lat="44.29425" lon="3.00557">
        <ele>870</ele>
        <time>2021-05-09T10:43:13.000Z</time>
      </trkpt>
      <trkpt lat="44.29431" lon="3.00567">
        <ele>869</ele>
        <time>2021-05-09T10:43:16.000Z</time>
      </trkpt>
      <trkpt lat="44.29442" lon="3.00592">
        <ele>870</ele>
        <time>2021-05-09T10:43:26.000Z</time>
      </trkpt>
      <trkpt lat="44.2945" lon="3.00603">
        <ele>872</ele>
        <time>2021-05-09T10:43:36.000Z</time>
      </trkpt>
      <trkpt lat="44.29455" lon="3.00613">
        <ele>873</ele>
        <time>2021-05-09T10:43:34.000Z</time>
      </trkpt>
      <trkpt lat="44.29465" lon="3.00619">
        <ele>874</ele>
        <time>2021-05-09T10:43:44.000Z</time>
      </trkpt>
      <trkpt lat="44.29472" lon="3.00629">
        <ele>876</ele>
        <time>2021-05-09T10:43:43.000Z</time>
      </trkpt>
      <trkpt lat="44.2949" lon="3.00644">
        <ele>877</ele>
        <time>2021-05-09T10:43:51.000Z</time>
      </trkpt>
      <trkpt lat="44.29508" lon="3.00656">
        <ele>877</ele>
        <time>2021-05-09T10:43:57.000Z</time>
      </trkpt>
      <trkpt lat="44.29517" lon="3.0066">
        <ele>876</ele>
        <time>2021-05-09T10:44:07.000Z</time>
      </trkpt>
      <trkpt lat="44.29526" lon="3.00662">
        <ele>876</ele>
        <time>2021-05-09T10:44:17.000Z</time>
      </trkpt>
      <trkpt lat="44.29548" lon="3.00663">
        <ele>875</ele>
        <time>2021-05-09T10:44:11.000Z</time>
      </trkpt>
      <trkpt lat="44.29559" lon="3.00662">
        <ele>873</ele>
        <time>2021-05-09T10:44:21.000Z</time>
      </trkpt>
      <trkpt lat="44.29571" lon="3.00656">
        <ele>872</ele>
        <time>2021-05-09T10:44:19.000Z</time>
      </trkpt>
      <trkpt lat="44.29599" lon="3.0064">
        <ele>870</ele>
        <time>2021-05-09T10:44:29.000Z</time>
      </trkpt>
      <trkpt lat="44.29618" lon="3.00625">
        <ele>869</ele>
        <time>2021-05-09T10:44:36.000Z</time>
      </trkpt>
      <trkpt lat="44.29639" lon="3.00619">
        <ele>867</ele>
        <time>2021-05-09T10:44:43.000Z</time>
      </trkpt>
      <trkpt lat="44.29649" lon="3.00615">
        <ele>865</ele>
        <time>2021-05-09T10:44:53.000Z</time>
      </trkpt>
      <trkpt lat="44.29657" lon="3.00608">
        <ele>864</ele>
        <time>2021-05-09T10:44:51.000Z</time>
      </trkpt>
      <trkpt lat="44.29666" lon="3.00603">
        <ele>862</ele>
        <time>2021-05-09T10:45:01.000Z</time>
      </trkpt>
      <trkpt lat="44.29684" lon="3.00588">
        <ele>861</ele>
        <time>2021-05-09T10:45:00.000Z</time>
      </trkpt>
      <trkpt lat="44.29705" lon="3.00571">
        <ele>858</ele>
        <time>2021-05-09T10:45:08.000Z</time>
      </trkpt>
      <trkpt lat="44.29714" lon="3.00567">
        <ele>856</ele>
        <time>2021-05-09T10:45:18.000Z</time>
      </trkpt>
      <trkpt lat="44.29724" lon="3.00565">
        <ele>855</ele>
        <time>2021-05-09T10:45:14.000Z</time>
      </trkpt>
      <trkpt lat="44.29736" lon="3.00561">
        <ele>853</ele>
        <time>2021-05-09T10:45:24.000Z</time>
      </trkpt>
      <trkpt lat="44.29747" lon="3.00558">
        <ele>852</ele>
        <time>2021-05-09T10:45:20.000Z</time>
      </trkpt>
      <trkpt lat="44.29758" lon="3.0056">
        <ele>851</ele>
        <time>2021-05-09T10:45:30.000Z</time>
      </trkpt>
      <trkpt lat="44.29767" lon="3.00559">
        <ele>850</ele>
        <time>2021-05-09T10:45:27.000Z</time>
      </trkpt>
      <trkpt lat="44.29792" lon="3.00561">
        <ele>847</ele>
        <time>2021-05-09T10:45:34.000Z</time>
      </trkpt>
      <trkpt lat="44.29802" lon="3.00564">
        <ele>847</ele>
        <time>2021-05-09T10:45:44.000Z</time>
      </trkpt>
      <trkpt lat="44.29811" lon="3.00569">
        <ele>846</ele>
        <time>2021-05-09T10:45:40.000Z</time>
      </trkpt>
      <trkpt lat="44.2984" lon="3.00582">
        <ele>845</ele>
        <time>2021-05-09T10:45:49.000Z</time>
      </trkpt>
      <trkpt lat="44.29849" lon="3.00585">
        <ele>845</ele>
        <time>2021-05-09T10:45:59.000Z</time>
      </trkpt>
      <trkpt lat="44.29869" lon="3.00578">
        <ele>845</ele>
        <time>2021-05-09T10:46:01.000Z</time>
      </trkpt>
      <trkpt lat="44.29878" lon="3.00573">
        <ele>845</ele>
        <time>2021-05-09T10:46:11.000Z</time>
      </trkpt>
      <trkpt lat="44.29899" lon="3.00566">
        <ele>845</ele>
        <time>2021-05-09T10:46:13.000Z</time>
      </trkpt>
      <trkpt lat="44.29921" lon="3.00556">
        <ele>846</ele>
        <time>2021-05-09T10:46:20.000Z</time>
      </trkpt>
      <trkpt lat="44.2993" lon="3.00553">
        <ele>845</ele>
        <time>2021-05-09T10:46:30.000Z</time>
      </trkpt>
      <trkpt lat="44.29961" lon="3.0055">
        <ele>845</ele>
        <time>2021-05-09T10:46:34.000Z</time>
      </trkpt>
      <trkpt lat="44.29971" lon="3.00548">
        <ele>846</ele>
        <time>2021-05-09T10:46:44.000Z</time>
      </trkpt>
      <trkpt lat="44.29981" lon="3.00546">
        <ele>846</ele>
        <time>2021-05-09T10:46:42.000Z</time>
      </trkpt>
      <trkpt lat="44.3" lon="3.00548">
        <ele>847</ele>
        <time>2021-05-09T10:46:50.000Z</time>
      </trkpt>
      <trkpt lat="44.3005" lon="3.00549">
        <ele>846</ele>
        <time>2021-05-09T10:47:08.000Z</time>
      </trkpt>
      <trkpt lat="44.30092" lon="3.00542">
        <ele>842</ele>
        <time>2021-05-09T10:47:22.000Z</time>
      </trkpt>
      <trkpt lat="44.30121" lon="3.0053">
        <ele>840</ele>
        <time>2021-05-09T10:47:33.000Z</time>
      </trkpt>
      <trkpt lat="44.30141" lon="3.00527">
        <ele>839</ele>
        <time>2021-05-09T10:47:40.000Z</time>
      </trkpt>
      <trkpt lat="44.3016" lon="3.0053">
        <ele>837</ele>
        <time>2021-05-09T10:47:50.000Z</time>
      </trkpt>
      <trkpt lat="44.30172" lon="3.00533">
        <ele>836</ele>
        <time>2021-05-09T10:47:49.000Z</time>
      </trkpt>
      <trkpt lat="44.30182" lon="3.0054">
        <ele>835</ele>
        <time>2021-05-09T10:47:59.000Z</time>
      </trkpt>
      <trkpt lat="44.3019" lon="3.00549">
        <ele>834</ele>
        <time>2021-05-09T10:47:55.000Z</time>
      </trkpt>
      <trkpt lat="44.30212" lon="3.00581">
        <ele>830</ele>
        <time>2021-05-09T10:48:04.000Z</time>
      </trkpt>
      <trkpt lat="44.30218" lon="3.0059">
        <ele>828</ele>
        <time>2021-05-09T10:48:14.000Z</time>
      </trkpt>
      <trkpt lat="44.30227" lon="3.00598">
        <ele>827</ele>
        <time>2021-05-09T10:48:10.000Z</time>
      </trkpt>
      <trkpt lat="44.30243" lon="3.00617">
        <ele>827</ele>
        <time>2021-05-09T10:48:17.000Z</time>
      </trkpt>
      <trkpt lat="44.30251" lon="3.00624">
        <ele>827</ele>
        <time>2021-05-09T10:48:27.000Z</time>
      </trkpt>
      <trkpt lat="44.30259" lon="3.00635">
        <ele>826</ele>
        <time>2021-05-09T10:48:24.000Z</time>
      </trkpt>
      <trkpt lat="44.30264" lon="3.00647">
        <ele>826</ele>
        <time>2021-05-09T10:48:34.000Z</time>
      </trkpt>
      <trkpt lat="44.30274" lon="3.00672">
        <ele>824</ele>
        <time>2021-05-09T10:48:36.000Z</time>
      </trkpt>
      <trkpt lat="44.30295" lon="3.00705">
        <ele>824</ele>
        <time>2021-05-09T10:48:47.000Z</time>
      </trkpt>
      <trkpt lat="44.30301" lon="3.00716">
        <ele>824</ele>
        <time>2021-05-09T10:48:57.000Z</time>
      </trkpt>
      <trkpt lat="44.30305" lon="3.00729">
        <ele>823</ele>
        <time>2021-05-09T10:48:55.000Z</time>
      </trkpt>
      <trkpt lat="44.30324" lon="3.00752">
        <ele>823</ele>
        <time>2021-05-09T10:49:05.000Z</time>
      </trkpt>
      <trkpt lat="44.30333" lon="3.00761">
        <ele>821</ele>
        <time>2021-05-09T10:49:15.000Z</time>
      </trkpt>
      <trkpt lat="44.3034" lon="3.00769">
        <ele>821</ele>
        <time>2021-05-09T10:49:12.000Z</time>
      </trkpt>
      <trkpt lat="44.30359" lon="3.00781">
        <ele>818</ele>
        <time>2021-05-09T10:49:18.000Z</time>
      </trkpt>
      <trkpt lat="44.30369" lon="3.00785">
        <ele>817</ele>
        <time>2021-05-09T10:49:28.000Z</time>
      </trkpt>
      <trkpt lat="44.30389" lon="3.00785">
        <ele>816</ele>
        <time>2021-05-09T10:49:29.000Z</time>
      </trkpt>
      <trkpt lat="44.304" lon="3.00779">
        <ele>814</ele>
        <time>2021-05-09T10:49:39.000Z</time>
      </trkpt>
      <trkpt lat="44.30407" lon="3.00771">
        <ele>809</ele>
        <time>2021-05-09T10:49:42.000Z</time>
      </trkpt>
      <trkpt lat="44.30415" lon="3.00759">
        <ele>805</ele>
        <time>2021-05-09T10:49:52.000Z</time>
      </trkpt>
      <trkpt lat="44.3042" lon="3.00748">
        <ele>804</ele>
        <time>2021-05-09T10:49:51.000Z</time>
      </trkpt>
      <trkpt lat="44.30434" lon="3.00724">
        <ele>799</ele>
        <time>2021-05-09T10:50:00.000Z</time>
      </trkpt>
      <trkpt lat="44.30442" lon="3.00713">
        <ele>797</ele>
        <time>2021-05-09T10:50:10.000Z</time>
      </trkpt>
      <trkpt lat="44.30459" lon="3.00702">
        <ele>796</ele>
        <time>2021-05-09T10:50:10.000Z</time>
      </trkpt>
      <trkpt lat="44.30478" lon="3.00686">
        <ele>793</ele>
        <time>2021-05-09T10:50:16.000Z</time>
      </trkpt>
      <trkpt lat="44.3052" lon="3.00669">
        <ele>787</ele>
        <time>2021-05-09T10:50:25.000Z</time>
      </trkpt>
      <trkpt lat="44.30541" lon="3.0065">
        <ele>783</ele>
        <time>2021-05-09T10:50:33.000Z</time>
      </trkpt>
      <trkpt lat="44.30548" lon="3.0064">
        <ele>782</ele>
        <time>2021-05-09T10:50:43.000Z</time>
      </trkpt>
      <trkpt lat="44.30554" lon="3.00627">
        <ele>780</ele>
        <time>2021-05-09T10:50:41.000Z</time>
      </trkpt>
      <trkpt lat="44.30562" lon="3.00618">
        <ele>778</ele>
        <time>2021-05-09T10:50:51.000Z</time>
      </trkpt>
      <trkpt lat="44.30581" lon="3.00607">
        <ele>774</ele>
        <time>2021-05-09T10:50:53.000Z</time>
      </trkpt>
      <trkpt lat="44.3059" lon="3.00598">
        <ele>772</ele>
        <time>2021-05-09T10:51:03.000Z</time>
      </trkpt>
      <trkpt lat="44.30599" lon="3.00594">
        <ele>770</ele>
        <time>2021-05-09T10:51:00.000Z</time>
      </trkpt>
      <trkpt lat="44.30641" lon="3.00583">
        <ele>757</ele>
        <time>2021-05-09T10:51:17.000Z</time>
      </trkpt>
      <trkpt lat="44.30651" lon="3.00586">
        <ele>756</ele>
        <time>2021-05-09T10:51:27.000Z</time>
      </trkpt>
      <trkpt lat="44.30659" lon="3.00591">
        <ele>754</ele>
        <time>2021-05-09T10:51:37.000Z</time>
      </trkpt>
      <trkpt lat="44.30665" lon="3.00615">
        <ele>748</ele>
        <time>2021-05-09T10:51:32.000Z</time>
      </trkpt>
      <trkpt lat="44.30665" lon="3.00643">
        <ele>745</ele>
        <time>2021-05-09T10:51:38.000Z</time>
      </trkpt>
      <trkpt lat="44.30667" lon="3.00669">
        <ele>741</ele>
        <time>2021-05-09T10:51:48.000Z</time>
      </trkpt>
      <trkpt lat="44.30665" lon="3.00684">
        <ele>739</ele>
        <time>2021-05-09T10:51:48.000Z</time>
      </trkpt>
      <trkpt lat="44.30667" lon="3.007">
        <ele>739</ele>
        <time>2021-05-09T10:51:58.000Z</time>
      </trkpt>
      <trkpt lat="44.30666" lon="3.00727">
        <ele>735</ele>
        <time>2021-05-09T10:52:01.000Z</time>
      </trkpt>
      <trkpt lat="44.30684" lon="3.00719">
        <ele>728</ele>
        <time>2021-05-09T10:52:11.000Z</time>
      </trkpt>
      <trkpt lat="44.30693" lon="3.00709">
        <ele>726</ele>
        <time>2021-05-09T10:52:18.000Z</time>
      </trkpt>
      <trkpt lat="44.30706" lon="3.00707">
        <ele>723</ele>
        <time>2021-05-09T10:52:28.000Z</time>
      </trkpt>
      <trkpt lat="44.30718" lon="3.00712">
        <ele>722</ele>
        <time>2021-05-09T10:52:25.000Z</time>
      </trkpt>
      <trkpt lat="44.30729" lon="3.00709">
        <ele>720</ele>
        <time>2021-05-09T10:52:35.000Z</time>
      </trkpt>
      <trkpt lat="44.30739" lon="3.00705">
        <ele>719</ele>
        <time>2021-05-09T10:52:35.000Z</time>
      </trkpt>
      <trkpt lat="44.3075" lon="3.00702">
        <ele>717</ele>
        <time>2021-05-09T10:52:45.000Z</time>
      </trkpt>
      <trkpt lat="44.30779" lon="3.00686">
        <ele>714</ele>
        <time>2021-05-09T10:52:51.000Z</time>
      </trkpt>
      <trkpt lat="44.30787" lon="3.00679">
        <ele>713</ele>
        <time>2021-05-09T10:53:01.000Z</time>
      </trkpt>
      <trkpt lat="44.30797" lon="3.00673">
        <ele>712</ele>
        <time>2021-05-09T10:52:59.000Z</time>
      </trkpt>
      <trkpt lat="44.30818" lon="3.00654">
        <ele>709</ele>
        <time>2021-05-09T10:53:08.000Z</time>
      </trkpt>
      <trkpt lat="44.30826" lon="3.00643">
        <ele>708</ele>
        <time>2021-05-09T10:53:18.000Z</time>
      </trkpt>
      <trkpt lat="44.30833" lon="3.0063">
        <ele>707</ele>
        <time>2021-05-09T10:53:16.000Z</time>
      </trkpt>
      <trkpt lat="44.3084" lon="3.00621">
        <ele>707</ele>
        <time>2021-05-09T10:53:26.000Z</time>
      </trkpt>
      <trkpt lat="44.30858" lon="3.00607">
        <ele>706</ele>
        <time>2021-05-09T10:53:27.000Z</time>
      </trkpt>
      <trkpt lat="44.30883" lon="3.00583">
        <ele>703</ele>
        <time>2021-05-09T10:53:39.000Z</time>
      </trkpt>
      <trkpt lat="44.30891" lon="3.00574">
        <ele>703</ele>
        <time>2021-05-09T10:53:49.000Z</time>
      </trkpt>
      <trkpt lat="44.30907" lon="3.00538">
        <ele>701</ele>
        <time>2021-05-09T10:53:54.000Z</time>
      </trkpt>
      <trkpt lat="44.30908" lon="3.00525">
        <ele>701</ele>
        <time>2021-05-09T10:54:04.000Z</time>
      </trkpt>
      <trkpt lat="44.30906" lon="3.00511">
        <ele>701</ele>
        <time>2021-05-09T10:54:03.000Z</time>
      </trkpt>
      <trkpt lat="44.30901" lon="3.00499">
        <ele>701</ele>
        <time>2021-05-09T10:54:13.000Z</time>
      </trkpt>
      <trkpt lat="44.30882" lon="3.00466">
        <ele>701</ele>
        <time>2021-05-09T10:54:41.000Z</time>
      </trkpt>
      <trkpt lat="44.30877" lon="3.00455">
        <ele>700</ele>
        <time>2021-05-09T10:54:51.000Z</time>
      </trkpt>
      <trkpt lat="44.30877" lon="3.00441">
        <ele>700</ele>
        <time>2021-05-09T10:54:50.000Z</time>
      </trkpt>
      <trkpt lat="44.30879" lon="3.00425">
        <ele>698</ele>
        <time>2021-05-09T10:55:00.000Z</time>
      </trkpt>
      <trkpt lat="44.3088" lon="3.00412">
        <ele>697</ele>
        <time>2021-05-09T10:54:57.000Z</time>
      </trkpt>
      <trkpt lat="44.30879" lon="3.00398">
        <ele>696</ele>
        <time>2021-05-09T10:55:07.000Z</time>
      </trkpt>
      <trkpt lat="44.3088" lon="3.00382">
        <ele>695</ele>
        <time>2021-05-09T10:55:04.000Z</time>
      </trkpt>
      <trkpt lat="44.30884" lon="3.0037">
        <ele>696</ele>
        <time>2021-05-09T10:55:14.000Z</time>
      </trkpt>
      <trkpt lat="44.30887" lon="3.00358">
        <ele>695</ele>
        <time>2021-05-09T10:55:24.000Z</time>
      </trkpt>
      <trkpt lat="44.30892" lon="3.00346">
        <ele>695</ele>
        <time>2021-05-09T10:55:24.000Z</time>
      </trkpt>
      <trkpt lat="44.30914" lon="3.00349">
        <ele>1</ele>
        <time>2021-05-09T07:42:03.000Z</time>
      </trkpt>
    </trkseg>
  </trk>
</gpx>